Provisional Data: Pine Creek near Telescope, PA


Please select a monitoring station.
Please select start date.
Please select start date.

Toggle Unit: C/F Toggle Unit: C/F
Sample Time Temperature (C) Temperature (F) Specific Conductivity (mS/cm) pH   Turbidity (NTU+) DO (mg/L)
5/17/2022 12:00:00 AM 11.44 52.592 0.075 7.07 1.89 9.83
5/17/2022 12:15:00 AM 11.38 52.484 0.075 7.06 1.84 9.84
5/17/2022 12:30:00 AM 11.32 52.376 0.075 7.06 2.06 9.85
5/17/2022 12:45:00 AM 11.27 52.286 0.075 7.06 2.12 9.87
5/17/2022 1:00:00 AM 11.21 52.178 0.075 7.06 1.73 9.89
5/17/2022 1:15:00 AM 11.15 52.07 0.074 7.06 1.75 9.91
5/17/2022 1:30:00 AM 11.09 51.962 0.074 7.06 1.91 9.94
5/17/2022 1:45:00 AM 11.03 51.854 0.074 7.06 1.63 9.95
5/17/2022 2:00:00 AM 10.98 51.764 0.075 7.06 1.66 9.96
5/17/2022 2:15:00 AM 10.92 51.656 0.075 7.06 1.67 9.98
5/17/2022 2:30:00 AM 10.88 51.584 0.075 7.06 1.57 10
5/17/2022 2:45:00 AM 10.83 51.494 0.075 7.06 1.52 10.01
5/17/2022 3:00:00 AM 10.79 51.422 0.076 7.07 1.63 10.03
5/17/2022 3:15:00 AM 10.74 51.332 0.076 7.07 1.72 10.05
5/17/2022 3:30:00 AM 10.7 51.26 0.076 7.07 1.51 10.06
5/17/2022 3:45:00 AM 10.66 51.188 0.076 7.06 2.01 10.06
5/17/2022 4:00:00 AM 10.61 51.098 0.076 7.07 1.68 10.07
5/17/2022 4:15:00 AM 10.57 51.026 0.076 7.06 1.67 10.08
5/17/2022 4:30:00 AM 10.53 50.954 0.076 7.06 1.62 10.08
5/17/2022 4:45:00 AM 10.49 50.882 0.076 7.06 1.54 10.09
5/17/2022 5:00:00 AM 10.44 50.792 0.076 7.06 1.59 10.09
5/17/2022 5:15:00 AM 10.4 50.72 0.076 7.06 1.44 10.11
5/17/2022 5:30:00 AM 10.36 50.648 0.076 7.06 1.46 10.11
5/17/2022 5:45:00 AM 10.32 50.576 0.076 7.06 1.38 10.12
5/17/2022 6:00:00 AM 10.28 50.504 0.076 7.06 1.34 10.13
5/17/2022 6:15:00 AM 10.24 50.432 0.076 7.06 1.33 10.16
5/17/2022 6:30:00 AM 10.21 50.378 0.076 7.06 1.56 10.19
5/17/2022 6:45:00 AM 10.18 50.324 0.076 7.07 1.41 10.22
5/17/2022 7:00:00 AM 10.17 50.306 0.076 7.08 1.32 10.3
5/17/2022 7:15:00 AM 10.16 50.288 0.076 7.08 1.3 10.35
5/17/2022 7:30:00 AM 10.14 50.252 0.076 7.09 1.81 10.38
5/17/2022 7:45:00 AM 10.13 50.234 0.076 7.1 1.45 10.42
5/17/2022 8:00:00 AM 10.13 50.234 0.076 7.1 1.2 10.46
5/17/2022 8:15:00 AM 10.15 50.27 0.076 7.11 1.08 10.49
5/17/2022 8:30:00 AM 10.19 50.342 0.076 7.12 1.32 10.54
5/17/2022 8:45:00 AM 10.24 50.432 0.076 7.13 1.3 10.56
5/17/2022 9:00:00 AM 10.31 50.558 0.076 7.13 1.12 10.57
5/17/2022 9:15:00 AM 10.35 50.63 0.076 7.13 1.14 10.57
5/17/2022 9:30:00 AM 10.43 50.774 0.076 7.14 1.06 10.55
5/17/2022 9:45:00 AM 10.51 50.918 0.076 7.14 1.24 10.55
5/17/2022 10:00:00 AM 10.63 51.134 0.076 7.14 1.18 10.53
5/17/2022 10:15:00 AM 10.76 51.368 0.076 7.14 1.07 10.52
5/17/2022 10:30:00 AM 10.91 51.638 0.076 7.15 1.07 10.51
5/17/2022 10:45:00 AM 11.05 51.89 0.075 7.15 1.01 10.48
5/17/2022 11:00:00 AM 11.19 52.142 0.075 7.15 1.06 10.45
5/17/2022 11:15:00 AM 11.35 52.43 0.075 7.15 1.21 10.42
5/17/2022 11:30:00 AM 11.52 52.736 0.075 7.15 1.15 10.37
5/17/2022 11:45:00 AM 11.71 53.078 0.075 7.15 1.03 10.33
5/17/2022 12:00:00 PM 11.9 53.42 0.075 7.16 1.06 10.3
5/17/2022 12:15:00 PM 12.08 53.744 0.075 7.16 1.06 10.26
5/17/2022 12:30:00 PM 12.3 54.14 0.075 7.16 1.07 10.2
5/17/2022 12:45:00 PM 12.51 54.518 0.075 7.14 1.05 10.15
5/17/2022 1:00:00 PM 12.55 54.59 0.075 7.16 1.05 10.08
5/17/2022 1:15:00 PM 12.74 54.932 0.075 7.16 0.98 10.02
5/17/2022 1:30:00 PM 12.86 55.148 0.075 7.15 1.2 9.98
5/17/2022 1:45:00 PM 13.1 55.58 0.075 7.15 1.01 9.91
5/17/2022 2:00:00 PM 13.23 55.814 0.075 7.15 1.11 9.86
5/17/2022 2:15:00 PM 13.38 56.084 0.075 7.14 1.06 9.79
5/17/2022 2:30:00 PM 13.5 56.3 0.075 7.14 1.08 9.75
5/17/2022 2:45:00 PM 13.52 56.336 0.075 7.14 1.22 9.69
5/17/2022 3:00:00 PM 13.6 56.48 0.075 7.14 0.97 9.64
5/17/2022 3:15:00 PM 13.66 56.588 0.075 7.13 1.02 9.6
5/17/2022 3:30:00 PM 13.77 56.786 0.075 7.13 0.99 9.58
5/17/2022 3:45:00 PM 13.81 56.858 0.075 7.13 0.92 9.53
5/17/2022 4:00:00 PM 13.88 56.984 0.075 7.13 0.88 9.48
5/17/2022 4:15:00 PM 13.93 57.074 0.075 7.12 0.99 9.44
5/17/2022 4:30:00 PM 13.92 57.056 0.075 7.11 0.91 9.37
5/17/2022 4:45:00 PM 13.91 57.038 0.075 7.11 0.91 9.34
5/17/2022 5:00:00 PM 13.92 57.056 0.075 7.1 0.92 9.29
5/17/2022 5:15:00 PM 13.89 57.002 0.075 7.09 0.92 9.25
5/17/2022 5:30:00 PM 13.89 57.002 0.075 7.09 0.94 9.22
5/17/2022 5:45:00 PM 13.9 57.02 0.075 7.08 1.32 9.21
5/17/2022 6:00:00 PM 13.91 57.038 0.075 7.08 1.02 9.17
5/17/2022 6:15:00 PM 13.92 57.056 0.075 7.07 1.04 9.16
5/17/2022 6:30:00 PM 13.91 57.038 0.075 7.07 1.01 9.14
5/17/2022 6:45:00 PM 13.88 56.984 0.076 7.06 3.19 9.13
5/17/2022 7:00:00 PM 13.81 56.858 0.076 7.05 2.49 9.07
5/17/2022 7:15:00 PM 13.78 56.804 0.076 7.05 2.41 9.06
5/17/2022 7:30:00 PM 13.74 56.732 0.076 7.04 2.58 9.04
5/17/2022 7:45:00 PM 13.66 56.588 0.076 7.03 3.17 9.02
5/17/2022 8:00:00 PM 13.61 56.498 0.076 7.02 3.2 9
5/17/2022 8:15:00 PM 13.55 56.39 0.076 7.02 3.19 8.97
5/17/2022 8:30:00 PM 13.48 56.264 0.076 7.01 3.15 8.97
5/17/2022 8:45:00 PM 13.41 56.138 0.076 7 3.15 8.96
5/17/2022 9:00:00 PM 13.33 55.994 0.077 7 3.17 8.97
5/17/2022 9:15:00 PM 13.26 55.868 0.077 6.99 3.56 8.98
5/17/2022 9:30:00 PM 13.19 55.742 0.077 6.99 3.19 8.99
5/17/2022 9:45:00 PM 13.1 55.58 0.077 6.98 3.23 9
5/17/2022 10:00:00 PM 13.01 55.418 0.077 6.98 3.28 9.02
5/17/2022 10:15:00 PM 12.92 55.256 0.077 6.98 3.2 9.05
5/17/2022 10:30:00 PM 12.81 55.058 0.077 6.98 3.21 9.07
5/17/2022 10:45:00 PM 12.71 54.878 0.077 6.98 3.25 9.11
5/17/2022 11:00:00 PM 12.62 54.716 0.077 6.97 1.51 9.13
5/17/2022 11:15:00 PM 12.53 54.554 0.077 6.97 5.22 9.16
5/17/2022 11:30:00 PM 12.42 54.356 0.077 6.97 2.71 9.19
5/17/2022 11:45:00 PM 12.32 54.176 0.077 6.97 3.29 9.22
5/18/2022 12:00:00 AM 12.22 53.996 0.077 6.97 3.23 9.25
5/18/2022 12:15:00 AM 12.12 53.816 0.077 6.97 3.21 9.28
5/18/2022 12:30:00 AM 12.04 53.672 0.077 6.96 3.49 9.29
5/18/2022 12:45:00 AM 11.96 53.528 0.077 6.96 18.66 9.3
5/18/2022 1:00:00 AM 11.86 53.348 0.077 6.96 5.04 9.34
5/18/2022 1:15:00 AM 11.76 53.168 0.077 6.96 6.01 9.37
5/18/2022 1:30:00 AM 11.67 53.006 0.077 6.95 12.33 9.38
5/18/2022 1:45:00 AM 11.57 52.826 0.077 6.96 2.74 9.43
5/18/2022 2:00:00 AM 11.48 52.664 0.077 6.95 1.58 9.42
5/18/2022 2:15:00 AM 11.38 52.484 0.077 6.96 1.57 9.49
5/18/2022 2:30:00 AM 11.29 52.322 0.077 6.96 0.75 9.51
5/18/2022 2:45:00 AM 11.2 52.16 0.077 6.96 0.86 9.53
5/18/2022 3:00:00 AM 11.1 51.98 0.077 6.96 0.69 9.56
5/18/2022 3:15:00 AM 11.02 51.836 0.077 6.95 0.65 9.58
5/18/2022 3:30:00 AM 10.92 51.656 0.077 6.95 0.65 9.62
5/18/2022 3:45:00 AM 10.83 51.494 0.077 6.95 0.63 9.64
5/18/2022 4:00:00 AM 10.75 51.35 0.077 6.95 0.66 9.67
5/18/2022 4:15:00 AM 10.64 51.152 0.077 6.95 0.66 9.71
5/18/2022 4:30:00 AM 10.56 51.008 0.077 6.95 0.67 9.74
5/18/2022 4:45:00 AM 10.48 50.864 0.077 6.95 0.73 9.76
5/18/2022 5:00:00 AM 10.38 50.684 0.077 6.95 0.67 9.79
5/18/2022 5:15:00 AM 10.3 50.54 0.077 6.95 0.69 9.82
5/18/2022 5:30:00 AM 10.22 50.396 0.077 6.95 0.75 9.84
5/18/2022 5:45:00 AM 10.12 50.216 0.077 6.95 0.68 9.87
5/18/2022 6:00:00 AM 10.05 50.09 0.077 6.95 0.7 9.91
5/18/2022 6:15:00 AM 9.96 49.928 0.077 6.91 0.64 9.96
5/18/2022 6:30:00 AM 9.9 49.82 0.077 6.91 0.84 10.01
5/18/2022 6:45:00 AM 9.83 49.694 0.077 6.92 0.65 10.06
5/18/2022 7:00:00 AM 9.78 49.604 0.077 6.91 1.49 10.1
5/18/2022 7:15:00 AM 9.73 49.514 0.077 6.92 1 10.16
5/18/2022 7:30:00 AM 9.69 49.442 0.077 6.93 0.66 10.2
5/18/2022 7:45:00 AM 9.66 49.388 0.077 6.93 0.58 10.25
5/18/2022 8:00:00 AM 9.64 49.352 0.077 6.93 0.86 10.3
5/18/2022 8:15:00 AM 9.63 49.334 0.076 6.95 0.75 10.35
5/18/2022 8:30:00 AM 9.62 49.316 0.076 6.96 0.63 10.41
5/18/2022 8:45:00 AM 9.62 49.316 0.076 6.96 0.65 10.45
5/18/2022 9:00:00 AM 9.61 49.298 0.076 6.97 0.65 10.5
5/18/2022 9:15:00 AM 9.64 49.352 0.076 6.98 0.58 10.52
5/18/2022 9:30:00 AM 9.65 49.37 0.076 6.99 0.57 10.55
5/18/2022 9:45:00 AM 9.68 49.424 0.076 6.99 0.65 10.56
5/18/2022 10:00:00 AM 9.7 49.46 0.076 7 0.56 10.58
5/18/2022 10:15:00 AM 9.72 49.496 0.076 7.01 0.62 10.59
5/18/2022 10:30:00 AM 9.8 49.64 0.076 7.01 0.61 10.6
5/18/2022 10:45:00 AM 9.88 49.784 0.076 7.01 0.61 10.6
5/18/2022 11:00:00 AM 9.95 49.91 0.076 7.02 1.03 10.59
5/18/2022 11:15:00 AM 10.05 50.09 0.076 7.02 0.53 10.58
5/18/2022 11:30:00 AM 10.18 50.324 0.076 7.02 8.67 10.53
5/18/2022 11:45:00 AM 10.3 50.54 0.076 7.03 0.6 10.53
5/18/2022 12:00:00 PM 10.47 50.846 0.076 7.03 0.58 10.48
5/18/2022 12:15:00 PM 10.56 51.008 0.075 7.04 0.51 10.47
5/18/2022 12:30:00 PM 10.51 50.918 0.075 7.04 0.7 10.45
5/18/2022 12:45:00 PM 10.58 51.044 0.075 7.04 0.59 10.41
5/18/2022 1:00:00 PM 10.98 51.764 0.075 7.04 0.67 10.36
5/18/2022 1:15:00 PM 11.16 52.088 0.075 7.05 0.58 10.31
5/18/2022 1:30:00 PM 11.08 51.944 0.075 7.05 0.55 10.26
5/18/2022 1:45:00 PM 11.26 52.268 0.075 7.05 0.58 10.23
5/18/2022 2:00:00 PM 11.31 52.358 0.075 7.05 0.63 10.17
5/18/2022 2:15:00 PM 11.44 52.592 0.075 7.05 0.51 10.13
5/18/2022 2:30:00 PM 11.43 52.574 0.075 7.05 0.53 10.05
5/18/2022 2:45:00 PM 11.42 52.556 0.075 7.04 0.52 10
5/18/2022 3:00:00 PM 11.49 52.682 0.075 7.04 0.59 9.94
5/18/2022 3:15:00 PM 11.54 52.772 0.076 7.04 0.54 9.88
5/18/2022 3:30:00 PM 11.56 52.808 0.076 7.03 0.6 9.77
5/18/2022 3:45:00 PM 11.65 52.97 0.076 7.02 0.51 9.74
5/18/2022 4:00:00 PM 11.93 53.474 0.076 7.06 0.68 9.83
5/18/2022 4:15:00 PM 12.01 53.618 0.077 7.07 0.87 9.8
5/18/2022 4:30:00 PM 12.02 53.636 0.077 7.05 0.58 9.71
5/18/2022 4:45:00 PM 12.05 53.69 0.077 7.04 0.54 9.64
5/18/2022 5:00:00 PM 12.07 53.726 0.077 7.03 0.5 9.56
5/18/2022 5:15:00 PM 12.12 53.816 0.077 7.03 0.59 9.56
5/18/2022 5:30:00 PM 12.13 53.834 0.078 7.01 0.55 9.47
5/18/2022 5:45:00 PM 12.15 53.87 0.078 7.01 0.65 9.43
5/18/2022 6:00:00 PM 12.17 53.906 0.078 7 0.59 9.37
5/18/2022 6:15:00 PM 12.18 53.924 0.078 6.99 0.58 9.3
5/18/2022 6:30:00 PM 12.2 53.96 0.078 6.98 0.53 9.27
5/18/2022 6:45:00 PM 12.21 53.978 0.078 6.98 0.83 9.24
5/18/2022 7:00:00 PM 12.22 53.996 0.078 6.97 0.56 9.21
5/18/2022 7:15:00 PM 12.23 54.014 0.078 6.97 0.83 9.19
5/18/2022 7:30:00 PM 12.23 54.014 0.078 6.96 0.65 9.16
5/18/2022 7:45:00 PM 12.22 53.996 0.078 6.96 0.6 9.13
5/18/2022 8:00:00 PM 12.21 53.978 0.078 6.96 0.55 9.11
5/18/2022 8:15:00 PM 12.2 53.96 0.083 7.04 5.26 9.08
5/18/2022 8:30:00 PM 12.18 53.924 0.078 6.96 0.69 9.09
5/18/2022 8:45:00 PM 12.15 53.87 0.078 6.95 0.81 9.09
5/18/2022 9:00:00 PM 12.12 53.816 0.078 6.95 0.88 9.1
5/18/2022 9:15:00 PM 12.08 53.744 0.078 6.95 0.81 9.11
5/18/2022 9:30:00 PM 12.04 53.672 0.078 6.96 1.48 9.13
5/18/2022 9:45:00 PM 11.98 53.564 0.078 6.97 1.08 9.17
5/18/2022 10:00:00 PM 11.91 53.438 0.077 6.97 1.55 9.21
5/18/2022 10:15:00 PM 11.85 53.33 0.078 6.97 1.06 9.26
5/18/2022 10:30:00 PM 11.77 53.186 0.078 6.98 1.7 9.33
5/18/2022 10:45:00 PM 11.69 53.042 0.077 6.99 1.32 9.4
5/18/2022 11:00:00 PM 11.6 52.88 0.077 7 1.35 9.46
5/18/2022 11:15:00 PM 11.51 52.718 0.077 7.01 2.2 9.53
5/18/2022 11:30:00 PM 11.41 52.538 0.077 7.02 1.43 9.61
5/18/2022 11:45:00 PM 11.32 52.376 0.077 7.03 1.22 9.68
5/19/2022 12:00:00 AM 11.24 52.232 0.077 7.04 1.47 9.74
5/19/2022 12:15:00 AM 11.17 52.106 0.077 7.05 1.69 9.78
5/19/2022 12:30:00 AM 11.11 51.998 0.077 7.05 1.67 9.81
5/19/2022 12:45:00 AM 11.05 51.89 0.077 7.05 1.53 9.84
5/19/2022 1:00:00 AM 11 51.8 0.076 7.05 2.19 9.87
5/19/2022 1:15:00 AM 10.95 51.71 0.076 7.06 1.6 9.89
5/19/2022 1:30:00 AM 10.91 51.638 0.076 7.06 1.51 9.91
5/19/2022 1:45:00 AM 10.87 51.566 0.076 7.06 1.57 9.93
5/19/2022 2:00:00 AM 10.83 51.494 0.076 7.06 1.41 9.95
5/19/2022 2:15:00 AM 10.8 51.44 0.076 7.07 1.68 9.97
5/19/2022 2:30:00 AM 10.78 51.404 0.077 7.07 1.56 9.98
5/19/2022 2:45:00 AM 10.75 51.35 0.077 7.07 1.62 9.99
5/19/2022 3:00:00 AM 10.73 51.314 0.077 7.07 1.64 10.01
5/19/2022 3:15:00 AM 10.72 51.296 0.077 7.07 1.54 10
5/19/2022 3:30:00 AM 10.71 51.278 0.077 7.07 1.4 10
5/19/2022 3:45:00 AM 10.7 51.26 0.077 7.07 1.48 9.99
5/19/2022 4:00:00 AM 10.69 51.242 0.078 7.08 1.57 10
5/19/2022 4:15:00 AM 10.69 51.242 0.078 7.07 1.39 9.99
5/19/2022 4:30:00 AM 10.68 51.224 0.078 7.07 2.19 9.99
5/19/2022 4:45:00 AM 10.67 51.206 0.078 7.07 1.59 9.98
5/19/2022 5:00:00 AM 10.67 51.206 0.078 7.07 2.11 9.97
5/19/2022 5:15:00 AM 10.66 51.188 0.078 7.07 1.59 9.97
5/19/2022 5:30:00 AM 10.65 51.17 0.078 7.07 1.46 9.97
5/19/2022 5:45:00 AM 10.65 51.17 0.078 7.07 2.37 9.96
5/19/2022 6:00:00 AM 10.64 51.152 0.078 7.07 1.39 9.96
5/19/2022 6:15:00 AM 10.64 51.152 0.078 7.07 1.29 9.96
5/19/2022 6:30:00 AM 10.64 51.152 0.078 7.07 1.4 9.97
5/19/2022 6:45:00 AM 10.63 51.134 0.078 7.06 2.25 9.97
5/19/2022 7:00:00 AM 10.63 51.134 0.078 7.07 1.2 9.98
5/19/2022 7:15:00 AM 10.63 51.134 0.078 7.07 1.12 9.98
5/19/2022 7:30:00 AM 10.63 51.134 0.078 7.07 1.09 10.01
5/19/2022 7:45:00 AM 10.63 51.134 0.079 7.07 1.04 10.01
5/19/2022 8:00:00 AM 10.64 51.152 0.079 7.07 1.01 10.03
5/19/2022 8:15:00 AM 10.64 51.152 0.079 7.07 1.02 10.02
5/19/2022 8:30:00 AM 10.64 51.152 0.078 7.07 0.91 10.04
5/19/2022 8:45:00 AM 10.63 51.134 0.079 7.09 1.05 10.09
5/19/2022 9:00:00 AM 10.63 51.134 0.081 7.08 2.19 10.09
5/19/2022 9:15:00 AM 10.63 51.134 0.081 7.09 1.23 10.1
5/19/2022 9:30:00 AM 10.64 51.152 0.081 7.09 1.58 10.13
5/19/2022 9:45:00 AM 10.65 51.17 0.08 7.09 1.12 10.15
5/19/2022 10:00:00 AM 10.68 51.224 0.08 7.1 1.04 10.16
5/19/2022 10:15:00 AM 10.71 51.278 0.08 7.1 1.09 10.19
5/19/2022 10:30:00 AM 10.73 51.314 0.08 7.1 0.94 10.19
5/19/2022 10:45:00 AM 10.75 51.35 0.08 7.11 0.95 10.19
5/19/2022 11:00:00 AM 10.75 51.35 0.08 7.1 1.03 10.15
5/19/2022 11:15:00 AM 10.78 51.404 0.079 7.1 0.95 10.18
5/19/2022 11:30:00 AM 10.79 51.422 0.079 7.1 0.87 10.16
5/19/2022 11:45:00 AM 10.86 51.548 0.079 7.11 0.89 10.21
5/19/2022 12:00:00 PM 10.96 51.728 0.079 7.12 0.86 10.25
5/19/2022 12:15:00 PM 11.1 51.98 0.079 7.12 0.85 10.27
5/19/2022 12:30:00 PM 11.39 52.502 0.079 7.13 1.07 10.25
5/19/2022 12:45:00 PM 11.44 52.592 0.079 7.14 0.79 10.22
5/19/2022 1:00:00 PM 11.63 52.934 0.079 7.14 0.79 10.22
5/19/2022 1:15:00 PM 11.74 53.132 0.078 7.14 0.82 10.18
5/19/2022 1:30:00 PM 11.66 52.988 0.078 7.13 1.12 9.95
5/19/2022 1:45:00 PM 11.89 53.402 0.078 7.13 0.76 10.08
5/19/2022 2:00:00 PM 11.84 53.312 0.078 7.13 1.02 10.06
5/19/2022 2:15:00 PM 12.1 53.78 0.078 7.14 0.85 10.06
5/19/2022 2:30:00 PM 12.06 53.708 0.078 7.13 0.8 9.98
5/19/2022 2:45:00 PM 12.41 54.338 0.078 7.13 0.82 9.99
5/19/2022 3:00:00 PM 12.51 54.518 0.078 7.13 0.83 9.94
5/19/2022 3:15:00 PM 12.57 54.626 0.078 7.12 0.84 9.89
5/19/2022 3:30:00 PM 12.59 54.662 0.078 7.12 0.8 9.82
5/19/2022 3:45:00 PM 12.67 54.806 0.078 7.12 2.12 9.78
5/19/2022 4:00:00 PM 12.67 54.806 0.078 7.12 0.72 9.72
5/19/2022 4:15:00 PM 12.78 55.004 0.078 7.11 0.86 9.69
5/19/2022 4:30:00 PM 12.81 55.058 0.078 7.11 0.84 9.62
5/19/2022 4:45:00 PM 12.84 55.112 0.078 7.1 0.89 9.57
5/19/2022 5:00:00 PM 12.88 55.184 0.078 7.09 0.75 9.52
5/19/2022 5:15:00 PM 12.89 55.202 0.078 7.08 0.8 9.45
5/19/2022 5:30:00 PM 12.91 55.238 0.078 7.08 0.84 9.39
5/19/2022 5:45:00 PM 12.94 55.292 0.078 7.07 0.72 9.33
5/19/2022 6:00:00 PM 12.96 55.328 0.078 7.06 0.69 9.28
5/19/2022 6:15:00 PM 12.99 55.382 0.078 7.05 0.71 9.24
5/19/2022 6:30:00 PM 13.02 55.436 0.078 7.05 0.77 9.21
5/19/2022 6:45:00 PM 13.05 55.49 0.078 7.05 0.78 9.19
5/19/2022 7:00:00 PM 13.07 55.526 0.078 7.04 0.69 9.15
5/19/2022 7:15:00 PM 13.09 55.562 0.078 7.04 0.64 9.15
5/19/2022 7:30:00 PM 13.1 55.58 0.078 7.03 0.86 9.1
5/19/2022 7:45:00 PM 13.09 55.562 0.078 7.03 0.85 9.08
5/19/2022 8:00:00 PM 13.08 55.544 0.079 7.02 0.84 9.04
5/19/2022 8:15:00 PM 13.06 55.508 0.079 7.01 0.77 9.02
5/19/2022 8:30:00 PM 13.03 55.454 0.079 7.01 0.73 9.01
5/19/2022 8:45:00 PM 13 55.4 0.079 7.01 0.99 8.99
5/19/2022 9:00:00 PM 12.98 55.364 0.079 7 0.83 8.99
5/19/2022 9:15:00 PM 12.94 55.292 0.079 7 0.75 8.99
5/19/2022 9:30:00 PM 12.91 55.238 0.079 7 0.96 8.99
5/19/2022 9:45:00 PM 12.88 55.184 0.079 7 0.82 9
5/19/2022 10:00:00 PM 12.84 55.112 0.079 6.99 0.89 9
5/19/2022 10:15:00 PM 12.8 55.04 0.08 6.99 0.84 9
5/19/2022 10:30:00 PM 12.76 54.968 0.08 6.99 0.87 9.01
5/19/2022 10:45:00 PM 12.7 54.86 0.08 6.98 0.86 9.01
5/19/2022 11:00:00 PM 12.65 54.77 0.08 6.98 0.82 9.02
5/19/2022 11:15:00 PM 12.61 54.698 0.08 6.98 0.82 9.03
5/19/2022 11:30:00 PM 12.56 54.608 0.08 6.98 0.71 9.03
5/19/2022 11:45:00 PM 12.51 54.518 0.08 6.97 0.88 9.04
5/20/2022 12:00:00 AM 12.46 54.428 0.08 6.97 0.81 9.05
5/20/2022 12:15:00 AM 12.41 54.338 0.08 6.97 0.87 9.06
5/20/2022 12:30:00 AM 12.34 54.212 0.08 6.97 0.8 9.08
5/20/2022 12:45:00 AM 12.28 54.104 0.08 6.96 0.92 9.11
5/20/2022 1:00:00 AM 12.21 53.978 0.08 6.97 0.76 9.13
5/20/2022 1:15:00 AM 12.13 53.834 0.08 6.97 0.85 9.17
5/20/2022 1:30:00 AM 12.07 53.726 0.08 6.97 0.84 9.19
5/20/2022 1:45:00 AM 12.01 53.618 0.08 6.97 0.9 9.19
5/20/2022 2:00:00 AM 11.96 53.528 0.08 6.97 0.9 9.21
5/20/2022 2:15:00 AM 11.9 53.42 0.08 6.96 1.09 9.22
5/20/2022 2:30:00 AM 11.83 53.294 0.08 6.96 0.85 9.24
5/20/2022 2:45:00 AM 11.78 53.204 0.08 6.96 0.94 9.25
5/20/2022 3:00:00 AM 11.71 53.078 0.08 6.96 0.86 9.27
5/20/2022 3:15:00 AM 11.66 52.988 0.08 6.95 0.87 9.28
5/20/2022 3:30:00 AM 11.6 52.88 0.08 6.95 0.96 9.29
5/20/2022 3:45:00 AM 11.54 52.772 0.08 6.95 0.95 9.3
5/20/2022 4:00:00 AM 11.48 52.664 0.08 6.95 0.86 9.32
5/20/2022 4:15:00 AM 11.42 52.556 0.08 6.95 1.07 9.33
5/20/2022 4:30:00 AM 11.36 52.448 0.08 6.95 0.82 9.35
5/20/2022 4:45:00 AM 11.31 52.358 0.08 6.95 0.78 9.36
5/20/2022 5:00:00 AM 11.24 52.232 0.08 6.95 1.51 9.38
5/20/2022 5:15:00 AM 11.19 52.142 0.08 6.95 8.47 9.39
5/20/2022 5:30:00 AM 11.13 52.034 0.08 6.95 0.76 9.42
5/20/2022 5:45:00 AM 11.08 51.944 0.08 6.94 0.8 9.43
5/20/2022 6:00:00 AM 11.02 51.836 0.08 6.95 0.7 9.46
5/20/2022 6:15:00 AM 10.97 51.746 0.08 6.95 1.06 9.5
5/20/2022 6:30:00 AM 10.94 51.692 0.08 6.95 0.85 9.54
5/20/2022 6:45:00 AM 10.9 51.62 0.08 6.95 0.66 9.55
5/20/2022 7:00:00 AM 10.86 51.548 0.08 6.95 0.8 9.59
5/20/2022 7:15:00 AM 10.83 51.494 0.08 6.95 0.81 9.67
5/20/2022 7:30:00 AM 10.81 51.458 0.08 6.95 1.31 9.72
5/20/2022 7:45:00 AM 10.79 51.422 0.08 6.97 0.74 9.8
5/20/2022 8:00:00 AM 10.78 51.404 0.08 6.97 0.87 9.82
5/20/2022 8:15:00 AM 10.77 51.386 0.08 6.98 0.71 9.86
5/20/2022 8:30:00 AM 10.76 51.368 0.08 6.98 0.72 9.92
5/20/2022 8:45:00 AM 10.77 51.386 0.08 6.98 0.75 9.95
5/20/2022 9:00:00 AM 10.81 51.458 0.08 6.99 0.65 10.01
5/20/2022 9:15:00 AM 10.8 51.44 0.079 6.99 0.8 10.03
5/20/2022 9:30:00 AM 10.83 51.494 0.079 7 0.65 10.06
5/20/2022 9:45:00 AM 10.82 51.476 0.079 7 0.72 10.08
5/20/2022 10:00:00 AM 10.81 51.458 0.079 7 0.77 10.07
5/20/2022 10:15:00 AM 10.83 51.494 0.079 7 0.67 10.1
5/20/2022 10:30:00 AM 10.92 51.656 0.079 7.01 0.73 10.13
5/20/2022 10:45:00 AM 11.05 51.89 0.079 7.02 0.69 10.14
5/20/2022 11:00:00 AM 11.09 51.962 0.079 7.01 1.05 10.1
5/20/2022 11:15:00 AM 11.19 52.142 0.079 7.02 0.75 10.13
5/20/2022 11:30:00 AM 11.29 52.322 0.079 7.03 0.81 10.12
5/20/2022 11:45:00 AM 11.43 52.574 0.079 7.03 0.79 10.1
5/20/2022 12:00:00 PM 11.6 52.88 0.078 7.03 0.67 10.08
5/20/2022 12:15:00 PM 11.72 53.096 0.078 7.03 0.72 10.06
5/20/2022 12:30:00 PM 11.88 53.384 0.078 7.03 0.67 10.02
5/20/2022 12:45:00 PM 12.01 53.618 0.078 7.03 0.7 9.99
5/20/2022 1:00:00 PM 12.04 53.672 0.078 7.03 0.66 9.95
5/20/2022 1:15:00 PM 12.17 53.906 0.078 7.03 0.67 9.9
5/20/2022 1:30:00 PM 12.47 54.446 0.078 7.04 0.69 9.87
5/20/2022 1:45:00 PM 12.61 54.698 0.078 7.03 0.7 9.8
5/20/2022 2:00:00 PM 12.58 54.644 0.078 7.03 0.79 9.71
5/20/2022 2:15:00 PM 12.48 54.464 0.078 7.02 0.7 9.62
5/20/2022 2:30:00 PM 12.58 54.644 0.078 7.02 0.62 9.59
5/20/2022 2:45:00 PM 12.81 55.058 0.078 7.03 0.84 9.59
5/20/2022 3:00:00 PM 12.78 55.004 0.078 7.02 0.65 9.44
5/20/2022 3:15:00 PM 12.82 55.076 0.078 7.01 0.64 9.4
5/20/2022 3:30:00 PM 12.91 55.238 0.078 7.01 0.88 9.33
5/20/2022 3:45:00 PM 12.97 55.346 0.078 7.01 0.76 9.27
5/20/2022 4:00:00 PM 13.04 55.472 0.078 7 0.72 9.25
5/20/2022 4:15:00 PM 13.15 55.67 0.078 7.01 0.79 9.22
5/20/2022 4:30:00 PM 13.26 55.868 0.078 7 0.72 9.19
5/20/2022 4:45:00 PM 13.31 55.958 0.078 7 0.74 9.08
5/20/2022 5:00:00 PM 13.36 56.048 0.078 6.99 0.67 9.01
5/20/2022 5:15:00 PM 13.41 56.138 0.078 6.98 0.67 8.96
5/20/2022 5:30:00 PM 13.46 56.228 0.078 6.97 0.64 8.91
5/20/2022 5:45:00 PM 13.5 56.3 0.078 6.97 0.68 8.86
5/20/2022 6:00:00 PM 13.55 56.39 0.079 6.97 0.68 8.83
5/20/2022 6:15:00 PM 13.59 56.462 0.079 6.96 0.69 8.82
5/20/2022 6:30:00 PM 13.63 56.534 0.079 6.96 0.65 8.78
5/20/2022 6:45:00 PM 13.68 56.624 0.079 6.96 0.68 8.78
5/20/2022 7:00:00 PM 13.73 56.714 0.079 6.97 0.84 8.81
5/20/2022 7:15:00 PM 13.75 56.75 0.079 6.96 0.58 8.76
5/20/2022 7:30:00 PM 13.75 56.75 0.079 6.96 0.66 8.72
5/20/2022 7:45:00 PM 13.75 56.75 0.079 6.95 0.72 8.7
5/20/2022 8:00:00 PM 13.76 56.768 0.079 6.94 0.73 8.65
5/20/2022 8:15:00 PM 13.76 56.768 0.079 6.94 0.74 8.63
5/20/2022 8:30:00 PM 13.76 56.768 0.079 6.93 0.69 8.62
5/20/2022 8:45:00 PM 13.75 56.75 0.079 6.93 0.85 8.59
5/20/2022 9:00:00 PM 13.74 56.732 0.08 6.92 1.02 8.57
5/20/2022 9:15:00 PM 13.73 56.714 0.08 6.91 2.57 8.54
5/20/2022 9:30:00 PM 13.72 56.696 0.08 6.92 0.72 8.54
5/20/2022 9:45:00 PM 13.7 56.66 0.08 6.94 84.32 8.51
5/20/2022 10:00:00 PM 13.68 56.624 0.08 6.92 1.11 8.53
5/20/2022 10:15:00 PM 13.66 56.588 0.08 6.91 0.75 8.53
5/20/2022 10:30:00 PM 13.64 56.552 0.08 6.91 0.76 8.53
5/20/2022 10:45:00 PM 13.61 56.498 0.08 6.91 0.64 8.53
5/20/2022 11:00:00 PM 13.59 56.462 0.08 6.91 0.68 8.53
5/20/2022 11:15:00 PM 13.55 56.39 0.081 6.9 0.76 8.54
5/20/2022 11:30:00 PM 13.53 56.354 0.081 6.9 0.74 8.55
5/20/2022 11:45:00 PM 13.49 56.282 0.081 6.9 0.71 8.56
5/21/2022 12:00:00 AM 13.46 56.228 0.081 6.9 0.77 8.56
5/21/2022 12:15:00 AM 13.42 56.156 0.081 6.9 0.78 8.57
5/21/2022 12:30:00 AM 13.39 56.102 0.081 6.9 0.8 8.58
5/21/2022 12:45:00 AM 13.35 56.03 0.081 6.89 0.66 8.59
5/21/2022 1:00:00 AM 13.31 55.958 0.081 6.9 0.63 8.61
5/21/2022 1:15:00 AM 13.28 55.904 0.081 6.9 0.73 8.63
5/21/2022 1:30:00 AM 13.24 55.832 0.081 6.89 0.66 8.62
5/21/2022 1:45:00 AM 13.21 55.778 0.081 6.89 0.68 8.64
5/21/2022 2:00:00 AM 13.18 55.724 0.081 6.89 0.72 8.65
5/21/2022 2:15:00 AM 13.14 55.652 0.081 6.89 0.67 8.65
5/21/2022 2:30:00 AM 13.1 55.58 0.081 6.89 0.77 8.67
5/21/2022 2:45:00 AM 13.07 55.526 0.081 6.88 0.76 8.67
5/21/2022 3:00:00 AM 13.03 55.454 0.081 6.88 0.68 8.69
5/21/2022 3:15:00 AM 12.99 55.382 0.081 6.88 0.7 8.7
5/21/2022 3:30:00 AM 12.95 55.31 0.081 6.88 0.88 8.71
5/21/2022 3:45:00 AM 12.91 55.238 0.081 6.88 0.62 8.74
5/21/2022 4:00:00 AM 12.87 55.166 0.081 6.88 0.89 8.75
5/21/2022 4:15:00 AM 12.84 55.112 0.082 6.88 0.73 8.74
5/21/2022 4:30:00 AM 12.8 55.04 0.082 6.88 0.87 8.77
5/21/2022 4:45:00 AM 12.76 54.968 0.082 6.88 0.94 8.78
5/21/2022 5:00:00 AM 12.72 54.896 0.082 6.88 0.87 8.79
5/21/2022 5:15:00 AM 12.68 54.824 0.082 6.88 0.85 8.8
5/21/2022 5:30:00 AM 12.64 54.752 0.082 6.88 0.77 8.82
5/21/2022 5:45:00 AM 12.6 54.68 0.082 6.88 0.82 8.83
5/21/2022 6:00:00 AM 12.56 54.608 0.082 6.88 0.84 8.85
5/21/2022 6:15:00 AM 12.53 54.554 0.082 6.88 0.77 8.88
5/21/2022 6:30:00 AM 12.5 54.5 0.082 6.89 0.74 8.92
5/21/2022 6:45:00 AM 12.47 54.446 0.082 6.89 0.88 8.93
5/21/2022 7:00:00 AM 12.44 54.392 0.082 6.89 0.7 8.97
5/21/2022 7:15:00 AM 12.42 54.356 0.081 6.89 0.66 9
5/21/2022 7:30:00 AM 12.4 54.32 0.081 6.89 1.05 9.04
5/21/2022 7:45:00 AM 12.39 54.302 0.081 6.9 0.8 9.08
5/21/2022 8:00:00 AM 12.37 54.266 0.081 6.9 0.8 9.12
5/21/2022 8:15:00 AM 12.38 54.284 0.081 6.9 0.68 9.14
5/21/2022 8:30:00 AM 12.37 54.266 0.081 6.9 0.77 9.19
5/21/2022 8:45:00 AM 12.38 54.284 0.081 6.9 0.76 9.21
5/21/2022 9:00:00 AM 12.41 54.338 0.081 6.91 0.92 9.26
5/21/2022 9:15:00 AM 12.44 54.392 0.081 6.91 0.73 9.3
5/21/2022 9:30:00 AM 12.48 54.464 0.081 6.92 0.61 9.34
5/21/2022 9:45:00 AM 12.49 54.482 0.08 6.92 0.79 9.35
5/21/2022 10:00:00 AM 12.53 54.554 0.08 6.93 0.69 9.4
5/21/2022 10:15:00 AM 12.58 54.644 0.08 6.93 0.73 9.45
5/21/2022 10:30:00 AM 12.66 54.788 0.08 6.94 0.74 9.44
5/21/2022 10:45:00 AM 12.72 54.896 0.08 6.94 0.63 9.46
5/21/2022 11:00:00 AM 12.76 54.968 0.08 6.94 0.73 9.47
5/21/2022 11:15:00 AM 12.83 55.094 0.08 6.94 0.96 9.44
5/21/2022 11:30:00 AM 12.94 55.292 0.079 6.94 0.93 9.42
5/21/2022 11:45:00 AM 13.07 55.526 0.079 6.95 0.92 9.39
5/21/2022 12:00:00 PM 13.19 55.742 0.079 6.95 0.95 9.39
5/21/2022 12:15:00 PM 13.3 55.94 0.079 6.94 1.04 9.35
5/21/2022 12:30:00 PM 13.43 56.174 0.079 6.95 0.98 9.31
5/21/2022 12:45:00 PM 13.59 56.462 0.079 6.95 1.47 9.28
5/21/2022 1:00:00 PM 13.89 57.002 0.079 6.95 1.1 9.25
5/21/2022 1:15:00 PM 13.95 57.11 0.079 6.95 1.03 9.21
5/21/2022 1:30:00 PM 13.94 57.092 0.079 6.95 1.12 9.13
5/21/2022 1:45:00 PM 14.19 57.542 0.079 6.95 0.93 9.1
5/21/2022 2:00:00 PM 14.19 57.542 0.079 6.94 0.87 9.02
5/21/2022 2:15:00 PM 14.36 57.848 0.079 6.94 1.08 8.99
5/21/2022 2:30:00 PM 14.45 58.01 0.079 6.94 0.86 8.91
5/21/2022 2:45:00 PM 14.58 58.244 0.079 6.94 0.92 8.84
5/21/2022 3:00:00 PM 14.68 58.424 0.079 6.94 0.94 8.81
5/21/2022 3:15:00 PM 14.79 58.622 0.079 6.94 0.9 8.77
5/21/2022 3:30:00 PM 14.91 58.838 0.079 6.94 0.9 8.72
5/21/2022 3:45:00 PM 14.97 58.946 0.079 6.93 0.98 8.65
5/21/2022 4:00:00 PM 15.09 59.162 0.079 6.93 0.99 8.58
5/21/2022 4:15:00 PM 15.14 59.252 0.079 6.93 0.93 8.52
5/21/2022 4:30:00 PM 15.25 59.45 0.079 6.92 0.95 8.47
5/21/2022 4:45:00 PM 15.33 59.594 0.079 6.92 0.94 8.41
5/21/2022 5:00:00 PM 15.41 59.738 0.079 6.92 0.91 8.34
5/21/2022 5:15:00 PM 15.44 59.792 0.079 6.91 0.93 8.27
5/21/2022 5:30:00 PM 15.52 59.936 0.079 6.91 0.99 8.22
5/21/2022 5:45:00 PM 15.57 60.026 0.079 6.91 0.95 8.16
5/21/2022 6:00:00 PM 15.66 60.188 0.079 6.91 0.93 8.14
5/21/2022 6:15:00 PM 15.71 60.278 0.079 6.9 0.94 8.07
5/21/2022 6:30:00 PM 15.75 60.35 0.079 6.9 0.97 8
5/21/2022 6:45:00 PM 15.82 60.476 0.079 6.89 1 7.96
5/21/2022 7:00:00 PM 15.87 60.566 0.079 6.89 1.04 7.91
5/21/2022 7:15:00 PM 15.92 60.656 0.08 6.88 1.16 7.84
5/21/2022 7:30:00 PM 15.96 60.728 0.08 6.88 0.9 7.8
5/21/2022 7:45:00 PM 15.99 60.782 0.08 6.87 0.97 7.77
5/21/2022 8:00:00 PM 16.01 60.818 0.08 6.87 0.95 7.72
5/21/2022 8:15:00 PM 16.07 60.926 0.08 6.86 0.9 7.68
5/21/2022 8:30:00 PM 16.07 60.926 0.08 6.86 0.95 7.64
5/21/2022 8:45:00 PM 16.1 60.98 0.08 6.86 0.89 7.59
5/21/2022 9:00:00 PM 16.12 61.016 0.08 6.85 0.94 7.58
5/21/2022 9:15:00 PM 16.13 61.034 0.081 6.85 0.94 7.55
5/21/2022 9:30:00 PM 16.15 61.07 0.081 6.85 0.89 7.55
5/21/2022 9:45:00 PM 16.14 61.052 0.081 6.85 0.92 7.52
5/21/2022 10:00:00 PM 16.15 61.07 0.081 6.85 0.89 7.52
5/21/2022 10:15:00 PM 16.16 61.088 0.081 6.85 1.18 7.53
5/21/2022 10:30:00 PM 16.14 61.052 0.081 6.84 0.93 7.52
5/21/2022 10:45:00 PM 16.14 61.052 0.081 6.84 0.98 7.5
5/21/2022 11:00:00 PM 16.11 60.998 0.081 6.84 0.94 7.52
5/21/2022 11:15:00 PM 16.09 60.962 0.082 6.85 0.96 7.55
5/21/2022 11:30:00 PM 16.05 60.89 0.082 6.85 0.88 7.56
5/21/2022 11:45:00 PM 16.01 60.818 0.082 6.84 0.96 7.58
5/22/2022 12:00:00 AM 15.97 60.746 0.082 6.85 0.87 7.61
5/22/2022 12:15:00 AM 15.93 60.674 0.082 6.84 0.9 7.63
5/22/2022 12:30:00 AM 15.87 60.566 0.082 6.84 0.96 7.65
5/22/2022 12:45:00 AM 15.81 60.458 0.082 6.84 0.91 7.66
5/22/2022 1:00:00 AM 15.76 60.368 0.082 6.85 1.12 7.7
5/22/2022 1:15:00 AM 15.7 60.26 0.082 6.84 0.89 7.71
5/22/2022 1:30:00 AM 15.66 60.188 0.082 6.85 1.1 7.75
5/22/2022 1:45:00 AM 15.6 60.08 0.082 6.85 1.04 7.77
5/22/2022 2:00:00 AM 15.54 59.972 0.082 6.85 1 7.78
5/22/2022 2:15:00 AM 15.47 59.846 0.082 6.85 1.05 7.81
5/22/2022 2:30:00 AM 15.4 59.72 0.082 6.84 0.91 7.83
5/22/2022 2:45:00 AM 15.34 59.612 0.082 6.84 1.01 7.84
5/22/2022 3:00:00 AM 15.28 59.504 0.082 6.84 1.25 7.87
5/22/2022 3:15:00 AM 15.21 59.378 0.082 6.85 1.11 7.91
5/22/2022 3:30:00 AM 15.14 59.252 0.082 6.84 1.06 7.93
5/22/2022 3:45:00 AM 15.07 59.126 0.082 6.84 1.05 7.96
5/22/2022 4:00:00 AM 15 59 0.082 6.84 1.27 7.98
5/22/2022 4:15:00 AM 14.93 58.874 0.082 6.84 1.09 8
5/22/2022 4:30:00 AM 14.86 58.748 0.082 6.85 1 8.02
5/22/2022 4:45:00 AM 14.79 58.622 0.082 6.85 0.98 8.05
5/22/2022 5:00:00 AM 14.72 58.496 0.082 6.85 1.19 8.06
5/22/2022 5:15:00 AM 14.65 58.37 0.082 6.85 1.18 8.1
5/22/2022 5:30:00 AM 14.58 58.244 0.082 6.84 1.08 8.11
5/22/2022 5:45:00 AM 14.51 58.118 0.082 6.84 7.72 8.15
5/22/2022 6:00:00 AM 14.44 57.992 0.082 6.84 1.35 8.18
5/22/2022 6:15:00 AM 14.38 57.884 0.082 6.85 0.94 8.21
5/22/2022 6:30:00 AM 14.32 57.776 0.082 6.85 0.76 8.25
5/22/2022 6:45:00 AM 14.26 57.668 0.082 6.85 0.69 8.28
5/22/2022 7:00:00 AM 14.21 57.578 0.082 6.86 1.95 8.33
5/22/2022 7:15:00 AM 14.15 57.47 0.082 6.85 0.74 8.35
5/22/2022 7:30:00 AM 14.11 57.398 0.082 6.86 0.65 8.41
5/22/2022 7:45:00 AM 14.07 57.326 0.082 6.86 0.71 8.46
5/22/2022 8:00:00 AM 14.02 57.236 0.082 6.85 2.05 8.45
5/22/2022 8:15:00 AM 14 57.2 0.081 6.86 0.75 8.56
5/22/2022 8:30:00 AM 13.97 57.146 0.081 6.87 1.1 8.61
5/22/2022 8:45:00 AM 13.92 57.056 0.081 6.87 0.71 8.63
5/22/2022 9:00:00 AM 13.9 57.02 0.081 6.87 0.79 8.71
5/22/2022 9:15:00 AM 13.88 56.984 0.081 6.87 0.68 8.77
5/22/2022 9:30:00 AM 13.87 56.966 0.081 6.88 0.71 8.82
5/22/2022 9:45:00 AM 13.85 56.93 0.081 6.88 0.65 8.83
5/22/2022 10:00:00 AM 13.85 56.93 0.081 6.88 0.72 8.87
5/22/2022 10:15:00 AM 13.83 56.894 0.081 6.89 0.7 8.9
5/22/2022 10:30:00 AM 13.81 56.858 0.08 6.89 0.66 8.93
5/22/2022 10:45:00 AM 13.82 56.876 0.08 6.89 0.62 8.94
5/22/2022 11:00:00 AM 13.86 56.948 0.08 6.89 3.56 8.94
5/22/2022 11:15:00 AM 13.89 57.002 0.08 6.9 0.93 8.99
5/22/2022 11:30:00 AM 13.93 57.074 0.08 6.89 0.71 8.98
5/22/2022 11:45:00 AM 13.97 57.146 0.08 6.9 0.68 8.99
5/22/2022 12:00:00 PM 14 57.2 0.08 6.9 0.66 8.99
5/22/2022 12:15:00 PM 14.13 57.434 0.08 6.9 0.7 8.99
5/22/2022 12:30:00 PM 14.22 57.596 0.08 6.9 0.8 9
5/22/2022 12:45:00 PM 14.23 57.614 0.08 6.9 0.65 8.93
5/22/2022 1:00:00 PM 14.23 57.614 0.079 6.9 0.6 8.88
5/22/2022 1:15:00 PM 14.3 57.74 0.079 6.9 0.66 8.88
5/22/2022 1:30:00 PM 14.48 58.064 0.079 6.9 0.76 8.87
5/22/2022 1:45:00 PM 14.57 58.226 0.079 6.9 0.64 8.83
5/22/2022 2:00:00 PM 14.64 58.352 0.079 6.9 0.67 8.77
5/22/2022 2:15:00 PM 14.78 58.604 0.079 6.9 0.8 8.74
5/22/2022 2:30:00 PM 14.83 58.694 0.079 6.9 0.62 8.7
5/22/2022 2:45:00 PM 15.01 59.018 0.079 6.9 0.83 8.67
5/22/2022 3:00:00 PM 15.16 59.288 0.079 6.91 0.7 8.65
5/22/2022 3:15:00 PM 15.03 59.054 0.079 6.89 0.63 8.53
5/22/2022 3:30:00 PM 15.03 59.054 0.079 6.89 0.72 8.46
5/22/2022 3:45:00 PM 15.08 59.144 0.079 6.89 0.73 8.43
5/22/2022 4:00:00 PM 15.12 59.216 0.079 6.89 0.66 8.37
5/22/2022 4:15:00 PM 15.19 59.342 0.079 6.88 0.71 8.31
5/22/2022 4:30:00 PM 15.26 59.468 0.079 6.88 0.66 8.32
5/22/2022 4:45:00 PM 15.32 59.576 0.079 6.88 0.7 8.27
5/22/2022 5:00:00 PM 15.37 59.666 0.079 6.88 0.63 8.23
5/22/2022 5:15:00 PM 15.44 59.792 0.079 6.89 0.67 8.24
5/22/2022 5:30:00 PM 15.51 59.918 0.079 6.89 0.63 8.24
5/22/2022 5:45:00 PM 15.56 60.008 0.079 6.89 0.67 8.21
5/22/2022 6:00:00 PM 15.58 60.044 0.08 6.88 0.69 8.14
5/22/2022 6:15:00 PM 15.59 60.062 0.08 6.88 0.61 8.07
5/22/2022 6:30:00 PM 15.61 60.098 0.08 6.87 0.64 8.06
5/22/2022 6:45:00 PM 15.63 60.134 0.08 6.87 0.63 8.02
5/22/2022 7:00:00 PM 15.65 60.17 0.08 6.87 0.61 8.01
5/22/2022 7:15:00 PM 15.66 60.188 0.08 6.87 1.63 7.97
5/22/2022 7:30:00 PM 15.68 60.224 0.08 6.86 0.82 7.93
5/22/2022 7:45:00 PM 15.7 60.26 0.08 6.87 0.73 7.96
5/22/2022 8:00:00 PM 15.67 60.206 0.08 6.86 0.67 7.9
5/22/2022 8:15:00 PM 15.65 60.17 0.08 6.86 0.6 7.9
5/22/2022 8:30:00 PM 15.63 60.134 0.08 6.86 0.69 7.85
5/22/2022 8:45:00 PM 15.63 60.134 0.08 6.86 0.64 7.85
5/22/2022 9:00:00 PM 15.6 60.08 0.08 6.86 0.89 7.85
5/22/2022 9:15:00 PM 15.58 60.044 0.08 6.86 0.67 7.85
5/22/2022 9:30:00 PM 15.54 59.972 0.081 6.86 0.67 7.84
5/22/2022 9:45:00 PM 15.51 59.918 0.081 6.85 1.48 7.84
5/22/2022 10:00:00 PM 15.47 59.846 0.081 6.85 1.08 7.83
5/22/2022 10:15:00 PM 15.42 59.756 0.081 6.85 0.66 7.84
5/22/2022 10:30:00 PM 15.37 59.666 0.081 6.85 0.63 7.84
5/22/2022 10:45:00 PM 15.31 59.558 0.081 6.85 0.63 7.86
5/22/2022 11:00:00 PM 15.26 59.468 0.081 6.85 0.67 7.89
5/22/2022 11:15:00 PM 15.18 59.324 0.081 6.85 0.68 7.88
5/22/2022 11:30:00 PM 15.12 59.216 0.081 6.85 3.6 7.91
5/22/2022 11:45:00 PM 15.05 59.09 0.081 6.85 0.65 7.94
5/23/2022 12:00:00 AM 14.98 58.964 0.081 6.85 0.66 7.99
5/23/2022 12:15:00 AM 14.9 58.82 0.081 6.85 0.67 7.98
5/23/2022 12:30:00 AM 14.83 58.694 0.081 6.85 0.68 8.01
5/23/2022 12:45:00 AM 14.75 58.55 0.081 6.85 0.64 8.04
5/23/2022 1:00:00 AM 14.68 58.424 0.081 6.85 0.63 8.05
5/23/2022 1:15:00 AM 14.61 58.298 0.081 6.85 0.63 8.1
5/23/2022 1:30:00 AM 14.53 58.154 0.081 6.85 0.67 8.12
5/23/2022 1:45:00 AM 14.46 58.028 0.081 6.85 0.74 8.16
5/23/2022 2:00:00 AM 14.39 57.902 0.081 6.85 0.62 8.17
5/23/2022 2:15:00 AM 14.3 57.74 0.081 6.84 0.57 8.19
5/23/2022 2:30:00 AM 14.23 57.614 0.081 6.85 0.63 8.23
5/23/2022 2:45:00 AM 14.16 57.488 0.081 6.85 0.66 8.26
5/23/2022 3:00:00 AM 14.06 57.308 0.081 6.85 0.65 8.3
5/23/2022 3:15:00 AM 13.99 57.182 0.081 6.84 0.65 8.32
5/23/2022 3:30:00 AM 13.9 57.02 0.081 6.85 0.64 8.36
5/23/2022 3:45:00 AM 13.82 56.876 0.081 6.85 0.67 8.38
5/23/2022 4:00:00 AM 13.75 56.75 0.081 6.85 0.67 8.4
5/23/2022 4:15:00 AM 13.68 56.624 0.081 6.85 0.65 8.42
5/23/2022 4:30:00 AM 13.6 56.48 0.081 6.85 0.57 8.46
5/23/2022 4:45:00 AM 13.52 56.336 0.081 6.85 0.62 8.49
5/23/2022 5:00:00 AM 13.45 56.21 0.081 6.85 0.63 8.52
5/23/2022 5:15:00 AM 13.37 56.066 0.081 6.85 0.67 8.53
5/23/2022 5:30:00 AM 13.3 55.94 0.081 6.85 1.75 8.55
5/23/2022 5:45:00 AM 13.22 55.796 0.081 6.85 0.64 8.59
5/23/2022 6:00:00 AM 13.16 55.688 0.081 6.85 0.63 8.62
5/23/2022 6:15:00 AM 13.08 55.544 0.081 6.85 0.6 8.63
5/23/2022 6:30:00 AM 13.01 55.418 0.081 6.85 0.55 8.68
5/23/2022 6:45:00 AM 12.95 55.31 0.081 6.85 0.77 8.7
5/23/2022 7:00:00 AM 12.89 55.202 0.081 6.86 0.71 8.75
5/23/2022 7:15:00 AM 12.82 55.076 0.081 6.86 0.62 8.8
5/23/2022 7:30:00 AM 12.78 55.004 0.081 6.86 0.6 8.82
5/23/2022 7:45:00 AM 12.72 54.896 0.081 6.87 0.67 8.88
5/23/2022 8:00:00 AM 12.65 54.77 0.081 6.86 0.94 8.9
5/23/2022 8:15:00 AM 12.62 54.716 0.081 6.87 0.61 8.97
5/23/2022 8:30:00 AM 12.59 54.662 0.081 6.87 0.64 9.04
5/23/2022 8:45:00 AM 12.53 54.554 0.081 6.88 0.96 9.08
5/23/2022 9:00:00 AM 12.49 54.482 0.08 6.88 0.68 9.15
5/23/2022 9:15:00 AM 12.45 54.41 0.08 6.88 1.7 9.18
5/23/2022 9:30:00 AM 12.4 54.32 0.08 6.89 0.9 9.22
5/23/2022 9:45:00 AM 12.36 54.248 0.08 6.89 0.62 9.27
5/23/2022 10:00:00 AM 12.33 54.194 0.08 6.89 0.75 9.29
5/23/2022 10:15:00 AM 12.29 54.122 0.08 6.89 0.66 9.34
5/23/2022 10:30:00 AM 12.28 54.104 0.08 6.89 0.74 9.37
5/23/2022 10:45:00 AM 12.27 54.086 0.08 6.9 0.71 9.43
5/23/2022 11:00:00 AM 12.26 54.068 0.08 6.9 0.73 9.45
5/23/2022 11:15:00 AM 12.24 54.032 0.08 6.9 0.62 9.46
5/23/2022 11:30:00 AM 12.23 54.014 0.08 6.9 0.58 9.47
5/23/2022 11:45:00 AM 12.26 54.068 0.079 6.9 0.59 9.48
5/23/2022 12:00:00 PM 12.29 54.122 0.079 6.91 0.71 9.5
5/23/2022 12:15:00 PM 12.32 54.176 0.079 6.91 0.59 9.49
5/23/2022 12:30:00 PM 12.38 54.284 0.079 6.91 2.97 9.5
5/23/2022 12:45:00 PM 12.44 54.392 0.079 6.91 0.59 9.48
5/23/2022 1:00:00 PM 12.52 54.536 0.079 6.91 0.77 9.48
5/23/2022 1:15:00 PM 12.62 54.716 0.079 6.91 0.57 9.47
5/23/2022 1:30:00 PM 12.7 54.86 0.079 6.91 0.61 9.43
5/23/2022 1:45:00 PM 12.75 54.95 0.079 6.91 0.61 9.41
5/23/2022 2:00:00 PM 12.78 55.004 0.079 6.91 0.64 9.4
5/23/2022 2:15:00 PM 12.82 55.076 0.079 6.91 0.63 9.36
5/23/2022 2:30:00 PM 12.87 55.166 0.079 6.91 0.56 9.34
5/23/2022 2:45:00 PM 12.97 55.346 0.079 6.92 0.59 9.31
5/23/2022 3:00:00 PM 13.08 55.544 0.079 6.92 0.75 9.29
5/23/2022 3:15:00 PM 13.07 55.526 0.079 6.91 0.76 9.24
5/23/2022 3:30:00 PM 13.14 55.652 0.079 6.92 1.03 9.22
5/23/2022 3:45:00 PM 13.17 55.706 0.079 6.92 0.7 9.21
5/23/2022 4:00:00 PM 13.21 55.778 0.079 6.92 0.77 9.17
5/23/2022 4:15:00 PM 13.26 55.868 0.079 6.92 0.7 9.13
5/23/2022 4:30:00 PM 13.31 55.958 0.079 6.92 0.59 9.1
5/23/2022 4:45:00 PM 13.34 56.012 0.079 6.91 0.63 9.04
5/23/2022 5:00:00 PM 13.37 56.066 0.079 6.91 0.61 9.03
5/23/2022 5:15:00 PM 13.41 56.138 0.079 6.91 0.68 8.99
5/23/2022 5:30:00 PM 13.46 56.228 0.079 6.91 0.55 8.96
5/23/2022 5:45:00 PM 13.5 56.3 0.079 6.91 0.57 8.92
5/23/2022 6:00:00 PM 13.52 56.336 0.079 6.91 0.78 8.9
5/23/2022 6:15:00 PM 13.56 56.408 0.079 6.9 0.93 8.83
5/23/2022 6:30:00 PM 13.58 56.444 0.079 6.9 0.61 8.78
5/23/2022 6:45:00 PM 13.61 56.498 0.079 6.89 0.56 8.77
5/23/2022 7:00:00 PM 13.63 56.534 0.079 6.9 0.81 8.75
5/23/2022 7:15:00 PM 13.66 56.588 0.079 6.89 0.64 8.7
5/23/2022 7:30:00 PM 13.67 56.606 0.079 6.89 0.62 8.67
5/23/2022 7:45:00 PM 13.68 56.624 0.079 6.89 0.68 8.63
5/23/2022 8:00:00 PM 13.69 56.642 0.079 6.88 0.54 8.59
5/23/2022 8:15:00 PM 13.69 56.642 0.079 6.88 0.62 8.57
5/23/2022 8:30:00 PM 13.68 56.624 0.079 6.88 0.58 8.55
5/23/2022 8:45:00 PM 13.68 56.624 0.079 6.87 0.64 8.52
5/23/2022 9:00:00 PM 13.66 56.588 0.08 6.87 0.68 8.49
5/23/2022 9:15:00 PM 13.65 56.57 0.08 6.87 0.61 8.47
5/23/2022 9:30:00 PM 13.64 56.552 0.08 6.87 0.79 8.47
5/23/2022 9:45:00 PM 13.61 56.498 0.08 6.87 0.58 8.45
5/23/2022 10:00:00 PM 13.59 56.462 0.08 6.87 0.62 8.44
5/23/2022 10:15:00 PM 13.57 56.426 0.08 6.87 0.83 8.43
5/23/2022 10:30:00 PM 13.54 56.372 0.08 6.87 0.68 8.43
5/23/2022 10:45:00 PM 13.51 56.318 0.08 6.87 0.8 8.44
5/23/2022 11:00:00 PM 13.47 56.246 0.08 6.87 0.71 8.45
5/23/2022 11:15:00 PM 13.43 56.174 0.081 6.87 0.86 8.43
5/23/2022 11:30:00 PM 13.39 56.102 0.081 6.86 0.75 8.44
5/23/2022 11:45:00 PM 13.35 56.03 0.081 6.87 0.63 8.49
5/24/2022 12:00:00 AM 13.3 55.94 0.081 6.86 0.61 8.49
5/24/2022 12:15:00 AM 13.25 55.85 0.081 6.87 0.66 8.5
5/24/2022 12:30:00 AM 13.2 55.76 0.081 6.87 0.61 8.52
5/24/2022 12:45:00 AM 13.15 55.67 0.081 6.86 0.69 8.55
5/24/2022 1:00:00 AM 13.09 55.562 0.081 6.86 0.78 8.54
5/24/2022 1:15:00 AM 13.03 55.454 0.081 6.86 0.67 8.56
5/24/2022 1:30:00 AM 12.97 55.346 0.081 6.87 0.73 8.62
5/24/2022 1:45:00 AM 12.92 55.256 0.081 6.87 0.62 8.62
5/24/2022 2:00:00 AM 12.85 55.13 0.081 6.87 0.6 8.62
5/24/2022 2:15:00 AM 12.79 55.022 0.081 6.87 0.6 8.64
5/24/2022 2:30:00 AM 12.73 54.914 0.081 6.86 0.56 8.67
5/24/2022 2:45:00 AM 12.65 54.77 0.081 6.87 0.6 8.69
5/24/2022 3:00:00 AM 12.6 54.68 0.081 6.86 0.66 8.72
5/24/2022 3:15:00 AM 12.53 54.554 0.081 6.87 0.63 8.75
5/24/2022 3:30:00 AM 12.47 54.446 0.081 6.87 0.63 8.79
5/24/2022 3:45:00 AM 12.39 54.302 0.081 6.86 0.64 8.8
5/24/2022 4:00:00 AM 12.33 54.194 0.081 6.86 0.58 8.82
5/24/2022 4:15:00 AM 12.25 54.05 0.081 6.86 0.61 8.83
5/24/2022 4:30:00 AM 12.19 53.942 0.081 6.87 0.64 8.88
5/24/2022 4:45:00 AM 12.11 53.798 0.081 6.86 0.67 8.89
5/24/2022 5:00:00 AM 12.05 53.69 0.081 6.87 0.75 8.94
5/24/2022 5:15:00 AM 11.97 53.546 0.081 6.87 0.57 8.94
5/24/2022 5:30:00 AM 11.89 53.402 0.081 6.86 0.59 8.97
5/24/2022 5:45:00 AM 11.83 53.294 0.081 6.87 0.69 8.99
5/24/2022 6:00:00 AM 11.76 53.168 0.081 6.87 0.56 9.04
5/24/2022 6:15:00 AM 11.69 53.042 0.08 6.87 0.58 9.08
5/24/2022 6:30:00 AM 11.64 52.952 0.08 6.87 1.06 9.1
5/24/2022 6:45:00 AM 11.59 52.862 0.08 6.86 0.72 9.14
5/24/2022 7:00:00 AM 11.54 52.772 0.08 6.87 0.58 9.2
5/24/2022 7:15:00 AM 11.5 52.7 0.08 6.88 0.66 9.26
5/24/2022 7:30:00 AM 11.43 52.574 0.08 6.88 0.57 9.29
5/24/2022 7:45:00 AM 11.37 52.466 0.08 6.88 0.56 9.32
5/24/2022 8:00:00 AM 11.32 52.376 0.08 6.84 0.53 9.34
5/24/2022 8:15:00 AM 11.26 52.268 0.08 6.85 0.53 9.38
5/24/2022 8:30:00 AM 11.24 52.232 0.08 6.85 0.54 9.45
5/24/2022 8:45:00 AM 11.21 52.178 0.08 6.86 0.7 9.48
5/24/2022 9:00:00 AM 11.18 52.124 0.08 6.86 0.6 9.54
5/24/2022 9:15:00 AM 11.17 52.106 0.08 6.86 0.54 9.58
5/24/2022 9:30:00 AM 11.13 52.034 0.08 6.86 0.68 9.61
5/24/2022 9:45:00 AM 11.11 51.998 0.079 6.87 0.53 9.65
5/24/2022 10:00:00 AM 11.05 51.89 0.079 6.87 0.53 9.71
5/24/2022 10:15:00 AM 11.02 51.836 0.079 6.88 0.61 9.75
5/24/2022 10:30:00 AM 11 51.8 0.079 6.88 0.63 9.8
5/24/2022 10:45:00 AM 10.99 51.782 0.079 6.89 0.51 9.82
5/24/2022 11:00:00 AM 10.98 51.764 0.079 6.89 0.57 9.86
5/24/2022 11:15:00 AM 10.98 51.764 0.079 6.89 0.62 9.85
5/24/2022 11:30:00 AM 10.97 51.746 0.079 6.9 0.58 9.88
5/24/2022 11:45:00 AM 10.98 51.764 0.079 6.9 0.62 9.87
5/24/2022 12:00:00 PM 11 51.8 0.079 6.9 0.55 9.89
5/24/2022 12:15:00 PM 11.01 51.818 0.079 6.91 0.52 9.9
5/24/2022 12:30:00 PM 11.05 51.89 0.079 6.91 0.65 9.89
5/24/2022 12:45:00 PM 11.07 51.926 0.079 6.91 0.6 9.89
5/24/2022 1:00:00 PM 11.09 51.962 0.079 6.92 0.59 9.88
5/24/2022 1:15:00 PM 11.12 52.016 0.079 6.92 0.54 9.86
5/24/2022 1:30:00 PM 11.13 52.034 0.079 6.91 0.69 9.83
5/24/2022 1:45:00 PM 11.16 52.088 0.079 6.91 0.54 9.79
5/24/2022 2:00:00 PM 11.17 52.106 0.079 6.92 0.6 9.76
5/24/2022 2:15:00 PM 11.22 52.196 0.079 6.91 0.59 9.72
5/24/2022 2:30:00 PM 11.28 52.304 0.079 6.91 0.58 9.7
5/24/2022 2:45:00 PM 11.32 52.376 0.079 6.91 0.57 9.68
5/24/2022 3:00:00 PM 11.38 52.484 0.079 6.92 0.59 9.66
5/24/2022 3:15:00 PM 11.43 52.574 0.079 6.92 0.85 9.59
5/24/2022 3:30:00 PM 11.5 52.7 0.079 6.92 0.57 9.6
5/24/2022 3:45:00 PM 11.55 52.79 0.079 6.92 0.6 9.57
5/24/2022 4:00:00 PM 11.59 52.862 0.079 6.92 0.57 9.51
5/24/2022 4:15:00 PM 11.62 52.916 0.079 6.92 2.23 9.48
5/24/2022 4:30:00 PM 11.67 53.006 0.079 6.92 0.68 9.42
5/24/2022 4:45:00 PM 11.72 53.096 0.079 6.92 0.73 9.4
5/24/2022 5:00:00 PM 11.76 53.168 0.079 6.91 0.67 9.36
5/24/2022 5:15:00 PM 11.81 53.258 0.079 6.91 0.58 9.33
5/24/2022 5:30:00 PM 11.86 53.348 0.079 6.91 0.71 9.3
5/24/2022 5:45:00 PM 11.91 53.438 0.079 6.91 0.54 9.29
5/24/2022 6:00:00 PM 11.95 53.51 0.079 6.91 0.58 9.24
5/24/2022 6:15:00 PM 11.99 53.582 0.079 6.91 0.56 9.2
5/24/2022 6:30:00 PM 12.03 53.654 0.079 6.91 0.56 9.18
5/24/2022 6:45:00 PM 12.07 53.726 0.079 6.91 0.6 9.14
5/24/2022 7:00:00 PM 12.1 53.78 0.079 6.9 0.6 9.11
5/24/2022 7:15:00 PM 12.13 53.834 0.079 6.9 0.57 9.06
5/24/2022 7:30:00 PM 12.16 53.888 0.079 6.9 0.87 9.04
5/24/2022 7:45:00 PM 12.18 53.924 0.08 6.9 0.63 9.01
5/24/2022 8:00:00 PM 12.2 53.96 0.08 6.89 0.58 8.99
5/24/2022 8:15:00 PM 12.22 53.996 0.08 6.89 0.6 8.97
5/24/2022 8:30:00 PM 12.24 54.032 0.08 6.89 0.68 8.94
5/24/2022 8:45:00 PM 12.26 54.068 0.08 6.88 0.58 8.9
5/24/2022 9:00:00 PM 12.27 54.086 0.08 6.88 0.83 8.89
5/24/2022 9:15:00 PM 12.28 54.104 0.08 6.88 0.81 8.88
5/24/2022 9:30:00 PM 12.29 54.122 0.08 6.88 1.2 8.86
5/24/2022 9:45:00 PM 12.29 54.122 0.08 6.88 0.66 8.86
5/24/2022 10:00:00 PM 12.29 54.122 0.08 6.89 0.64 8.83
5/24/2022 10:15:00 PM 12.29 54.122 0.08 6.88 0.6 8.82
5/24/2022 10:30:00 PM 12.3 54.14 0.08 6.88 0.56 8.81
5/24/2022 10:45:00 PM 12.3 54.14 0.081 6.88 0.67 8.81
5/24/2022 11:00:00 PM 12.3 54.14 0.081 6.87 0.67 8.81
5/24/2022 11:15:00 PM 12.29 54.122 0.081 6.88 0.58 8.8
5/24/2022 11:30:00 PM 12.29 54.122 0.081 6.88 0.62 8.81
5/24/2022 11:45:00 PM 12.28 54.104 0.081 6.88 0.64 8.8
5/25/2022 12:00:00 AM 12.27 54.086 0.081 6.88 0.6 8.8
5/25/2022 12:15:00 AM 12.26 54.068 0.081 6.88 0.65 8.79
5/25/2022 12:30:00 AM 12.25 54.05 0.081 6.87 0.56 8.8
5/25/2022 12:45:00 AM 12.24 54.032 0.081 6.87 0.59 8.81
5/25/2022 1:00:00 AM 12.23 54.014 0.081 6.88 0.61 8.8
5/25/2022 1:15:00 AM 12.21 53.978 0.081 6.87 0.64 8.81
5/25/2022 1:30:00 AM 12.2 53.96 0.081 6.87 0.95 8.8
5/25/2022 1:45:00 AM 12.18 53.924 0.081 6.87 0.7 8.82
5/25/2022 2:00:00 AM 12.16 53.888 0.081 6.87 0.62 8.83
5/25/2022 2:15:00 AM 12.15 53.87 0.081 6.87 0.78 8.83
5/25/2022 2:30:00 AM 12.13 53.834 0.081 6.87 0.73 8.82
5/25/2022 2:45:00 AM 12.11 53.798 0.081 6.87 0.84 8.83
5/25/2022 3:00:00 AM 12.09 53.762 0.081 6.87 0.77 8.83
5/25/2022 3:15:00 AM 12.08 53.744 0.081 6.87 0.66 8.84
5/25/2022 3:30:00 AM 12.06 53.708 0.081 6.87 0.93 8.86
5/25/2022 3:45:00 AM 12.04 53.672 0.081 6.87 0.73 8.87
5/25/2022 4:00:00 AM 12.02 53.636 0.081 6.87 0.6 8.88
5/25/2022 4:15:00 AM 12 53.6 0.081 6.87 0.58 8.87
5/25/2022 4:30:00 AM 11.99 53.582 0.081 6.87 0.62 8.87
5/25/2022 4:45:00 AM 11.97 53.546 0.081 6.87 0.63 8.89
5/25/2022 5:00:00 AM 11.95 53.51 0.081 6.87 0.71 8.9
5/25/2022 5:15:00 AM 11.93 53.474 0.081 6.87 0.66 8.9
5/25/2022 5:30:00 AM 11.91 53.438 0.081 6.87 0.68 8.92
5/25/2022 5:45:00 AM 11.89 53.402 0.081 6.87 0.81 8.93
5/25/2022 6:00:00 AM 11.87 53.366 0.081 6.86 1.05 8.92
5/25/2022 6:15:00 AM 11.85 53.33 0.081 6.86 6.72 8.93
5/25/2022 6:30:00 AM 11.83 53.294 0.081 6.87 0.65 8.96
5/25/2022 6:45:00 AM 11.82 53.276 0.081 6.87 0.65 8.98
5/25/2022 7:00:00 AM 11.81 53.258 0.081 6.87 0.57 8.98
5/25/2022 7:15:00 AM 11.79 53.222 0.081 6.87 0.74 9
5/25/2022 7:30:00 AM 11.77 53.186 0.081 6.87 0.66 9.02
5/25/2022 7:45:00 AM 11.76 53.168 0.081 6.86 1.02 9.02
5/25/2022 8:00:00 AM 11.76 53.168 0.081 6.87 0.57 9.08
5/25/2022 8:15:00 AM 11.74 53.132 0.081 6.88 0.99 9.1
5/25/2022 8:30:00 AM 11.74 53.132 0.081 6.88 0.57 9.15
5/25/2022 8:45:00 AM 11.74 53.132 0.081 6.88 0.61 9.2
5/25/2022 9:00:00 AM 11.74 53.132 0.081 6.89 0.63 9.24
5/25/2022 9:15:00 AM 11.73 53.114 0.081 6.89 0.63 9.26
5/25/2022 9:30:00 AM 11.72 53.096 0.081 6.89 0.64 9.28
5/25/2022 9:45:00 AM 11.72 53.096 0.08 6.89 0.6 9.36
5/25/2022 10:00:00 AM 11.73 53.114 0.08 6.89 0.53 9.38
5/25/2022 10:15:00 AM 11.72 53.096 0.08 6.9 0.63 9.38
5/25/2022 10:30:00 AM 11.72 53.096 0.08 6.9 0.58 9.44
5/25/2022 10:45:00 AM 11.69 53.042 0.08 6.9 0.57 9.4
5/25/2022 11:00:00 AM 11.69 53.042 0.08 6.9 0.69 9.43
5/25/2022 11:15:00 AM 11.7 53.06 0.081 6.89 0.61 9.45
5/25/2022 11:30:00 AM 11.72 53.096 0.081 6.9 0.64 9.5
5/25/2022 11:45:00 AM 11.75 53.15 0.081 6.9 0.95 9.52
5/25/2022 12:00:00 PM 11.8 53.24 0.081 6.9 0.58 9.54
5/25/2022 12:15:00 PM 11.82 53.276 0.081 6.91 0.6 9.51
5/25/2022 12:30:00 PM 11.88 53.384 0.081 6.91 0.61 9.55
5/25/2022 12:45:00 PM 11.94 53.492 0.081 6.91 0.58 9.56
5/25/2022 1:00:00 PM 11.94 53.492 0.081 6.91 0.58 9.55
5/25/2022 1:15:00 PM 12.04 53.672 0.081 6.91 0.56 9.58
5/25/2022 1:30:00 PM 12.11 53.798 0.08 6.91 0.71 9.57
5/25/2022 1:45:00 PM 12.18 53.924 0.08 6.92 0.65 9.57
5/25/2022 2:00:00 PM 12.34 54.212 0.08 6.92 0.63 9.55
5/25/2022 2:15:00 PM 12.48 54.464 0.08 6.91 0.72 9.51
5/25/2022 2:30:00 PM 12.39 54.302 0.08 6.92 1.01 9.51
5/25/2022 2:45:00 PM 12.61 54.698 0.08 6.92 0.65 9.49
5/25/2022 3:00:00 PM 12.78 55.004 0.08 6.92 0.56 9.44
5/25/2022 3:15:00 PM 12.8 55.04 0.08 6.92 0.61 9.41
5/25/2022 3:30:00 PM 12.76 54.968 0.08 6.92 0.56 9.36
5/25/2022 3:45:00 PM 12.76 54.968 0.08 6.92 0.59 9.34
5/25/2022 4:00:00 PM 12.74 54.932 0.08 6.92 0.68 9.3
5/25/2022 4:15:00 PM 12.76 54.968 0.08 6.92 0.6 9.22
5/25/2022 4:30:00 PM 12.79 55.022 0.08 6.92 0.63 9.16
5/25/2022 4:45:00 PM 12.78 55.004 0.08 6.91 0.64 9.09
5/25/2022 5:00:00 PM 12.84 55.112 0.08 6.91 0.65 9.04
5/25/2022 5:15:00 PM 12.87 55.166 0.08 6.91 0.66 8.97
5/25/2022 5:30:00 PM 12.93 55.274 0.08 6.91 0.62 8.93
5/25/2022 5:45:00 PM 12.99 55.382 0.08 6.91 0.61 8.89
5/25/2022 6:00:00 PM 13.03 55.454 0.08 6.9 0.66 8.82
5/25/2022 6:15:00 PM 13.09 55.562 0.08 6.9 0.62 8.78
5/25/2022 6:30:00 PM 13.14 55.652 0.08 6.9 0.79 8.74
5/25/2022 6:45:00 PM 13.19 55.742 0.08 6.9 0.88 8.69
5/25/2022 7:00:00 PM 13.25 55.85 0.08 6.9 0.57 8.65
5/25/2022 7:15:00 PM 13.31 55.958 0.08 6.9 0.59 8.63
5/25/2022 7:30:00 PM 13.36 56.048 0.08 6.89 0.64 8.58
5/25/2022 7:45:00 PM 13.42 56.156 0.08 6.89 0.66 8.53
5/25/2022 8:00:00 PM 13.48 56.264 0.08 6.89 0.59 8.49
5/25/2022 8:15:00 PM 13.53 56.354 0.08 6.89 0.62 8.45
5/25/2022 8:30:00 PM 13.57 56.426 0.081 6.88 0.69 8.41
5/25/2022 8:45:00 PM 13.63 56.534 0.081 6.88 0.64 8.4
5/25/2022 9:00:00 PM 13.66 56.588 0.081 6.88 0.62 8.36
5/25/2022 9:15:00 PM 13.69 56.642 0.081 6.88 0.77 8.34
5/25/2022 9:30:00 PM 13.73 56.714 0.081 6.87 0.73 8.32
5/25/2022 9:45:00 PM 13.76 56.768 0.081 6.87 0.86 8.3
5/25/2022 10:00:00 PM 13.78 56.804 0.081 6.87 0.76 8.28
5/25/2022 10:15:00 PM 13.81 56.858 0.081 6.87 0.7 8.26
5/25/2022 10:30:00 PM 13.82 56.876 0.082 6.87 0.69 8.26
5/25/2022 10:45:00 PM 13.83 56.894 0.082 6.87 0.66 8.25
5/25/2022 11:00:00 PM 13.83 56.894 0.082 6.87 0.63 8.25
5/25/2022 11:15:00 PM 13.83 56.894 0.082 6.87 0.64 8.22
5/25/2022 11:30:00 PM 13.83 56.894 0.082 6.87 0.7 8.24
5/25/2022 11:45:00 PM 13.82 56.876 0.082 6.87 0.66 8.24
5/26/2022 12:00:00 AM 13.81 56.858 0.082 6.87 0.65 8.25
5/26/2022 12:15:00 AM 13.79 56.822 0.082 6.87 0.8 8.24
5/26/2022 12:30:00 AM 13.78 56.804 0.082 6.86 0.61 8.24
5/26/2022 12:45:00 AM 13.76 56.768 0.083 6.86 0.7 8.24
5/26/2022 1:00:00 AM 13.74 56.732 0.083 6.86 0.79 8.24
5/26/2022 1:15:00 AM 13.71 56.678 0.083 6.86 0.69 8.27
5/26/2022 1:30:00 AM 13.68 56.624 0.083 6.86 0.66 8.27
5/26/2022 1:45:00 AM 13.65 56.57 0.083 6.86 0.7 8.26
5/26/2022 2:00:00 AM 13.62 56.516 0.083 6.86 0.65 8.28
5/26/2022 2:15:00 AM 13.59 56.462 0.083 6.86 0.74 8.28
5/26/2022 2:30:00 AM 13.56 56.408 0.083 6.86 0.66 8.3
5/26/2022 2:45:00 AM 13.53 56.354 0.083 6.86 0.73 8.3
5/26/2022 3:00:00 AM 13.5 56.3 0.083 6.86 0.85 8.32
5/26/2022 3:15:00 AM 13.47 56.246 0.083 6.86 0.68 8.33
5/26/2022 3:30:00 AM 13.44 56.192 0.083 6.86 0.69 8.33
5/26/2022 3:45:00 AM 13.4 56.12 0.083 6.86 1.05 8.35
5/26/2022 4:00:00 AM 13.36 56.048 0.083 6.86 0.71 8.36
5/26/2022 4:15:00 AM 13.33 55.994 0.083 6.86 0.76 8.37
5/26/2022 4:30:00 AM 13.29 55.922 0.083 6.86 0.69 8.39
5/26/2022 4:45:00 AM 13.25 55.85 0.083 6.86 0.72 8.4
5/26/2022 5:00:00 AM 13.21 55.778 0.083 6.86 0.68 8.42
5/26/2022 5:15:00 AM 13.17 55.706 0.083 6.86 1.02 8.41
5/26/2022 5:30:00 AM 13.13 55.634 0.083 6.86 0.73 8.42
5/26/2022 5:45:00 AM 13.1 55.58 0.082 6.86 0.85 8.45
5/26/2022 6:00:00 AM 13.06 55.508 0.082 6.86 0.84 8.46
5/26/2022 6:15:00 AM 13.02 55.436 0.082 6.85 1.17 8.47
5/26/2022 6:30:00 AM 12.99 55.382 0.082 6.86 0.95 8.51
5/26/2022 6:45:00 AM 12.96 55.328 0.082 6.86 0.84 8.54
5/26/2022 7:00:00 AM 12.93 55.274 0.082 6.86 0.92 8.58
5/26/2022 7:15:00 AM 12.91 55.238 0.082 6.87 0.84 8.58
5/26/2022 7:30:00 AM 12.89 55.202 0.082 6.87 0.73 8.63
5/26/2022 7:45:00 AM 12.87 55.166 0.082 6.87 0.78 8.69
5/26/2022 8:00:00 AM 12.84 55.112 0.082 6.87 0.78 8.72
5/26/2022 8:15:00 AM 12.81 55.058 0.082 6.87 0.91 8.74
5/26/2022 8:30:00 AM 12.78 55.004 0.082 6.88 0.76 8.78
5/26/2022 8:45:00 AM 12.76 54.968 0.082 6.88 0.7 8.83
5/26/2022 9:00:00 AM 12.76 54.968 0.082 6.88 0.74 8.91
5/26/2022 9:15:00 AM 12.73 54.914 0.082 6.88 0.7 8.96
5/26/2022 9:30:00 AM 12.71 54.878 0.082 6.89 1.05 9
5/26/2022 9:45:00 AM 12.69 54.842 0.082 6.89 0.73 9.02
5/26/2022 10:00:00 AM 12.66 54.788 0.083 6.88 0.9 9.05
5/26/2022 10:15:00 AM 12.66 54.788 0.082 6.88 0.79 9.06
5/26/2022 10:30:00 AM 12.66 54.788 0.082 6.89 0.85 9.11
5/26/2022 10:45:00 AM 12.67 54.806 0.082 6.89 0.78 9.15
5/26/2022 11:00:00 AM 12.67 54.806 0.082 6.9 0.67 9.16
5/26/2022 11:15:00 AM 12.67 54.806 0.082 6.89 0.77 9.17
5/26/2022 11:30:00 AM 12.68 54.824 0.082 6.9 0.82 9.19
5/26/2022 11:45:00 AM 12.7 54.86 0.082 6.9 0.67 9.19
5/26/2022 12:00:00 PM 12.73 54.914 0.082 6.9 0.66 9.2
5/26/2022 12:15:00 PM 12.78 55.004 0.081 6.9 0.66 9.2
5/26/2022 12:30:00 PM 12.86 55.148 0.081 6.9 0.74 9.19
5/26/2022 12:45:00 PM 12.93 55.274 0.081 6.9 0.72 9.19
5/26/2022 1:00:00 PM 13.03 55.454 0.081 6.9 0.66 9.17
5/26/2022 1:15:00 PM 13.14 55.652 0.081 6.9 0.76 9.16
5/26/2022 1:30:00 PM 13.26 55.868 0.081 6.9 0.75 9.12
5/26/2022 1:45:00 PM 13.39 56.102 0.081 6.91 0.74 9.1
5/26/2022 2:00:00 PM 13.42 56.156 0.081 6.91 0.87 9.03
5/26/2022 2:15:00 PM 13.54 56.372 0.081 6.9 0.8 9
5/26/2022 2:30:00 PM 13.73 56.714 0.081 6.91 0.74 8.96
5/26/2022 2:45:00 PM 13.99 57.182 0.081 6.91 0.67 8.91
5/26/2022 3:00:00 PM 14.17 57.506 0.081 6.91 0.75 8.86
5/26/2022 3:15:00 PM 14.07 57.326 0.081 6.91 0.82 8.76
5/26/2022 3:30:00 PM 14.07 57.326 0.08 6.9 0.68 8.74
5/26/2022 3:45:00 PM 14.26 57.668 0.08 6.91 0.69 8.72
5/26/2022 4:00:00 PM 14.36 57.848 0.08 6.91 0.85 8.67
5/26/2022 4:15:00 PM 14.37 57.866 0.08 6.91 0.83 8.59
5/26/2022 4:30:00 PM 14.42 57.956 0.08 6.9 0.75 8.53
5/26/2022 4:45:00 PM 14.51 58.118 0.08 6.9 0.85 8.49
5/26/2022 5:00:00 PM 14.58 58.244 0.081 6.9 0.73 8.41
5/26/2022 5:15:00 PM 14.65 58.37 0.081 6.9 0.75 8.38
5/26/2022 5:30:00 PM 14.73 58.514 0.081 6.9 0.91 8.35
5/26/2022 5:45:00 PM 14.79 58.622 0.081 6.9 0.69 8.3
5/26/2022 6:00:00 PM 14.85 58.73 0.081 6.89 0.71 8.21
5/26/2022 6:15:00 PM 14.9 58.82 0.081 6.89 0.65 8.2
5/26/2022 6:30:00 PM 14.94 58.892 0.081 6.89 0.72 8.14
5/26/2022 6:45:00 PM 15 59 0.081 6.88 0.8 8.11
5/26/2022 7:00:00 PM 15.06 59.108 0.081 6.88 1 8.06
5/26/2022 7:15:00 PM 15.1 59.18 0.081 6.88 0.69 8.01
5/26/2022 7:30:00 PM 15.14 59.252 0.081 6.88 0.68 7.96
5/26/2022 7:45:00 PM 15.18 59.324 0.081 6.87 0.75 7.92
5/26/2022 8:00:00 PM 15.22 59.396 0.081 6.87 0.73 7.9
5/26/2022 8:15:00 PM 15.25 59.45 0.081 6.87 0.81 7.85
5/26/2022 8:30:00 PM 15.27 59.486 0.081 6.87 0.71 7.82
5/26/2022 8:45:00 PM 15.31 59.558 0.081 6.87 0.76 7.79
5/26/2022 9:00:00 PM 15.33 59.594 0.082 6.86 0.88 7.76
5/26/2022 9:15:00 PM 15.35 59.63 0.082 6.86 0.82 7.74
5/26/2022 9:30:00 PM 15.36 59.648 0.082 6.86 0.82 7.73
5/26/2022 9:45:00 PM 15.37 59.666 0.082 6.86 0.75 7.7
5/26/2022 10:00:00 PM 15.38 59.684 0.082 6.86 0.72 7.68
5/26/2022 10:15:00 PM 15.37 59.666 0.082 6.85 0.71 7.66
5/26/2022 10:30:00 PM 15.38 59.684 0.082 6.86 0.72 7.68
5/26/2022 10:45:00 PM 15.37 59.666 0.082 6.85 0.91 7.67
5/26/2022 11:00:00 PM 15.35 59.63 0.082 6.85 0.87 7.66
5/26/2022 11:15:00 PM 15.34 59.612 0.083 6.85 1.01 7.65
5/26/2022 11:30:00 PM 15.32 59.576 0.083 6.85 0.7 7.64
5/26/2022 11:45:00 PM 15.3 59.54 0.083 6.85 0.86 7.66
5/27/2022 12:00:00 AM 15.28 59.504 0.083 6.85 0.79 7.64
5/27/2022 12:15:00 AM 15.25 59.45 0.083 6.85 0.77 7.67
5/27/2022 12:30:00 AM 15.23 59.414 0.083 6.85 0.75 7.66
5/27/2022 12:45:00 AM 15.2 59.36 0.083 6.84 0.9 7.67
5/27/2022 1:00:00 AM 15.17 59.306 0.083 6.84 0.76 7.68
5/27/2022 1:15:00 AM 15.13 59.234 0.083 6.84 0.72 7.67
5/27/2022 1:30:00 AM 15.11 59.198 0.083 6.84 0.89 7.69
5/27/2022 1:45:00 AM 15.08 59.144 0.083 6.84 0.77 7.69
5/27/2022 2:00:00 AM 15.05 59.09 0.083 6.84 0.79 7.71
5/27/2022 2:15:00 AM 15.03 59.054 0.083 6.84 0.8 7.72
5/27/2022 2:30:00 AM 14.99 58.982 0.083 6.84 0.84 7.74
5/27/2022 2:45:00 AM 14.97 58.946 0.083 6.84 0.83 7.77
5/27/2022 3:00:00 AM 14.92 58.856 0.083 6.84 0.76 7.74
5/27/2022 3:15:00 AM 14.88 58.784 0.083 6.84 0.8 7.77
5/27/2022 3:30:00 AM 14.84 58.712 0.083 6.84 0.82 7.78
5/27/2022 3:45:00 AM 14.81 58.658 0.083 6.84 0.78 7.8
5/27/2022 4:00:00 AM 14.77 58.586 0.083 6.84 0.79 7.82
5/27/2022 4:15:00 AM 14.73 58.514 0.083 6.84 0.74 7.84
5/27/2022 4:30:00 AM 14.7 58.46 0.083 6.84 0.81 7.84
5/27/2022 4:45:00 AM 14.66 58.388 0.083 6.84 1.04 7.85
5/27/2022 5:00:00 AM 14.62 58.316 0.083 6.84 0.81 7.86
5/27/2022 5:15:00 AM 14.59 58.262 0.083 6.84 0.79 7.88
5/27/2022 5:30:00 AM 14.56 58.208 0.083 6.84 0.81 7.88
5/27/2022 5:45:00 AM 14.51 58.118 0.083 6.84 0.81 7.88
5/27/2022 6:00:00 AM 14.48 58.064 0.083 6.84 0.83 7.89
5/27/2022 6:15:00 AM 14.44 57.992 0.083 6.83 0.72 7.91
5/27/2022 6:30:00 AM 14.42 57.956 0.083 6.84 0.79 7.94
5/27/2022 6:45:00 AM 14.39 57.902 0.083 6.84 0.84 7.97
5/27/2022 7:00:00 AM 14.36 57.848 0.083 6.84 0.82 7.98
5/27/2022 7:15:00 AM 14.33 57.794 0.083 6.84 0.76 7.99
5/27/2022 7:30:00 AM 14.3 57.74 0.083 6.84 0.79 7.98
5/27/2022 7:45:00 AM 14.28 57.704 0.083 6.84 1.5 8.03
5/27/2022 8:00:00 AM 14.25 57.65 0.083 6.84 0.76 8.07
5/27/2022 8:15:00 AM 14.23 57.614 0.083 6.85 0.75 8.09
5/27/2022 8:30:00 AM 14.22 57.596 0.082 6.85 0.72 8.14
5/27/2022 8:45:00 AM 14.21 57.578 0.082 6.85 0.77 8.17
5/27/2022 9:00:00 AM 14.18 57.524 0.082 6.85 0.75 8.17
5/27/2022 9:15:00 AM 14.15 57.47 0.082 6.85 0.84 8.21
5/27/2022 9:30:00 AM 14.13 57.434 0.082 6.85 0.74 8.24
5/27/2022 9:45:00 AM 14.12 57.416 0.083 6.86 0.8 8.27
5/27/2022 10:00:00 AM 14.11 57.398 0.083 6.86 0.78 8.29
5/27/2022 10:15:00 AM 14.11 57.398 0.083 6.86 1.62 8.36
5/27/2022 10:30:00 AM 14.1 57.38 0.083 6.86 0.85 8.37
5/27/2022 10:45:00 AM 14.07 57.326 0.083 6.86 0.77 8.39
5/27/2022 11:00:00 AM 14.05 57.29 0.084 6.86 1.41 8.37
5/27/2022 11:15:00 AM 14.06 57.308 0.084 6.87 0.78 8.46
5/27/2022 11:30:00 AM 14.03 57.254 0.084 6.86 1.03 8.38
5/27/2022 11:45:00 AM 14.03 57.254 0.084 6.86 0.79 8.41
5/27/2022 12:00:00 PM 14.03 57.254 0.084 6.86 0.83 8.43
5/27/2022 12:15:00 PM 14.05 57.29 0.084 6.86 1.3 8.45
5/27/2022 12:30:00 PM 14.03 57.254 0.084 6.86 1.04 8.39
5/27/2022 12:45:00 PM 14.09 57.362 0.083 6.86 3.1 8.41
5/27/2022 1:00:00 PM 14.16 57.488 0.081 6.86 9.58 8.45
5/27/2022 1:15:00 PM 14.14 57.452 0.083 6.86 2.15 8.38
5/27/2022 1:30:00 PM 14.14 57.452 0.082 6.85 1.3 8.35
5/27/2022 1:45:00 PM 14.22 57.596 0.082 6.86 2.54 8.42
5/27/2022 2:00:00 PM 14.26 57.668 0.082 6.86 1.13 8.47
5/27/2022 2:15:00 PM 14.28 57.704 0.082 6.88 2.1 8.51
5/27/2022 2:30:00 PM 14.29 57.722 0.082 6.88 1.12 8.54
5/27/2022 2:45:00 PM 14.31 57.758 0.081 6.89 1.81 8.67
5/27/2022 3:00:00 PM 14.36 57.848 0.081 6.92 1.38 8.79
5/27/2022 3:15:00 PM 14.34 57.812 0.081 6.94 1.42 8.86
5/27/2022 3:30:00 PM 14.39 57.902 0.08 6.97 1.61 9
5/27/2022 3:45:00 PM 14.4 57.92 0.08 6.99 1.67 9.06
5/27/2022 4:00:00 PM 14.41 57.938 0.079 6.99 1.7 9.05
5/27/2022 4:15:00 PM 14.4 57.92 0.079 6.99 1.81 9.01
5/27/2022 4:30:00 PM 14.42 57.956 0.079 6.99 1.5 8.99
5/27/2022 4:45:00 PM 14.45 58.01 0.078 6.99 1.57 8.99
5/27/2022 5:00:00 PM 14.46 58.028 0.078 6.99 1.57 8.97
5/27/2022 5:15:00 PM 14.47 58.046 0.078 6.99 1.67 8.95
5/27/2022 5:30:00 PM 14.47 58.046 0.078 6.99 1.51 8.96
5/27/2022 5:45:00 PM 14.5 58.1 0.078 7 1.59 8.98
5/27/2022 6:00:00 PM 14.49 58.082 0.078 7 1.48 8.92
5/27/2022 6:15:00 PM 14.5 58.1 0.079 6.99 1.47 8.9
5/27/2022 6:30:00 PM 14.52 58.136 0.079 6.99 1.3 8.86
5/27/2022 6:45:00 PM 14.53 58.154 0.079 6.98 1.83 8.79
5/27/2022 7:00:00 PM 14.52 58.136 0.079 6.97 1.36 8.69
5/27/2022 7:15:00 PM 14.49 58.082 0.08 6.95 1.33 8.6
5/27/2022 7:30:00 PM 14.48 58.064 0.08 6.93 1.35 8.52
5/27/2022 7:45:00 PM 14.48 58.064 0.08 6.92 1.12 8.46
5/27/2022 8:00:00 PM 14.48 58.064 0.08 6.91 1.1 8.39
5/27/2022 8:15:00 PM 14.47 58.046 0.08 6.9 1.06 8.33
5/27/2022 8:30:00 PM 14.47 58.046 0.081 6.89 1.07 8.27
5/27/2022 8:45:00 PM 14.46 58.028 0.081 6.89 1 8.23
5/27/2022 9:00:00 PM 14.46 58.028 0.081 6.89 1.3 8.18
5/27/2022 9:15:00 PM 14.45 58.01 0.081 6.88 1.35 8.14
5/27/2022 9:30:00 PM 14.44 57.992 0.082 6.88 1.12 8.11
5/27/2022 9:45:00 PM 14.44 57.992 0.082 6.88 1.09 8.08
5/27/2022 10:00:00 PM 14.43 57.974 0.082 6.87 0.99 8.05
5/27/2022 10:15:00 PM 14.42 57.956 0.082 6.87 0.99 8.04
5/27/2022 10:30:00 PM 14.41 57.938 0.082 6.87 1.01 8.03
5/27/2022 10:45:00 PM 14.4 57.92 0.083 6.87 1.02 8.01
5/27/2022 11:00:00 PM 14.39 57.902 0.083 6.87 1.01 7.99
5/27/2022 11:15:00 PM 14.38 57.884 0.083 6.87 0.96 7.98
5/27/2022 11:30:00 PM 14.36 57.848 0.083 6.87 1.05 8
5/27/2022 11:45:00 PM 14.34 57.812 0.083 6.86 1.05 7.97
5/28/2022 12:00:00 AM 14.31 57.758 0.083 6.86 1.55 7.99
5/28/2022 12:15:00 AM 14.29 57.722 0.083 6.86 1 7.98
5/28/2022 12:30:00 AM 14.27 57.686 0.083 6.86 0.95 8
5/28/2022 12:45:00 AM 14.25 57.65 0.084 6.86 1.14 8
5/28/2022 1:00:00 AM 14.21 57.578 0.084 6.86 1.07 8
5/28/2022 1:15:00 AM 14.18 57.524 0.084 6.86 1.12 8.01
5/28/2022 1:30:00 AM 14.15 57.47 0.084 6.86 1.05 8.02
5/28/2022 1:45:00 AM 14.11 57.398 0.084 6.85 1.06 8.04
5/28/2022 2:00:00 AM 14.09 57.362 0.084 6.85 1.02 8.06
5/28/2022 2:15:00 AM 14.05 57.29 0.084 6.85 1.07 8.05
5/28/2022 2:30:00 AM 14.02 57.236 0.084 6.85 1.1 8.1
5/28/2022 2:45:00 AM 13.98 57.164 0.084 6.85 0.99 8.1
5/28/2022 3:00:00 AM 13.95 57.11 0.084 6.85 0.99 8.11
5/28/2022 3:15:00 AM 13.91 57.038 0.084 6.85 0.95 8.1
5/28/2022 3:30:00 AM 13.87 56.966 0.084 6.85 1 8.12
5/28/2022 3:45:00 AM 13.83 56.894 0.084 6.85 0.94 8.11
5/28/2022 4:00:00 AM 13.8 56.84 0.084 6.85 0.97 8.15
5/28/2022 4:15:00 AM 13.76 56.768 0.085 6.86 0.97 8.15
5/28/2022 4:30:00 AM 13.72 56.696 0.085 6.85 1.03 8.16
5/28/2022 4:45:00 AM 13.69 56.642 0.085 6.86 0.97 8.18
5/28/2022 5:00:00 AM 13.66 56.588 0.085 6.86 1.01 8.19
5/28/2022 5:15:00 AM 13.62 56.516 0.085 6.85 0.98 8.2
5/28/2022 5:30:00 AM 13.59 56.462 0.085 6.85 1.02 8.21
5/28/2022 5:45:00 AM 13.55 56.39 0.085 6.85 0.96 8.2
5/28/2022 6:00:00 AM 13.53 56.354 0.085 6.86 1.16 8.22
5/28/2022 6:15:00 AM 13.5 56.3 0.085 6.85 0.96 8.23
5/28/2022 6:30:00 AM 13.47 56.246 0.085 6.86 1.76 8.23
5/28/2022 6:45:00 AM 13.45 56.21 0.085 6.85 0.99 8.23
5/28/2022 7:00:00 AM 13.43 56.174 0.085 6.85 0.92 8.26
5/28/2022 7:15:00 AM 13.41 56.138 0.085 6.86 1.01 8.3
5/28/2022 7:30:00 AM 13.39 56.102 0.085 6.85 1.01 8.31
5/28/2022 7:45:00 AM 13.37 56.066 0.085 6.86 0.95 8.33
5/28/2022 8:00:00 AM 13.35 56.03 0.085 6.86 0.91 8.36
5/28/2022 8:15:00 AM 13.34 56.012 0.084 6.86 0.9 8.41
5/28/2022 8:30:00 AM 13.32 55.976 0.084 6.86 0.91 8.41
5/28/2022 8:45:00 AM 13.31 55.958 0.084 6.86 1.22 8.47
5/28/2022 9:00:00 AM 13.3 55.94 0.084 6.87 2.2 8.46
5/28/2022 9:15:00 AM 13.29 55.922 0.084 6.87 1.39 8.5
5/28/2022 9:30:00 AM 13.27 55.886 0.084 6.87 0.82 8.51
5/28/2022 9:45:00 AM 13.25 55.85 0.084 6.87 0.93 8.51
5/28/2022 10:00:00 AM 13.24 55.832 0.084 6.86 0.82 8.53
5/28/2022 10:15:00 AM 13.23 55.814 0.084 6.87 1.66 8.55
5/28/2022 10:30:00 AM 13.23 55.814 0.084 6.87 0.85 8.63
5/28/2022 10:45:00 AM 13.23 55.814 0.084 6.87 0.88 8.63
5/28/2022 11:00:00 AM 13.24 55.832 0.084 6.87 0.84 8.64
5/28/2022 11:15:00 AM 13.23 55.814 0.084 6.87 0.87 8.61
5/28/2022 11:30:00 AM 13.22 55.796 0.084 6.87 0.83 8.64
5/28/2022 11:45:00 AM 13.22 55.796 0.083 6.88 0.83 8.7
5/28/2022 12:00:00 PM 13.24 55.832 0.083 6.87 0.96 8.71
5/28/2022 12:15:00 PM 13.24 55.832 0.083 6.88 0.77 8.71
5/28/2022 12:30:00 PM 13.25 55.85 0.083 6.88 0.75 8.74
5/28/2022 12:45:00 PM 13.25 55.85 0.083 6.88 0.74 8.71
5/28/2022 1:00:00 PM 13.26 55.868 0.083 6.88 0.75 8.75
5/28/2022 1:15:00 PM 13.24 55.832 0.083 6.88 0.74 8.69
5/28/2022 1:30:00 PM 13.25 55.85 0.083 6.88 0.76 8.74
5/28/2022 1:45:00 PM 13.29 55.922 0.083 6.88 0.8 8.77
5/28/2022 2:00:00 PM 13.31 55.958 0.083 6.89 1.28 8.78
5/28/2022 2:15:00 PM 13.57 56.426 0.083 6.89 1.18 8.82
5/28/2022 2:30:00 PM 13.4 56.12 0.083 6.89 0.96 8.73
5/28/2022 2:45:00 PM 13.4 56.12 0.083 6.89 0.8 8.75
5/28/2022 3:00:00 PM 13.61 56.498 0.083 6.89 0.79 8.84
5/28/2022 3:15:00 PM 13.59 56.462 0.083 6.9 0.83 8.82
5/28/2022 3:30:00 PM 13.53 56.354 0.083 6.89 0.94 8.76
5/28/2022 3:45:00 PM 13.5 56.3 0.083 6.89 0.92 8.72
5/28/2022 4:00:00 PM 13.5 56.3 0.082 6.89 0.8 8.75
5/28/2022 4:15:00 PM 13.53 56.354 0.082 6.88 2.02 8.75
5/28/2022 4:30:00 PM 13.54 56.372 0.082 6.89 1.3 8.69
5/28/2022 4:45:00 PM 13.58 56.444 0.082 6.89 0.78 8.7
5/28/2022 5:00:00 PM 13.58 56.444 0.082 6.89 0.81 8.67
5/28/2022 5:15:00 PM 13.6 56.48 0.082 6.89 0.69 8.64
5/28/2022 5:30:00 PM 13.64 56.552 0.082 6.89 0.67 8.64
5/28/2022 5:45:00 PM 13.67 56.606 0.082 6.89 1.75 8.62
5/28/2022 6:00:00 PM 13.7 56.66 0.082 6.89 0.85 8.63
5/28/2022 6:15:00 PM 13.72 56.696 0.082 6.89 0.67 8.58
5/28/2022 6:30:00 PM 13.75 56.75 0.082 6.88 0.76 8.57
5/28/2022 6:45:00 PM 13.77 56.786 0.083 6.89 0.84 8.55
5/28/2022 7:00:00 PM 13.78 56.804 0.083 6.88 0.73 8.5
5/28/2022 7:15:00 PM 13.79 56.822 0.083 6.88 1.01 8.49
5/28/2022 7:30:00 PM 13.8 56.84 0.083 6.88 0.7 8.45
5/28/2022 7:45:00 PM 13.82 56.876 0.083 6.88 0.75 8.43
5/28/2022 8:00:00 PM 13.82 56.876 0.083 6.87 0.77 8.38
5/28/2022 8:15:00 PM 13.83 56.894 0.083 6.87 0.87 8.37
5/28/2022 8:30:00 PM 13.84 56.912 0.083 6.87 0.87 8.34
5/28/2022 8:45:00 PM 13.84 56.912 0.083 6.87 0.89 8.33
5/28/2022 9:00:00 PM 13.84 56.912 0.083 6.87 0.76 8.28
5/28/2022 9:15:00 PM 13.83 56.894 0.083 6.87 0.78 8.28
5/28/2022 9:30:00 PM 13.83 56.894 0.083 6.87 0.71 8.27
5/28/2022 9:45:00 PM 13.83 56.894 0.084 6.87 0.86 8.24
5/28/2022 10:00:00 PM 13.82 56.876 0.084 6.87 0.82 8.24
5/28/2022 10:15:00 PM 13.8 56.84 0.084 6.87 0.81 8.22
5/28/2022 10:30:00 PM 13.79 56.822 0.084 6.87 0.93 8.23
5/28/2022 10:45:00 PM 13.77 56.786 0.084 6.87 1 8.23
5/28/2022 11:00:00 PM 13.75 56.75 0.084 6.87 0.81 8.23
5/28/2022 11:15:00 PM 13.72 56.696 0.084 6.87 0.76 8.23
5/28/2022 11:30:00 PM 13.7 56.66 0.084 6.87 0.91 8.24
5/28/2022 11:45:00 PM 13.67 56.606 0.084 6.87 0.77 8.24
5/29/2022 12:00:00 AM 13.63 56.534 0.084 6.87 1.31 8.24
5/29/2022 12:15:00 AM 13.6 56.48 0.084 6.87 0.76 8.24
5/29/2022 12:30:00 AM 13.57 56.426 0.085 6.86 0.74 8.26
5/29/2022 12:45:00 AM 13.53 56.354 0.085 6.87 1.14 8.28
5/29/2022 1:00:00 AM 13.48 56.264 0.085 6.87 0.82 8.3
5/29/2022 1:15:00 AM 13.44 56.192 0.085 6.86 0.77 8.31
5/29/2022 1:30:00 AM 13.4 56.12 0.085 6.86 0.83 8.32
5/29/2022 1:45:00 AM 13.35 56.03 0.085 6.86 1.04 8.34
5/29/2022 2:00:00 AM 13.3 55.94 0.085 6.87 0.78 8.36
5/29/2022 2:15:00 AM 13.24 55.832 0.085 6.87 0.8 8.38
5/29/2022 2:30:00 AM 13.19 55.742 0.085 6.86 0.99 8.39
5/29/2022 2:45:00 AM 13.14 55.652 0.085 6.87 0.77 8.39
5/29/2022 3:00:00 AM 13.09 55.562 0.085 6.87 0.72 8.45
5/29/2022 3:15:00 AM 13.04 55.472 0.085 6.86 1.02 8.43
5/29/2022 3:30:00 AM 12.99 55.382 0.085 6.87 0.76 8.46
5/29/2022 3:45:00 AM 12.95 55.31 0.085 6.87 0.94 8.48
5/29/2022 4:00:00 AM 12.9 55.22 0.085 6.87 0.88 8.51
5/29/2022 4:15:00 AM 12.85 55.13 0.085 6.87 0.81 8.53
5/29/2022 4:30:00 AM 12.8 55.04 0.085 6.87 0.98 8.56
5/29/2022 4:45:00 AM 12.75 54.95 0.085 6.87 0.79 8.58
5/29/2022 5:00:00 AM 12.7 54.86 0.085 6.87 0.86 8.6
5/29/2022 5:15:00 AM 12.64 54.752 0.085 6.87 0.86 8.61
5/29/2022 5:30:00 AM 12.58 54.644 0.085 6.87 0.88 8.61
5/29/2022 5:45:00 AM 12.53 54.554 0.085 6.87 2.08 8.66
5/29/2022 6:00:00 AM 12.48 54.464 0.085 6.87 0.8 8.66
5/29/2022 6:15:00 AM 12.42 54.356 0.085 6.87 0.85 8.7
5/29/2022 6:30:00 AM 12.37 54.266 0.085 6.87 0.73 8.74
5/29/2022 6:45:00 AM 12.33 54.194 0.085 6.87 0.81 8.75
5/29/2022 7:00:00 AM 12.28 54.104 0.085 6.88 0.9 8.82
5/29/2022 7:15:00 AM 12.24 54.032 0.085 6.87 0.92 8.82
5/29/2022 7:30:00 AM 12.2 53.96 0.085 6.88 1.02 8.88
5/29/2022 7:45:00 AM 12.17 53.906 0.085 6.88 0.82 8.93
5/29/2022 8:00:00 AM 12.13 53.834 0.085 6.89 1.51 8.97
5/29/2022 8:15:00 AM 12.09 53.762 0.085 6.89 0.86 9.01
5/29/2022 8:30:00 AM 12.07 53.726 0.084 6.89 0.78 9.05
5/29/2022 8:45:00 AM 12.04 53.672 0.084 6.89 0.78 9.09
5/29/2022 9:00:00 AM 12.01 53.618 0.084 6.89 0.83 9.13
5/29/2022 9:15:00 AM 12.01 53.618 0.084 6.89 0.98 9.16
5/29/2022 9:30:00 AM 11.99 53.582 0.084 6.89 0.76 9.2
5/29/2022 9:45:00 AM 11.98 53.564 0.084 6.9 0.84 9.24
5/29/2022 10:00:00 AM 11.96 53.528 0.084 6.9 0.72 9.28
5/29/2022 10:15:00 AM 11.96 53.528 0.084 6.9 0.81 9.31
5/29/2022 10:30:00 AM 11.96 53.528 0.084 6.9 0.86 9.31
5/29/2022 10:45:00 AM 11.92 53.456 0.084 6.9 0.84 9.33
5/29/2022 11:00:00 AM 11.92 53.456 0.084 6.9 0.78 9.3
5/29/2022 11:15:00 AM 11.93 53.474 0.084 6.9 0.82 9.3
5/29/2022 11:30:00 AM 11.92 53.456 0.084 6.9 0.74 9.32
5/29/2022 11:45:00 AM 11.94 53.492 0.084 6.9 0.76 9.33
5/29/2022 12:00:00 PM 11.98 53.564 0.084 6.9 0.75 9.31
5/29/2022 12:15:00 PM 12.03 53.654 0.084 6.89 0.81 9.31
5/29/2022 12:30:00 PM 12.1 53.78 0.084 6.91 0.77 9.31
5/29/2022 12:45:00 PM 12.2 53.96 0.084 6.9 0.83 9.27
5/29/2022 1:00:00 PM 12.32 54.176 0.084 6.91 0.79 9.28
5/29/2022 1:15:00 PM 12.45 54.41 0.084 6.91 0.8 9.24
5/29/2022 1:30:00 PM 12.62 54.716 0.084 6.91 0.84 9.2
5/29/2022 1:45:00 PM 12.79 55.022 0.084 6.91 0.71 9.15
5/29/2022 2:00:00 PM 12.95 55.31 0.084 6.91 1 9.09
5/29/2022 2:15:00 PM 13.12 55.616 0.084 6.91 0.76 9.04
5/29/2022 2:30:00 PM 13.31 55.958 0.084 6.92 1.03 9
5/29/2022 2:45:00 PM 13.48 56.264 0.084 6.91 0.76 8.96
5/29/2022 3:00:00 PM 13.65 56.57 0.084 6.91 0.74 8.89
5/29/2022 3:15:00 PM 13.68 56.624 0.084 6.91 0.76 8.84
5/29/2022 3:30:00 PM 13.7 56.66 0.084 6.91 0.73 8.78
5/29/2022 3:45:00 PM 13.7 56.66 0.084 6.92 2.16 8.72
5/29/2022 4:00:00 PM 13.81 56.858 0.084 6.91 0.74 8.68
5/29/2022 4:15:00 PM 13.86 56.948 0.084 6.91 0.76 8.6
5/29/2022 4:30:00 PM 13.91 57.038 0.084 6.9 0.71 8.54
5/29/2022 4:45:00 PM 13.96 57.128 0.084 6.9 0.75 8.46
5/29/2022 5:00:00 PM 14.05 57.29 0.084 6.9 0.79 8.41
5/29/2022 5:15:00 PM 14.11 57.398 0.084 6.9 1.21 8.36
5/29/2022 5:30:00 PM 14.19 57.542 0.084 6.89 0.83 8.3
5/29/2022 5:45:00 PM 14.26 57.668 0.084 6.9 0.76 8.26
5/29/2022 6:00:00 PM 14.34 57.812 0.084 6.89 0.7 8.2
5/29/2022 6:15:00 PM 14.4 57.92 0.084 6.89 0.74 8.15
5/29/2022 6:30:00 PM 14.48 58.064 0.084 6.89 1 8.13
5/29/2022 6:45:00 PM 14.55 58.19 0.085 6.89 0.79 8.1
5/29/2022 7:00:00 PM 14.6 58.28 0.085 6.89 0.74 8.05
5/29/2022 7:15:00 PM 14.67 58.406 0.085 6.89 0.78 8.06
5/29/2022 7:30:00 PM 14.72 58.496 0.085 6.89 0.7 8.01
5/29/2022 7:45:00 PM 14.77 58.586 0.085 6.88 1.39 7.98
5/29/2022 8:00:00 PM 14.81 58.658 0.085 6.88 0.75 7.95
5/29/2022 8:15:00 PM 14.85 58.73 0.085 6.88 0.81 7.92
5/29/2022 8:30:00 PM 14.88 58.784 0.085 6.88 0.85 7.89
5/29/2022 8:45:00 PM 14.91 58.838 0.085 6.88 0.87 7.87
5/29/2022 9:00:00 PM 14.94 58.892 0.085 6.88 1.14 7.85
5/29/2022 9:15:00 PM 14.96 58.928 0.086 6.88 1.14 7.84
5/29/2022 9:30:00 PM 14.99 58.982 0.086 6.88 0.84 7.83
5/29/2022 9:45:00 PM 15.01 59.018 0.086 6.87 0.83 7.82
5/29/2022 10:00:00 PM 15.01 59.018 0.086 6.87 0.79 7.8
5/29/2022 10:15:00 PM 15.01 59.018 0.086 6.87 0.79 7.78
5/29/2022 10:30:00 PM 15.01 59.018 0.086 6.87 0.84 7.78
5/29/2022 10:45:00 PM 15.01 59.018 0.086 6.87 0.89 7.76
5/29/2022 11:00:00 PM 15.01 59.018 0.086 6.87 0.82 7.78
5/29/2022 11:15:00 PM 15 59 0.086 6.87 0.82 7.78
5/29/2022 11:30:00 PM 14.98 58.964 0.086 6.86 0.79 7.77
5/29/2022 11:45:00 PM 14.96 58.928 0.086 6.87 0.81 7.8
5/30/2022 12:00:00 AM 14.94 58.892 0.087 6.87 0.71 7.8
5/30/2022 12:15:00 AM 14.91 58.838 0.087 6.87 1.08 7.81
5/30/2022 12:30:00 AM 14.88 58.784 0.087 6.86 2.23 7.82
5/30/2022 12:45:00 AM 14.85 58.73 0.087 6.87 0.88 7.84
5/30/2022 1:00:00 AM 14.81 58.658 0.087 6.86 0.78 7.86
5/30/2022 1:15:00 AM 14.77 58.586 0.087 6.87 0.83 7.86
5/30/2022 1:30:00 AM 14.73 58.514 0.087 6.86 0.83 7.9
5/30/2022 1:45:00 AM 14.68 58.424 0.087 6.87 0.84 7.93
5/30/2022 2:00:00 AM 14.64 58.352 0.087 6.87 0.78 7.95
5/30/2022 2:15:00 AM 14.58 58.244 0.087 6.87 0.79 7.94
5/30/2022 2:30:00 AM 14.53 58.154 0.087 6.87 0.72 7.96
5/30/2022 2:45:00 AM 14.49 58.082 0.087 6.87 0.77 8.02
5/30/2022 3:00:00 AM 14.42 57.956 0.087 6.86 0.79 8.02
5/30/2022 3:15:00 AM 14.37 57.866 0.087 6.86 0.78 8.04
5/30/2022 3:30:00 AM 14.32 57.776 0.087 6.87 0.8 8.09
5/30/2022 3:45:00 AM 14.26 57.668 0.087 6.86 0.83 8.12
5/30/2022 4:00:00 AM 14.2 57.56 0.087 6.87 0.86 8.13
5/30/2022 4:15:00 AM 14.13 57.434 0.087 6.87 0.76 8.12
5/30/2022 4:30:00 AM 14.07 57.326 0.087 6.87 0.91 8.17
5/30/2022 4:45:00 AM 14.01 57.218 0.087 6.87 0.92 8.18
5/30/2022 5:00:00 AM 13.95 57.11 0.087 6.87 0.8 8.22
5/30/2022 5:15:00 AM 13.89 57.002 0.087 6.87 0.93 8.23
5/30/2022 5:30:00 AM 13.82 56.876 0.087 6.87 0.87 8.25
5/30/2022 5:45:00 AM 13.76 56.768 0.087 6.87 0.87 8.27
5/30/2022 6:00:00 AM 13.7 56.66 0.087 6.87 1.02 8.29
5/30/2022 6:15:00 AM 13.64 56.552 0.087 6.87 0.95 8.33
5/30/2022 6:30:00 AM 13.58 56.444 0.087 6.86 0.97 8.34
5/30/2022 6:45:00 AM 13.53 56.354 0.087 6.87 0.84 8.37
5/30/2022 7:00:00 AM 13.47 56.246 0.087 6.87 0.93 8.44
5/30/2022 7:15:00 AM 13.42 56.156 0.087 6.87 0.92 8.46
5/30/2022 7:30:00 AM 13.37 56.066 0.087 6.87 0.87 8.49
5/30/2022 7:45:00 AM 13.33 55.994 0.087 6.88 1.04 8.53
5/30/2022 8:00:00 AM 13.3 55.94 0.087 6.88 0.91 8.55
5/30/2022 8:15:00 AM 13.27 55.886 0.087 6.88 1.12 8.64
5/30/2022 8:30:00 AM 13.24 55.832 0.087 6.88 0.88 8.66
5/30/2022 8:45:00 AM 13.2 55.76 0.087 6.88 0.81 8.71
5/30/2022 9:00:00 AM 13.16 55.688 0.086 6.89 0.87 8.78
5/30/2022 9:15:00 AM 13.12 55.616 0.086 6.88 0.92 8.82
5/30/2022 9:30:00 AM 13.08 55.544 0.086 6.89 0.91 8.86
5/30/2022 9:45:00 AM 13.06 55.508 0.086 6.89 0.84 8.89
5/30/2022 10:00:00 AM 13.03 55.454 0.086 6.89 0.88 8.9
5/30/2022 10:15:00 AM 13.01 55.418 0.086 6.89 0.85 8.92
5/30/2022 10:30:00 AM 12.97 55.346 0.086 6.89 0.86 8.95
5/30/2022 10:45:00 AM 12.98 55.364 0.086 6.89 1.29 8.96
5/30/2022 11:00:00 AM 12.96 55.328 0.086 6.89 0.89 9
5/30/2022 11:15:00 AM 12.97 55.346 0.086 6.89 0.96 9.01
5/30/2022 11:30:00 AM 12.97 55.346 0.086 6.89 1.02 9.01
5/30/2022 11:45:00 AM 12.99 55.382 0.086 6.9 0.86 9.03
5/30/2022 12:00:00 PM 13.02 55.436 0.085 6.9 0.86 9.03
5/30/2022 12:15:00 PM 13.08 55.544 0.085 6.9 0.95 9.01
5/30/2022 12:30:00 PM 13.15 55.67 0.085 6.9 0.86 9
5/30/2022 12:45:00 PM 13.24 55.832 0.085 6.9 0.86 8.98
5/30/2022 1:00:00 PM 13.34 56.012 0.085 6.9 1.08 8.98
5/30/2022 1:15:00 PM 13.47 56.246 0.085 6.9 0.95 8.96
5/30/2022 1:30:00 PM 13.64 56.552 0.085 6.91 1.33 8.94
5/30/2022 1:45:00 PM 13.79 56.822 0.085 6.9 0.89 8.89
5/30/2022 2:00:00 PM 13.96 57.128 0.085 6.9 0.92 8.83
5/30/2022 2:15:00 PM 14.14 57.452 0.085 6.9 0.9 8.77
5/30/2022 2:30:00 PM 14.33 57.794 0.085 6.9 0.9 8.73
5/30/2022 2:45:00 PM 14.53 58.154 0.085 6.91 0.83 8.68
5/30/2022 3:00:00 PM 14.7 58.46 0.085 6.91 0.9 8.63
5/30/2022 3:15:00 PM 14.78 58.604 0.085 6.9 0.82 8.57
5/30/2022 3:30:00 PM 14.82 58.676 0.085 6.9 0.86 8.5
5/30/2022 3:45:00 PM 14.89 58.802 0.085 6.9 0.91 8.45
5/30/2022 4:00:00 PM 14.94 58.892 0.085 6.9 0.93 8.39
5/30/2022 4:15:00 PM 15 59 0.085 6.9 0.91 8.32
5/30/2022 4:30:00 PM 15.05 59.09 0.085 6.9 0.9 8.22
5/30/2022 4:45:00 PM 15.1 59.18 0.086 6.89 0.86 8.15
5/30/2022 5:00:00 PM 15.18 59.324 0.086 6.89 0.87 8.09
5/30/2022 5:15:00 PM 15.28 59.504 0.086 6.89 1.7 8.04
5/30/2022 5:30:00 PM 15.35 59.63 0.086 6.89 0.89 7.95
5/30/2022 5:45:00 PM 15.45 59.81 0.086 6.89 0.99 7.92
5/30/2022 6:00:00 PM 15.54 59.972 0.086 6.88 0.84 7.85
5/30/2022 6:15:00 PM 15.62 60.116 0.086 6.88 0.99 7.81
5/30/2022 6:30:00 PM 15.7 60.26 0.086 6.88 0.95 7.77
5/30/2022 6:45:00 PM 15.76 60.368 0.086 6.88 1 7.72
5/30/2022 7:00:00 PM 15.84 60.512 0.086 6.88 0.93 7.7
5/30/2022 7:15:00 PM 15.9 60.62 0.086 6.87 0.92 7.64
5/30/2022 7:30:00 PM 15.98 60.764 0.086 6.87 0.94 7.6
5/30/2022 7:45:00 PM 16.04 60.872 0.086 6.87 0.89 7.58
5/30/2022 8:00:00 PM 16.09 60.962 0.086 6.87 0.99 7.55
5/30/2022 8:15:00 PM 16.14 61.052 0.086 6.87 1.05 7.51
5/30/2022 8:30:00 PM 16.18 61.124 0.087 6.86 0.9 7.47
5/30/2022 8:45:00 PM 16.21 61.178 0.087 6.86 0.92 7.43
5/30/2022 9:00:00 PM 16.26 61.268 0.087 6.86 0.94 7.41
5/30/2022 9:15:00 PM 16.29 61.322 0.087 6.86 1.03 7.39
5/30/2022 9:30:00 PM 16.31 61.358 0.087 6.85 1 7.37
5/30/2022 9:45:00 PM 16.35 61.43 0.087 6.85 0.94 7.36
5/30/2022 10:00:00 PM 16.35 61.43 0.087 6.85 0.92 7.33
5/30/2022 10:15:00 PM 16.38 61.484 0.087 6.85 1.32 7.34
5/30/2022 10:30:00 PM 16.38 61.484 0.087 6.85 1.05 7.33
5/30/2022 10:45:00 PM 16.38 61.484 0.087 6.85 0.93 7.31
5/30/2022 11:00:00 PM 16.39 61.502 0.088 6.85 1.07 7.34
5/30/2022 11:15:00 PM 16.36 61.448 0.088 6.85 0.97 7.3
5/30/2022 11:30:00 PM 16.35 61.43 0.088 6.85 0.9 7.31
5/30/2022 11:45:00 PM 16.32 61.376 0.088 6.84 0.94 7.3
5/31/2022 12:00:00 AM 16.31 61.358 0.088 6.84 0.99 7.31
5/31/2022 12:15:00 AM 16.3 61.34 0.088 6.85 0.94 7.35
5/31/2022 12:30:00 AM 16.26 61.268 0.088 6.85 0.97 7.35
5/31/2022 12:45:00 AM 16.24 61.232 0.088 6.84 1.06 7.36
5/31/2022 1:00:00 AM 16.19 61.142 0.088 6.84 0.92 7.37
5/31/2022 1:15:00 AM 16.16 61.088 0.088 6.84 1.03 7.38
5/31/2022 1:30:00 AM 16.12 61.016 0.088 6.84 1.18 7.4
5/31/2022 1:45:00 AM 16.08 60.944 0.088 6.84 1.02 7.43
5/31/2022 2:00:00 AM 16.04 60.872 0.088 6.84 1 7.46
5/31/2022 2:15:00 AM 15.98 60.764 0.088 6.84 1.05 7.44
5/31/2022 2:30:00 AM 15.93 60.674 0.088 6.85 1.09 7.46
5/31/2022 2:45:00 AM 15.88 60.584 0.088 6.84 1.12 7.49
5/31/2022 3:00:00 AM 15.82 60.476 0.088 6.84 0.97 7.51
5/31/2022 3:15:00 AM 15.77 60.386 0.088 6.84 1.17 7.55
5/31/2022 3:30:00 AM 15.7 60.26 0.088 6.84 1.24 7.56
5/31/2022 3:45:00 AM 15.65 60.17 0.088 6.85 0.99 7.59
5/31/2022 4:00:00 AM 15.59 60.062 0.088 6.84 1.05 7.61
5/31/2022 4:15:00 AM 15.53 59.954 0.088 6.84 0.99 7.62
5/31/2022 4:30:00 AM 15.47 59.846 0.088 6.84 1.21 7.66
5/31/2022 4:45:00 AM 15.41 59.738 0.088 6.85 0.99 7.7
5/31/2022 5:00:00 AM 15.35 59.63 0.088 6.84 1.09 7.69
5/31/2022 5:15:00 AM 15.28 59.504 0.088 6.84 1.1 7.73
5/31/2022 5:30:00 AM 15.22 59.396 0.088 6.84 1.29 7.76
5/31/2022 5:45:00 AM 15.15 59.27 0.088 6.85 1 7.76
5/31/2022 6:00:00 AM 15.09 59.162 0.088 6.84 0.97 7.79
5/31/2022 6:15:00 AM 15.03 59.054 0.088 6.85 1.1 7.81
5/31/2022 6:30:00 AM 14.97 58.946 0.088 6.85 1 7.83
5/31/2022 6:45:00 AM 14.9 58.82 0.088 6.84 21.24 7.9
5/31/2022 7:00:00 AM 14.85 58.73 0.088 6.85 1.28 7.92
5/31/2022 7:15:00 AM 14.8 58.64 0.088 6.85 3.37 7.97
5/31/2022 7:30:00 AM 14.75 58.55 0.088 6.85 1.79 7.97
5/31/2022 7:45:00 AM 14.71 58.478 0.088 6.85 2.01 8.03
5/31/2022 8:00:00 AM 14.67 58.406 0.088 6.85 0.92 8.04
5/31/2022 8:15:00 AM 14.63 58.334 0.088 6.85 0.99 8.07
5/31/2022 8:30:00 AM 14.59 58.262 0.088 6.85 0.96 8.09
5/31/2022 8:45:00 AM 14.55 58.19 0.088 6.86 0.92 8.14
5/31/2022 9:00:00 AM 14.53 58.154 0.088 6.85 0.93 8.19
5/31/2022 9:15:00 AM 14.5 58.1 0.088 6.86 0.92 8.23
5/31/2022 9:30:00 AM 14.47 58.046 0.088 6.86 0.94 8.26
5/31/2022 9:45:00 AM 14.43 57.974 0.088 6.86 0.98 8.31
5/31/2022 10:00:00 AM 14.41 57.938 0.088 6.86 0.88 8.33
5/31/2022 10:15:00 AM 14.4 57.92 0.088 6.86 0.91 8.36
5/31/2022 10:30:00 AM 14.37 57.866 0.088 6.87 0.95 8.41
5/31/2022 10:45:00 AM 14.35 57.83 0.087 6.87 1.08 8.41
5/31/2022 11:00:00 AM 14.33 57.794 0.087 6.87 1 8.45
5/31/2022 11:15:00 AM 14.32 57.776 0.087 6.87 0.95 8.48
5/31/2022 11:30:00 AM 14.31 57.758 0.087 6.87 1 8.5
5/31/2022 11:45:00 AM 14.33 57.794 0.087 6.88 0.99 8.51
5/31/2022 12:00:00 PM 14.35 57.83 0.087 6.88 0.93 8.53
5/31/2022 12:15:00 PM 14.35 57.83 0.087 6.88 1 8.53
5/31/2022 12:30:00 PM 14.4 57.92 0.087 6.88 1.05 8.55
5/31/2022 12:45:00 PM 14.51 58.118 0.087 6.88 0.98 8.54
5/31/2022 1:00:00 PM 14.52 58.136 0.087 6.88 0.97 8.45
5/31/2022 1:15:00 PM 14.66 58.388 0.087 6.88 1.39 8.46
5/31/2022 1:30:00 PM 14.66 58.388 0.087 6.88 0.97 8.42
5/31/2022 1:45:00 PM 14.71 58.478 0.087 6.88 0.96 8.4
5/31/2022 2:00:00 PM 14.9 58.82 0.086 6.88 0.94 8.41
5/31/2022 2:15:00 PM 15.21 59.378 0.086 6.88 1.06 8.39
5/31/2022 2:30:00 PM 15.44 59.792 0.086 6.89 0.94 8.37
5/31/2022 2:45:00 PM 15.39 59.702 0.086 6.89 1.01 8.32
5/31/2022 3:00:00 PM 15.58 60.044 0.086 6.89 0.96 8.32
5/31/2022 3:15:00 PM 15.58 60.044 0.086 6.89 1.02 8.26
5/31/2022 3:30:00 PM 15.69 60.242 0.086 6.89 0.92 8.24
5/31/2022 3:45:00 PM 15.78 60.404 0.086 6.89 1.11 8.22
5/31/2022 4:00:00 PM 15.8 60.44 0.086 6.89 1.02 8.17
5/31/2022 4:15:00 PM 15.85 60.53 0.086 6.88 1.07 8.11
5/31/2022 4:30:00 PM 15.87 60.566 0.086 6.88 0.97 8.04
5/31/2022 4:45:00 PM 15.89 60.602 0.086 6.88 0.96 7.97
5/31/2022 5:00:00 PM 15.95 60.71 0.086 6.88 0.97 7.93
5/31/2022 5:15:00 PM 16.01 60.818 0.086 6.87 1.14 7.84
5/31/2022 5:30:00 PM 16.07 60.926 0.086 6.87 1.32 7.82
5/31/2022 5:45:00 PM 16.14 61.052 0.086 6.87 1 7.78
5/31/2022 6:00:00 PM 16.2 61.16 0.086 6.87 1.1 7.72
5/31/2022 6:15:00 PM 16.25 61.25 0.086 6.87 0.96 7.67
5/31/2022 6:30:00 PM 16.33 61.394 0.087 6.87 0.95 7.65
5/31/2022 6:45:00 PM 16.38 61.484 0.087 6.86 0.96 7.6
5/31/2022 7:00:00 PM 16.43 61.574 0.087 6.86 1.01 7.54
5/31/2022 7:15:00 PM 16.5 61.7 0.087 6.86 1.02 7.52
5/31/2022 7:30:00 PM 16.55 61.79 0.087 6.86 0.98 7.49
5/31/2022 7:45:00 PM 16.6 61.88 0.087 6.86 1.03 7.46
5/31/2022 8:00:00 PM 16.64 61.952 0.087 6.86 1 7.41
5/31/2022 8:15:00 PM 16.69 62.042 0.087 6.85 1.14 7.36
5/31/2022 8:30:00 PM 16.73 62.114 0.087 6.85 0.97 7.34
5/31/2022 8:45:00 PM 16.77 62.186 0.087 6.85 1.02 7.34
5/31/2022 9:00:00 PM 16.8 62.24 0.087 6.84 0.98 7.28
5/31/2022 9:15:00 PM 16.82 62.276 0.088 6.85 1.07 7.28
5/31/2022 9:30:00 PM 16.84 62.312 0.088 6.84 0.98 7.25
5/31/2022 9:45:00 PM 16.87 62.366 0.088 6.84 1 7.23
5/31/2022 10:00:00 PM 16.88 62.384 0.088 6.84 1.2 7.23
5/31/2022 10:15:00 PM 16.86 62.348 0.088 6.84 1.05 7.17
5/31/2022 10:30:00 PM 16.89 62.402 0.088 6.84 1.16 7.18
5/31/2022 10:45:00 PM 16.89 62.402 0.088 6.84 1.25 7.17
5/31/2022 11:00:00 PM 16.88 62.384 0.088 6.83 1.26 7.17
5/31/2022 11:15:00 PM 16.87 62.366 0.089 6.83 1.21 7.16
5/31/2022 11:30:00 PM 16.85 62.33 0.089 6.84 1.31 7.17
5/31/2022 11:45:00 PM 16.84 62.312 0.089 6.83 1.49 7.17
6/1/2022 12:00:00 AM 16.81 62.258 0.089 6.83 1.39 7.16
6/1/2022 12:15:00 AM 16.79 62.222 0.089 6.83 1.4 7.15
6/1/2022 12:30:00 AM 16.77 62.186 0.089 6.83 1.46 7.2
6/1/2022 12:45:00 AM 16.73 62.114 0.089 6.84 1.32 7.18
6/1/2022 1:00:00 AM 16.71 62.078 0.089 6.84 1.22 7.21
6/1/2022 1:15:00 AM 16.67 62.006 0.089 6.83 1.18 7.22
6/1/2022 1:30:00 AM 16.63 61.934 0.089 6.84 1.23 7.22
6/1/2022 1:45:00 AM 16.59 61.862 0.089 6.83 1.44 7.24
6/1/2022 2:00:00 AM 16.55 61.79 0.089 6.83 2.41 7.23
6/1/2022 2:15:00 AM 16.51 61.718 0.089 6.83 1.27 7.26
6/1/2022 2:30:00 AM 16.48 61.664 0.089 6.84 1.55 7.28
6/1/2022 2:45:00 AM 16.42 61.556 0.089 6.83 1.33 7.3
6/1/2022 3:00:00 AM 16.37 61.466 0.089 6.83 1.35 7.29
6/1/2022 3:15:00 AM 16.33 61.394 0.089 6.83 1.26 7.32
6/1/2022 3:30:00 AM 16.28 61.304 0.089 6.83 1.25 7.32
6/1/2022 3:45:00 AM 16.23 61.214 0.089 6.83 1.3 7.35
6/1/2022 4:00:00 AM 16.18 61.124 0.089 6.83 1.37 7.38
6/1/2022 4:15:00 AM 16.12 61.016 0.089 6.83 1.34 7.39
6/1/2022 4:30:00 AM 16.07 60.926 0.089 6.83 1.27 7.42
6/1/2022 4:45:00 AM 16.01 60.818 0.089 6.83 1.23 7.43
6/1/2022 5:00:00 AM 15.96 60.728 0.089 6.83 1.32 7.46
6/1/2022 5:15:00 AM 15.91 60.638 0.089 6.83 1.46 7.49
6/1/2022 5:30:00 AM 15.84 60.512 0.089 6.83 1.26 7.47
6/1/2022 5:45:00 AM 15.79 60.422 0.089 6.84 1.36 7.52
6/1/2022 6:00:00 AM 15.73 60.314 0.089 6.84 1.31 7.52
6/1/2022 6:15:00 AM 15.68 60.224 0.089 6.84 1.34 7.57
6/1/2022 6:30:00 AM 15.63 60.134 0.089 6.84 1.69 7.57
6/1/2022 6:45:00 AM 15.57 60.026 0.089 6.84 1.29 7.62
6/1/2022 7:00:00 AM 15.52 59.936 0.089 6.84 1.36 7.64
6/1/2022 7:15:00 AM 15.48 59.864 0.089 6.84 1.28 7.69
6/1/2022 7:30:00 AM 15.44 59.792 0.089 6.84 1.38 7.73
6/1/2022 7:45:00 AM 15.4 59.72 0.089 6.84 1.26 7.74
6/1/2022 8:00:00 AM 15.36 59.648 0.089 6.84 1.24 7.78
6/1/2022 8:15:00 AM 15.33 59.594 0.089 6.84 1.28 7.79
6/1/2022 8:30:00 AM 15.29 59.522 0.089 6.84 1.45 7.85
6/1/2022 8:45:00 AM 15.26 59.468 0.089 6.85 1.23 7.91
6/1/2022 9:00:00 AM 15.24 59.432 0.089 6.85 1.17 7.93
6/1/2022 9:15:00 AM 15.21 59.378 0.089 6.85 1.28 8
6/1/2022 9:30:00 AM 15.18 59.324 0.089 6.86 1.33 8.03
6/1/2022 9:45:00 AM 15.15 59.27 0.089 6.85 1.42 8.06
6/1/2022 10:00:00 AM 15.13 59.234 0.089 6.85 3.64 8.09
6/1/2022 10:15:00 AM 15.1 59.18 0.089 6.86 1.37 8.13
6/1/2022 10:30:00 AM 15.07 59.126 0.088 6.86 1.43 8.16
6/1/2022 10:45:00 AM 15.06 59.108 0.088 6.87 1.44 8.2
6/1/2022 11:00:00 AM 15.05 59.09 0.088 6.87 1.32 8.2
6/1/2022 11:15:00 AM 15.04 59.072 0.088 6.87 1.35 8.25
6/1/2022 11:30:00 AM 15.07 59.126 0.088 6.88 1.32 8.29
6/1/2022 11:45:00 AM 15.08 59.144 0.088 6.87 1.4 8.27
6/1/2022 12:00:00 PM 15.1 59.18 0.088 6.88 1.28 8.3
6/1/2022 12:15:00 PM 15.07 59.126 0.088 6.87 1.24 8.28
6/1/2022 12:30:00 PM 15.16 59.288 0.088 6.88 1.19 8.32
6/1/2022 12:45:00 PM 15.22 59.396 0.088 6.87 1.48 8.3
6/1/2022 1:00:00 PM 15.26 59.468 0.088 6.88 1.23 8.3
6/1/2022 1:15:00 PM 15.38 59.684 0.087 6.88 1.14 8.3
6/1/2022 1:30:00 PM 15.46 59.828 0.087 6.88 1.22 8.26
6/1/2022 1:45:00 PM 15.6 60.08 0.087 6.88 1.23 8.22
6/1/2022 2:00:00 PM 15.75 60.35 0.087 6.88 1.83 8.22
6/1/2022 2:15:00 PM 15.85 60.53 0.087 6.88 1.21 8.18
6/1/2022 2:30:00 PM 15.93 60.674 0.087 6.88 1.16 8.13
6/1/2022 2:45:00 PM 16.03 60.854 0.087 6.88 1.24 8.11
6/1/2022 3:00:00 PM 16.25 61.25 0.087 6.88 1.24 8.12
6/1/2022 3:15:00 PM 16.21 61.178 0.087 6.88 1.11 7.99
6/1/2022 3:30:00 PM 16.22 61.196 0.087 6.88 1.1 7.99
6/1/2022 3:45:00 PM 16.28 61.304 0.087 6.88 1.2 7.98
6/1/2022 4:00:00 PM 16.32 61.376 0.087 6.88 1.01 7.9
6/1/2022 4:15:00 PM 16.38 61.484 0.087 6.88 1.06 7.86
6/1/2022 4:30:00 PM 16.44 61.592 0.087 6.87 1.17 7.77
6/1/2022 4:45:00 PM 16.48 61.664 0.087 6.87 1.07 7.72
6/1/2022 5:00:00 PM 16.54 61.772 0.087 6.86 1.15 7.65
6/1/2022 5:15:00 PM 16.6 61.88 0.087 6.86 1.06 7.57
6/1/2022 5:30:00 PM 16.77 62.186 0.085 6.86 8.71 7.59
6/1/2022 5:45:00 PM 16.76 62.168 0.087 6.85 1.45 7.44
6/1/2022 6:00:00 PM 16.86 62.348 0.087 6.86 1.2 7.51
6/1/2022 6:15:00 PM 16.91 62.438 0.087 6.86 1.12 7.45
6/1/2022 6:30:00 PM 16.95 62.51 0.087 6.86 1.22 7.38
6/1/2022 6:45:00 PM 17.01 62.618 0.087 6.86 1.11 7.3
6/1/2022 7:00:00 PM 17.04 62.672 0.087 6.85 1.16 7.22
6/1/2022 7:15:00 PM 17.09 62.762 0.087 6.85 1.21 7.24
6/1/2022 7:30:00 PM 17.14 62.852 0.087 6.86 1.04 7.24
6/1/2022 7:45:00 PM 17.15 62.87 0.088 6.85 1.11 7.18
6/1/2022 8:00:00 PM 17.19 62.942 0.088 6.85 1.43 7.15
6/1/2022 8:15:00 PM 17.2 62.96 0.088 6.85 1.25 7.13
6/1/2022 8:30:00 PM 17.23 63.014 0.088 6.84 1.13 7.11
6/1/2022 8:45:00 PM 17.24 63.032 0.088 6.84 1.08 7.09
6/1/2022 9:00:00 PM 17.24 63.032 0.088 6.84 1.35 7.1
6/1/2022 9:15:00 PM 17.24 63.032 0.088 6.84 1.19 7.05
6/1/2022 9:30:00 PM 17.24 63.032 0.088 6.84 1.15 7.07
6/1/2022 9:45:00 PM 17.26 63.068 0.088 6.83 1.11 7.07
6/1/2022 10:00:00 PM 17.28 63.104 0.086 6.83 5 7.07
6/1/2022 10:15:00 PM 17.24 63.032 0.087 6.83 2.01 7.02
6/1/2022 10:30:00 PM 17.23 63.014 0.087 6.83 2.3 7.01
6/1/2022 10:45:00 PM 17.22 62.996 0.088 6.83 1.79 7.01
6/1/2022 11:00:00 PM 17.19 62.942 0.088 6.83 1.31 6.96
6/1/2022 11:15:00 PM 17.18 62.924 0.088 6.83 1.21 6.95
6/1/2022 11:30:00 PM 17.15 62.87 0.088 6.82 1.39 6.95
6/1/2022 11:45:00 PM 17.11 62.798 0.087 6.83 1.32 7.05
6/2/2022 12:00:00 AM 17.02 62.636 0.087 6.83 1.47 7.16
6/2/2022 12:15:00 AM 16.91 62.438 0.087 6.85 1.87 7.34
6/2/2022 12:30:00 AM 16.84 62.312 0.087 6.85 1.71 7.4
6/2/2022 12:45:00 AM 16.8 62.24 0.087 6.85 1.47 7.41
6/2/2022 1:00:00 AM 16.76 62.168 0.087 6.84 1.51 7.41
6/2/2022 1:15:00 AM 16.72 62.096 0.086 6.84 2.58 7.4
6/2/2022 1:30:00 AM 16.67 62.006 0.086 6.84 1.4 7.39
6/2/2022 1:45:00 AM 16.61 61.898 0.086 6.84 1.31 7.39
6/2/2022 2:00:00 AM 16.56 61.808 0.085 6.84 1.23 7.41
6/2/2022 2:15:00 AM 16.5 61.7 0.085 6.84 1.23 7.42
6/2/2022 2:30:00 AM 16.45 61.61 0.084 6.84 1.61 7.42
6/2/2022 2:45:00 AM 16.4 61.52 0.084 6.84 1.2 7.43
6/2/2022 3:00:00 AM 16.34 61.412 0.084 6.84 1.22 7.42
6/2/2022 3:15:00 AM 16.29 61.322 0.084 6.84 1.22 7.46
6/2/2022 3:30:00 AM 16.23 61.214 0.084 6.83 1.43 7.46
6/2/2022 3:45:00 AM 16.19 61.142 0.084 6.83 1.34 7.47
6/2/2022 4:00:00 AM 16.14 61.052 0.085 6.83 1.23 7.5
6/2/2022 4:15:00 AM 16.08 60.944 0.085 6.83 1.3 7.49
6/2/2022 4:30:00 AM 16.03 60.854 0.085 6.83 1.34 7.49
6/2/2022 4:45:00 AM 15.98 60.764 0.086 6.83 1.59 7.49
6/2/2022 5:00:00 AM 15.94 60.692 0.086 6.83 1.41 7.48
6/2/2022 5:15:00 AM 15.89 60.602 0.086 6.82 1.29 7.49
6/2/2022 5:30:00 AM 15.86 60.548 0.087 6.82 2.26 7.5
6/2/2022 5:45:00 AM 15.81 60.458 0.087 6.82 1.35 7.49
6/2/2022 6:00:00 AM 15.77 60.386 0.087 6.82 1.46 7.51
6/2/2022 6:15:00 AM 15.73 60.314 0.087 6.82 1.4 7.51
6/2/2022 6:30:00 AM 15.69 60.242 0.087 6.81 5.49 7.55
6/2/2022 6:45:00 AM 15.65 60.17 0.087 6.82 2.09 7.58
6/2/2022 7:00:00 AM 15.63 60.134 0.088 6.83 1.9 7.6
6/2/2022 7:15:00 AM 15.6 60.08 0.088 6.82 1.44 7.61
6/2/2022 7:30:00 AM 15.57 60.026 0.088 6.83 1.97 7.62
6/2/2022 7:45:00 AM 15.53 59.954 0.088 6.83 1.5 7.63
6/2/2022 8:00:00 AM 15.51 59.918 0.088 6.83 1.46 7.67
6/2/2022 8:15:00 AM 15.49 59.882 0.088 6.84 1.3 7.74
6/2/2022 8:30:00 AM 15.47 59.846 0.088 6.84 1.59 7.74
6/2/2022 8:45:00 AM 15.45 59.81 0.088 6.84 1.37 7.76
6/2/2022 9:00:00 AM 15.42 59.756 0.088 6.84 1.88 7.81
6/2/2022 9:15:00 AM 15.4 59.72 0.088 6.84 1.27 7.83
6/2/2022 9:30:00 AM 15.37 59.666 0.088 6.85 1.41 7.88
6/2/2022 9:45:00 AM 15.36 59.648 0.088 6.85 1.55 7.9
6/2/2022 10:00:00 AM 15.35 59.63 0.088 6.85 1.41 7.93
6/2/2022 10:15:00 AM 15.33 59.594 0.088 6.85 1.38 7.97
6/2/2022 10:30:00 AM 15.33 59.594 0.088 6.85 1.84 8
6/2/2022 10:45:00 AM 15.32 59.576 0.088 6.86 1.34 8.04
6/2/2022 11:00:00 AM 15.31 59.558 0.088 6.86 1.33 8.06
6/2/2022 11:15:00 AM 15.32 59.576 0.088 6.86 1.26 8.11
6/2/2022 11:30:00 AM 15.35 59.63 0.088 6.86 1.29 8.13
6/2/2022 11:45:00 AM 15.35 59.63 0.088 6.87 1.26 8.16
6/2/2022 12:00:00 PM 15.36 59.648 0.088 6.87 1.27 8.15
6/2/2022 12:15:00 PM 15.36 59.648 0.088 6.87 1.3 8.18
6/2/2022 12:30:00 PM 15.37 59.666 0.088 6.87 1.27 8.2
6/2/2022 12:45:00 PM 15.39 59.702 0.088 6.87 1.35 8.19
6/2/2022 1:00:00 PM 15.41 59.738 0.088 6.88 1.25 8.21
6/2/2022 1:15:00 PM 15.41 59.738 0.087 6.88 1.32 8.21
6/2/2022 1:30:00 PM 15.44 59.792 0.087 6.88 1.22 8.22
6/2/2022 1:45:00 PM 15.46 59.828 0.087 6.88 1.34 8.2
6/2/2022 2:00:00 PM 15.53 59.954 0.087 6.88 1.33 8.23
6/2/2022 2:15:00 PM 15.73 60.314 0.087 6.88 1.43 8.2
6/2/2022 2:30:00 PM 15.9 60.62 0.087 6.88 1.22 8.19
6/2/2022 2:45:00 PM 16.05 60.89 0.087 6.88 1.25 8.2
6/2/2022 3:00:00 PM 15.86 60.548 0.087 6.88 1.26 8.13
6/2/2022 3:15:00 PM 16.04 60.872 0.087 6.89 1.26 8.17
6/2/2022 3:30:00 PM 16 60.8 0.087 6.89 1.3 8.14
6/2/2022 3:45:00 PM 15.96 60.728 0.087 6.89 1.24 8.12
6/2/2022 4:00:00 PM 15.95 60.71 0.087 6.89 1.4 8.08
6/2/2022 4:15:00 PM 15.98 60.764 0.087 6.89 1.19 8.06
6/2/2022 4:30:00 PM 16.03 60.854 0.087 6.89 1.53 8.01
6/2/2022 4:45:00 PM 16.02 60.836 0.087 6.88 1.15 7.97
6/2/2022 5:00:00 PM 16.08 60.944 0.087 6.88 1.23 7.96
6/2/2022 5:15:00 PM 16.1 60.98 0.087 6.88 1.22 7.88
6/2/2022 5:30:00 PM 16.12 61.016 0.087 6.88 1.29 7.84
6/2/2022 5:45:00 PM 16.15 61.07 0.087 6.87 1.18 7.81
6/2/2022 6:00:00 PM 16.19 61.142 0.087 6.87 1.21 7.76
6/2/2022 6:15:00 PM 16.22 61.196 0.087 6.87 1.32 7.74
6/2/2022 6:30:00 PM 16.27 61.286 0.087 6.87 1.22 7.7
6/2/2022 6:45:00 PM 16.3 61.34 0.087 6.87 1.21 7.68
6/2/2022 7:00:00 PM 16.35 61.43 0.087 6.87 1.4 7.64
6/2/2022 7:15:00 PM 16.37 61.466 0.087 6.87 1.23 7.59
6/2/2022 7:30:00 PM 16.41 61.538 0.088 6.86 1.19 7.55
6/2/2022 7:45:00 PM 16.42 61.556 0.088 6.86 1.4 7.51
6/2/2022 8:00:00 PM 16.43 61.574 0.088 6.87 1.22 7.52
6/2/2022 8:15:00 PM 16.45 61.61 0.088 6.86 1.24 7.48
6/2/2022 8:30:00 PM 16.46 61.628 0.088 6.86 1.19 7.45
6/2/2022 8:45:00 PM 16.47 61.646 0.088 6.86 1.18 7.45
6/2/2022 9:00:00 PM 16.47 61.646 0.088 6.86 1.31 7.41
6/2/2022 9:15:00 PM 16.47 61.646 0.088 6.86 1.32 7.39
6/2/2022 9:30:00 PM 16.48 61.664 0.088 6.86 1.28 7.39
6/2/2022 9:45:00 PM 16.48 61.664 0.088 6.86 1.29 7.35
6/2/2022 10:00:00 PM 16.48 61.664 0.088 6.86 1.27 7.35
6/2/2022 10:15:00 PM 16.47 61.646 0.089 6.85 1.32 7.33
6/2/2022 10:30:00 PM 16.45 61.61 0.089 6.86 1.3 7.32
6/2/2022 10:45:00 PM 16.44 61.592 0.089 6.86 1.29 7.34
6/2/2022 11:00:00 PM 16.42 61.556 0.089 6.85 1.41 7.32
6/2/2022 11:15:00 PM 16.4 61.52 0.089 6.85 1.3 7.33
6/2/2022 11:30:00 PM 16.39 61.502 0.089 6.86 1.28 7.33
6/2/2022 11:45:00 PM 16.35 61.43 0.089 6.86 1.34 7.33
6/3/2022 12:00:00 AM 16.32 61.376 0.089 6.86 1.25 7.34
6/3/2022 12:15:00 AM 16.3 61.34 0.089 6.85 1.33 7.36
6/3/2022 12:30:00 AM 16.27 61.286 0.089 6.86 1.61 7.4
6/3/2022 12:45:00 AM 16.22 61.196 0.089 6.85 1.44 7.38
6/3/2022 1:00:00 AM 16.18 61.124 0.089 6.86 1.45 7.43
6/3/2022 1:15:00 AM 16.14 61.052 0.089 6.86 1.43 7.43
6/3/2022 1:30:00 AM 16.09 60.962 0.089 6.86 1.32 7.45
6/3/2022 1:45:00 AM 16.05 60.89 0.089 6.86 1.26 7.45
6/3/2022 2:00:00 AM 16.01 60.818 0.089 6.86 1.42 7.49
6/3/2022 2:15:00 AM 15.96 60.728 0.089 6.86 1.35 7.51
6/3/2022 2:30:00 AM 15.9 60.62 0.089 6.86 1.71 7.49
6/3/2022 2:45:00 AM 15.84 60.512 0.089 6.86 1.32 7.53
6/3/2022 3:00:00 AM 15.78 60.404 0.09 6.86 1.41 7.53
6/3/2022 3:15:00 AM 15.7 60.26 0.09 6.86 1.45 7.59
6/3/2022 3:30:00 AM 15.64 60.152 0.09 6.87 1.38 7.62
6/3/2022 3:45:00 AM 15.58 60.044 0.09 6.86 1.44 7.64
6/3/2022 4:00:00 AM 15.51 59.918 0.09 6.86 1.43 7.65
6/3/2022 4:15:00 AM 15.45 59.81 0.09 6.86 1.51 7.66
6/3/2022 4:30:00 AM 15.38 59.684 0.09 6.86 1.56 7.7
6/3/2022 4:45:00 AM 15.33 59.594 0.09 6.86 1.39 7.7
6/3/2022 5:00:00 AM 15.26 59.468 0.09 6.87 1.39 7.75
6/3/2022 5:15:00 AM 15.2 59.36 0.09 6.86 1.61 7.74
6/3/2022 5:30:00 AM 15.13 59.234 0.09 6.86 1.25 7.78
6/3/2022 5:45:00 AM 15.06 59.108 0.09 6.86 1.31 7.8
6/3/2022 6:00:00 AM 15 59 0.09 6.87 1.34 7.84
6/3/2022 6:15:00 AM 14.93 58.874 0.09 6.87 1.46 7.85
6/3/2022 6:30:00 AM 14.86 58.748 0.09 6.87 1.52 7.9
6/3/2022 6:45:00 AM 14.8 58.64 0.09 6.87 1.39 7.94
6/3/2022 7:00:00 AM 14.72 58.496 0.09 6.88 1.67 7.99
6/3/2022 7:15:00 AM 14.67 58.406 0.089 6.87 1.35 8.02
6/3/2022 7:30:00 AM 14.62 58.316 0.089 6.88 1.3 8.04
6/3/2022 7:45:00 AM 14.57 58.226 0.089 6.88 1.55 8.08
6/3/2022 8:00:00 AM 14.52 58.136 0.089 6.88 1.56 8.12
6/3/2022 8:15:00 AM 14.48 58.064 0.089 6.88 1.5 8.16
6/3/2022 8:30:00 AM 14.42 57.956 0.089 6.88 1.8 8.19
6/3/2022 8:45:00 AM 14.37 57.866 0.089 6.88 1.29 8.22
6/3/2022 9:00:00 AM 14.32 57.776 0.089 6.89 1.54 8.29
6/3/2022 9:15:00 AM 14.28 57.704 0.089 6.89 2.22 8.33
6/3/2022 9:30:00 AM 14.22 57.596 0.089 6.89 1.54 8.37
6/3/2022 9:45:00 AM 14.17 57.506 0.089 6.89 1.84 8.4
6/3/2022 10:00:00 AM 14.13 57.434 0.089 6.89 1.9 8.41
6/3/2022 10:15:00 AM 14.08 57.344 0.089 6.89 1.28 8.46
6/3/2022 10:30:00 AM 14.02 57.236 0.089 6.89 1.18 8.5
6/3/2022 10:45:00 AM 13.97 57.146 0.089 6.89 1.12 8.53
6/3/2022 11:00:00 AM 13.94 57.092 0.089 6.9 1.19 8.56
6/3/2022 11:15:00 AM 13.91 57.038 0.089 6.9 1.22 8.57
6/3/2022 11:30:00 AM 13.89 57.002 0.089 6.89 1.73 8.57
6/3/2022 11:45:00 AM 13.88 56.984 0.088 6.9 1.31 8.61
6/3/2022 12:00:00 PM 13.89 57.002 0.088 6.9 1.14 8.61
6/3/2022 12:15:00 PM 13.92 57.056 0.088 6.9 1.17 8.64
6/3/2022 12:30:00 PM 13.97 57.146 0.088 6.9 1.17 8.64
6/3/2022 12:45:00 PM 14.05 57.29 0.088 6.91 1.12 8.65
6/3/2022 1:00:00 PM 14.14 57.452 0.088 6.91 1.1 8.63
6/3/2022 1:15:00 PM 14.26 57.668 0.088 6.91 1.3 8.64
6/3/2022 1:30:00 PM 14.34 57.812 0.088 6.91 1.17 8.59
6/3/2022 1:45:00 PM 14.46 58.028 0.088 6.91 1.09 8.56
6/3/2022 2:00:00 PM 14.63 58.334 0.088 6.91 1.19 8.56
6/3/2022 2:15:00 PM 14.66 58.388 0.088 6.91 1.14 8.48
6/3/2022 2:30:00 PM 14.84 58.712 0.088 6.91 1.15 8.45
6/3/2022 2:45:00 PM 15 59 0.088 6.91 1.06 8.41
6/3/2022 3:00:00 PM 15.02 59.036 0.088 6.9 1.17 8.37
6/3/2022 3:15:00 PM 15.13 59.234 0.088 6.91 1.11 8.35
6/3/2022 3:30:00 PM 15.22 59.396 0.088 6.91 1.11 8.33
6/3/2022 3:45:00 PM 15.25 59.45 0.088 6.92 1.39 8.27
6/3/2022 4:00:00 PM 15.21 59.378 0.088 6.91 1.15 8.17
6/3/2022 4:15:00 PM 15.31 59.558 0.088 6.91 1.12 8.19
6/3/2022 4:30:00 PM 15.3 59.54 0.088 6.91 1.09 8.1
6/3/2022 4:45:00 PM 15.35 59.63 0.088 6.91 1.3 8.08
6/3/2022 5:00:00 PM 15.42 59.756 0.088 6.91 1.1 8.04
6/3/2022 5:15:00 PM 15.43 59.774 0.088 6.9 1.21 7.98
6/3/2022 5:30:00 PM 15.49 59.882 0.088 6.9 1.11 7.96
6/3/2022 5:45:00 PM 15.53 59.954 0.088 6.9 1.19 7.92
6/3/2022 6:00:00 PM 15.57 60.026 0.089 6.9 1.12 7.88
6/3/2022 6:15:00 PM 15.6 60.08 0.089 6.9 1.18 7.86
6/3/2022 6:30:00 PM 15.64 60.152 0.089 6.89 1.12 7.84
6/3/2022 6:45:00 PM 15.66 60.188 0.089 6.89 1.31 7.81
6/3/2022 7:00:00 PM 15.7 60.26 0.089 6.89 1.06 7.78
6/3/2022 7:15:00 PM 15.72 60.296 0.089 6.89 1.14 7.78
6/3/2022 7:30:00 PM 15.73 60.314 0.089 6.89 1.23 7.77
6/3/2022 7:45:00 PM 15.75 60.35 0.089 6.89 1.19 7.76
6/3/2022 8:00:00 PM 15.76 60.368 0.089 6.89 1.43 7.75
6/3/2022 8:15:00 PM 15.76 60.368 0.089 6.88 1.32 7.71
6/3/2022 8:30:00 PM 15.75 60.35 0.089 6.89 1.44 7.71
6/3/2022 8:45:00 PM 15.75 60.35 0.089 6.88 1.1 7.7
6/3/2022 9:00:00 PM 15.73 60.314 0.089 6.89 1.24 7.69
6/3/2022 9:15:00 PM 15.72 60.296 0.089 6.88 1.3 7.7
6/3/2022 9:30:00 PM 15.71 60.278 0.089 6.88 1.22 7.7
6/3/2022 9:45:00 PM 15.69 60.242 0.09 6.88 1.21 7.69
6/3/2022 10:00:00 PM 15.67 60.206 0.09 6.88 1.24 7.66
6/3/2022 10:15:00 PM 15.65 60.17 0.09 6.89 1.31 7.67
6/3/2022 10:30:00 PM 15.62 60.116 0.09 6.88 1.29 7.69
6/3/2022 10:45:00 PM 15.59 60.062 0.09 6.87 1.29 7.69
6/3/2022 11:00:00 PM 15.56 60.008 0.09 6.88 1.24 7.7
6/3/2022 11:15:00 PM 15.52 59.936 0.09 6.88 1.24 7.7
6/3/2022 11:30:00 PM 15.48 59.864 0.09 6.88 1.55 7.72
6/3/2022 11:45:00 PM 15.44 59.792 0.09 6.88 1.26 7.71
6/4/2022 12:00:00 AM 15.39 59.702 0.09 6.88 1.16 7.74
6/4/2022 12:15:00 AM 15.34 59.612 0.09 6.88 1.5 7.75
6/4/2022 12:30:00 AM 15.28 59.504 0.09 6.88 1.16 7.78
6/4/2022 12:45:00 AM 15.22 59.396 0.09 6.88 1.18 7.8
6/4/2022 1:00:00 AM 15.17 59.306 0.09 6.89 1.35 7.83
6/4/2022 1:15:00 AM 15.11 59.198 0.09 6.89 1.32 7.88
6/4/2022 1:30:00 AM 15.04 59.072 0.09 6.89 1.45 7.88
6/4/2022 1:45:00 AM 14.98 58.964 0.09 6.89 1.35 7.91
6/4/2022 2:00:00 AM 14.91 58.838 0.09 6.89 1.44 7.93
6/4/2022 2:15:00 AM 14.84 58.712 0.09 6.89 1.47 7.97
6/4/2022 2:30:00 AM 14.77 58.586 0.09 6.89 1.36 8
6/4/2022 2:45:00 AM 14.69 58.442 0.09 6.89 1.45 8.04
6/4/2022 3:00:00 AM 14.62 58.316 0.09 6.89 1.41 8.04
6/4/2022 3:15:00 AM 14.54 58.172 0.09 6.89 1.72 8.09
6/4/2022 3:30:00 AM 14.47 58.046 0.09 6.89 1.33 8.1
6/4/2022 3:45:00 AM 14.39 57.902 0.09 6.89 1.42 8.14
6/4/2022 4:00:00 AM 14.31 57.758 0.09 6.89 1.29 8.17
6/4/2022 4:15:00 AM 14.23 57.614 0.09 6.89 2.72 8.21
6/4/2022 4:30:00 AM 14.14 57.452 0.09 6.9 1.54 8.23
6/4/2022 4:45:00 AM 14.06 57.308 0.09 6.9 1.75 8.24
6/4/2022 5:00:00 AM 13.98 57.164 0.09 6.9 1.41 8.3
6/4/2022 5:15:00 AM 13.89 57.002 0.09 6.9 1.56 8.34
6/4/2022 5:30:00 AM 13.82 56.876 0.09 6.89 1.74 8.33
6/4/2022 5:45:00 AM 13.74 56.732 0.091 6.9 1.52 8.36
6/4/2022 6:00:00 AM 13.65 56.57 0.091 6.9 1.44 8.42
6/4/2022 6:15:00 AM 13.58 56.444 0.091 6.89 2.75 8.44
6/4/2022 6:30:00 AM 13.49 56.282 0.09 6.9 1.48 8.47
6/4/2022 6:45:00 AM 13.42 56.156 0.09 6.9 2.37 8.51
6/4/2022 7:00:00 AM 13.35 56.03 0.09 6.9 1.47 8.52
6/4/2022 7:15:00 AM 13.29 55.922 0.09 6.9 1.45 8.56
6/4/2022 7:30:00 AM 13.22 55.796 0.09 6.9 1.42 8.6
6/4/2022 7:45:00 AM 13.17 55.706 0.09 6.9 1.4 8.63
6/4/2022 8:00:00 AM 13.12 55.616 0.09 6.9 1.52 8.68
6/4/2022 8:15:00 AM 13.06 55.508 0.09 6.87 1.49 8.75
6/4/2022 8:30:00 AM 13.03 55.454 0.09 6.86 1.51 8.74
6/4/2022 8:45:00 AM 12.98 55.364 0.09 6.87 1.41 8.8
6/4/2022 9:00:00 AM 12.93 55.274 0.09 6.87 1.39 8.87
6/4/2022 9:15:00 AM 12.88 55.184 0.09 6.88 1.63 8.91
6/4/2022 9:30:00 AM 12.83 55.094 0.09 6.88 1.67 8.94
6/4/2022 9:45:00 AM 12.78 55.004 0.09 6.88 2.08 8.97
6/4/2022 10:00:00 AM 12.71 54.878 0.09 6.89 1.34 9.01
6/4/2022 10:15:00 AM 12.67 54.806 0.09 6.89 1.38 9.02
6/4/2022 10:30:00 AM 12.61 54.698 0.09 6.89 1.77 9.07
6/4/2022 10:45:00 AM 12.56 54.608 0.09 6.89 1.35 9.1
6/4/2022 11:00:00 AM 12.53 54.554 0.089 6.9 1.35 9.11
6/4/2022 11:15:00 AM 12.5 54.5 0.089 6.9 1.42 9.13
6/4/2022 11:30:00 AM 12.49 54.482 0.089 6.9 1.35 9.14
6/4/2022 11:45:00 AM 12.48 54.464 0.089 6.91 1.48 9.16
6/4/2022 12:00:00 PM 12.5 54.5 0.089 6.91 1.47 9.17
6/4/2022 12:15:00 PM 12.56 54.608 0.089 6.91 1.57 9.15
6/4/2022 12:30:00 PM 12.61 54.698 0.089 6.92 1.36 9.15
6/4/2022 12:45:00 PM 12.7 54.86 0.089 6.92 1.33 9.16
6/4/2022 1:00:00 PM 12.81 55.058 0.089 6.93 1.29 9.14
6/4/2022 1:15:00 PM 12.93 55.274 0.089 6.93 1.31 9.12
6/4/2022 1:30:00 PM 13.1 55.58 0.089 6.94 1.33 9.12
6/4/2022 1:45:00 PM 13.26 55.868 0.089 6.94 1.41 9.09
6/4/2022 2:00:00 PM 13.43 56.174 0.089 6.94 1.37 9.01
6/4/2022 2:15:00 PM 13.6 56.48 0.089 6.94 1.27 8.95
6/4/2022 2:30:00 PM 13.78 56.804 0.089 6.94 1.47 8.89
6/4/2022 2:45:00 PM 13.96 57.128 0.089 6.94 1.32 8.86
6/4/2022 3:00:00 PM 14.15 57.47 0.089 6.95 1.38 8.89
6/4/2022 3:15:00 PM 14.25 57.65 0.089 6.95 1.41 8.8
6/4/2022 3:30:00 PM 14.25 57.65 0.089 6.96 1.56 8.77
6/4/2022 3:45:00 PM 14.25 57.65 0.089 6.96 1.7 8.7
6/4/2022 4:00:00 PM 14.25 57.65 0.089 6.95 1.41 8.62
6/4/2022 4:15:00 PM 14.25 57.65 0.089 6.96 1.43 8.59
6/4/2022 4:30:00 PM 14.3 57.74 0.089 6.95 1.35 8.5
6/4/2022 4:45:00 PM 14.31 57.758 0.089 6.95 1.76 8.45
6/4/2022 5:00:00 PM 14.37 57.866 0.089 6.94 1.32 8.39
6/4/2022 5:15:00 PM 14.42 57.956 0.089 6.94 1.32 8.33
6/4/2022 5:30:00 PM 14.47 58.046 0.089 6.94 1.43 8.3
6/4/2022 5:45:00 PM 14.53 58.154 0.089 6.94 1.35 8.27
6/4/2022 6:00:00 PM 14.57 58.226 0.089 6.94 1.33 8.22
6/4/2022 6:15:00 PM 14.61 58.298 0.089 6.94 1.34 8.18
6/4/2022 6:30:00 PM 14.66 58.388 0.089 6.93 1.31 8.16
6/4/2022 6:45:00 PM 14.69 58.442 0.09 6.93 1.34 8.12
6/4/2022 7:00:00 PM 14.73 58.514 0.09 6.93 1.49 8.11
6/4/2022 7:15:00 PM 14.76 58.568 0.09 6.93 1.36 8.09
6/4/2022 7:30:00 PM 14.79 58.622 0.09 6.92 1.36 8.08
6/4/2022 7:45:00 PM 14.82 58.676 0.09 6.93 1.49 8.07
6/4/2022 8:00:00 PM 14.83 58.694 0.09 6.93 1.33 8.05
6/4/2022 8:15:00 PM 14.84 58.712 0.09 6.93 1.35 8.03
6/4/2022 8:30:00 PM 14.85 58.73 0.09 6.93 1.44 8.03
6/4/2022 8:45:00 PM 14.85 58.73 0.09 6.93 1.43 8.03
6/4/2022 9:00:00 PM 14.85 58.73 0.09 6.93 1.44 8.02
6/4/2022 9:15:00 PM 14.84 58.712 0.09 6.93 1.44 8.01
6/4/2022 9:30:00 PM 14.83 58.694 0.09 6.92 1.36 8.02
6/4/2022 9:45:00 PM 14.81 58.658 0.09 6.92 1.54 8
6/4/2022 10:00:00 PM 14.8 58.64 0.09 6.92 2.3 8.02
6/4/2022 10:15:00 PM 14.78 58.604 0.09 6.92 1.91 8.02
6/4/2022 10:30:00 PM 14.76 58.568 0.09 6.92 1.38 8.02
6/4/2022 10:45:00 PM 14.73 58.514 0.09 6.92 1.37 8.02
6/4/2022 11:00:00 PM 14.69 58.442 0.091 6.92 1.41 8.03
6/4/2022 11:15:00 PM 14.65 58.37 0.091 6.92 1.6 8.03
6/4/2022 11:30:00 PM 14.61 58.298 0.091 6.92 1.58 8.06
6/4/2022 11:45:00 PM 14.56 58.208 0.091 6.92 1.46 8.07
6/5/2022 12:00:00 AM 14.52 58.136 0.091 6.92 1.58 8.1
6/5/2022 12:15:00 AM 14.47 58.046 0.091 6.92 1.44 8.11
6/5/2022 12:30:00 AM 14.41 57.938 0.091 6.92 1.38 8.13
6/5/2022 12:45:00 AM 14.35 57.83 0.091 6.92 1.36 8.16
6/5/2022 1:00:00 AM 14.29 57.722 0.091 6.92 1.3 8.16
6/5/2022 1:15:00 AM 14.22 57.596 0.091 6.91 1.6 8.18
6/5/2022 1:30:00 AM 14.15 57.47 0.091 6.92 1.33 8.24
6/5/2022 1:45:00 AM 14.09 57.362 0.091 6.92 1.58 8.25
6/5/2022 2:00:00 AM 14.02 57.236 0.091 6.92 1.36 8.27
6/5/2022 2:15:00 AM 13.96 57.128 0.091 6.92 1.31 8.28
6/5/2022 2:30:00 AM 13.88 56.984 0.091 6.92 1.37 8.33
6/5/2022 2:45:00 AM 13.81 56.858 0.091 6.92 1.37 8.33
6/5/2022 3:00:00 AM 13.73 56.714 0.091 6.92 1.65 8.38
6/5/2022 3:15:00 AM 13.64 56.552 0.091 6.92 1.65 8.44
6/5/2022 3:30:00 AM 13.57 56.426 0.091 6.92 1.51 8.43
6/5/2022 3:45:00 AM 13.5 56.3 0.091 6.92 1.42 8.47
6/5/2022 4:00:00 AM 13.42 56.156 0.091 6.91 1.44 8.48
6/5/2022 4:15:00 AM 13.34 56.012 0.091 6.92 1.55 8.53
6/5/2022 4:30:00 AM 13.25 55.85 0.091 6.92 1.62 8.57
6/5/2022 4:45:00 AM 13.17 55.706 0.091 6.92 1.55 8.61
6/5/2022 5:00:00 AM 13.09 55.562 0.091 6.92 1.51 8.63
6/5/2022 5:15:00 AM 13.02 55.436 0.091 6.92 1.51 8.64
6/5/2022 5:30:00 AM 12.94 55.292 0.091 6.92 1.33 8.66
6/5/2022 5:45:00 AM 12.85 55.13 0.091 6.92 1.46 8.71
6/5/2022 6:00:00 AM 12.78 55.004 0.091 6.92 1.38 8.73
6/5/2022 6:15:00 AM 12.69 54.842 0.091 6.92 1.5 8.76
6/5/2022 6:30:00 AM 12.61 54.698 0.091 6.93 1.71 8.82
6/5/2022 6:45:00 AM 12.53 54.554 0.091 6.92 1.63 8.84
6/5/2022 7:00:00 AM 12.46 54.428 0.091 6.93 2.01 8.89
6/5/2022 7:15:00 AM 12.41 54.338 0.091 6.92 1.57 8.91
6/5/2022 7:30:00 AM 12.35 54.23 0.091 6.93 1.47 8.96
6/5/2022 7:45:00 AM 12.29 54.122 0.091 6.93 1.75 8.99
6/5/2022 8:00:00 AM 12.24 54.032 0.091 6.93 1.84 9.05
6/5/2022 8:15:00 AM 12.19 53.942 0.091 6.93 1.4 9.09
6/5/2022 8:30:00 AM 12.14 53.852 0.091 6.93 1.83 9.12
6/5/2022 8:45:00 AM 12.11 53.798 0.09 6.94 1.43 9.18
6/5/2022 9:00:00 AM 12.07 53.726 0.09 6.94 1.43 9.24
6/5/2022 9:15:00 AM 12.03 53.654 0.09 6.94 1.51 9.28
6/5/2022 9:30:00 AM 11.99 53.582 0.09 6.94 1.36 9.33
6/5/2022 9:45:00 AM 11.95 53.51 0.09 6.94 1.47 9.37
6/5/2022 10:00:00 AM 11.92 53.456 0.09 6.94 2.99 9.35
6/5/2022 10:15:00 AM 11.87 53.366 0.09 6.94 1.94 9.41
6/5/2022 10:30:00 AM 11.83 53.294 0.09 6.95 1.2 9.46
6/5/2022 10:45:00 AM 11.81 53.258 0.09 6.95 1.12 9.47
6/5/2022 11:00:00 AM 11.8 53.24 0.09 6.94 1.14 9.48
6/5/2022 11:15:00 AM 11.76 53.168 0.09 6.95 1.25 9.5
6/5/2022 11:30:00 AM 11.76 53.168 0.089 6.92 1.16 9.52
6/5/2022 11:45:00 AM 11.75 53.15 0.089 6.92 1.18 9.54
6/5/2022 12:00:00 PM 11.8 53.24 0.089 6.92 1.16 9.51
6/5/2022 12:15:00 PM 11.83 53.294 0.089 6.93 2.2 9.53
6/5/2022 12:30:00 PM 11.89 53.402 0.089 6.93 1.14 9.51
6/5/2022 12:45:00 PM 11.96 53.528 0.089 6.93 1.11 9.5
6/5/2022 1:00:00 PM 12.05 53.69 0.089 6.94 1.18 9.47
6/5/2022 1:15:00 PM 12.17 53.906 0.089 6.94 1.14 9.46
6/5/2022 1:30:00 PM 12.32 54.176 0.089 6.94 1.11 9.43
6/5/2022 1:45:00 PM 12.46 54.428 0.089 6.95 1.07 9.38
6/5/2022 2:00:00 PM 12.61 54.698 0.089 6.95 1.1 9.35
6/5/2022 2:15:00 PM 12.79 55.022 0.089 6.95 1.08 9.28
6/5/2022 2:30:00 PM 12.97 55.346 0.089 6.95 1.09 9.23
6/5/2022 2:45:00 PM 13.16 55.688 0.089 6.96 1.09 9.2
6/5/2022 3:00:00 PM 13.33 55.994 0.089 6.96 1.11 9.16
6/5/2022 3:15:00 PM 13.45 56.21 0.089 6.96 1.34 9.12
6/5/2022 3:30:00 PM 13.45 56.21 0.089 6.96 1.27 9.06
6/5/2022 3:45:00 PM 13.49 56.282 0.089 6.97 1.17 9
6/5/2022 4:00:00 PM 13.46 56.228 0.089 6.97 1.14 8.93
6/5/2022 4:15:00 PM 13.49 56.282 0.089 6.97 1.51 8.87
6/5/2022 4:30:00 PM 13.55 56.39 0.089 6.96 1.15 8.84
6/5/2022 4:45:00 PM 13.64 56.552 0.089 6.96 1.14 8.77
6/5/2022 5:00:00 PM 13.69 56.642 0.089 6.96 1.39 8.69
6/5/2022 5:15:00 PM 13.74 56.732 0.089 6.96 1.06 8.61
6/5/2022 5:30:00 PM 13.81 56.858 0.089 6.96 1.13 8.57
6/5/2022 5:45:00 PM 13.88 56.984 0.089 6.96 1.05 8.55
6/5/2022 6:00:00 PM 13.94 57.092 0.089 6.95 1.11 8.49
6/5/2022 6:15:00 PM 14 57.2 0.089 6.95 1.14 8.46
6/5/2022 6:30:00 PM 14.07 57.326 0.09 6.95 1.06 8.42
6/5/2022 6:45:00 PM 14.13 57.434 0.09 6.95 0.92 8.38
6/5/2022 7:00:00 PM 14.18 57.524 0.09 6.95 0.89 8.35
6/5/2022 7:15:00 PM 14.23 57.614 0.09 6.95 0.91 8.33
6/5/2022 7:30:00 PM 14.29 57.722 0.09 6.95 1.13 8.32
6/5/2022 7:45:00 PM 14.33 57.794 0.09 6.94 4.79 8.28
6/5/2022 8:00:00 PM 14.37 57.866 0.09 6.94 1.31 8.23
6/5/2022 8:15:00 PM 14.4 57.92 0.09 6.94 1.02 8.21
6/5/2022 8:30:00 PM 14.43 57.974 0.09 6.94 1.08 8.18
6/5/2022 8:45:00 PM 14.44 57.992 0.09 6.93 0.9 8.16
6/5/2022 9:00:00 PM 14.46 58.028 0.09 6.94 1.3 8.15
6/5/2022 9:15:00 PM 14.48 58.064 0.09 6.93 1.04 8.13
6/5/2022 9:30:00 PM 14.49 58.082 0.09 6.93 1.08 8.13
6/5/2022 9:45:00 PM 14.5 58.1 0.09 6.93 1.06 8.11
6/5/2022 10:00:00 PM 14.51 58.118 0.091 6.93 0.95 8.09
6/5/2022 10:15:00 PM 14.52 58.136 0.091 6.93 0.95 8.08
6/5/2022 10:30:00 PM 14.52 58.136 0.091 6.93 0.88 8.07
6/5/2022 10:45:00 PM 14.52 58.136 0.091 6.93 1.11 8.06
6/5/2022 11:00:00 PM 14.52 58.136 0.091 6.93 0.88 8.07
6/5/2022 11:15:00 PM 14.51 58.118 0.091 6.93 0.9 8.07
6/5/2022 11:30:00 PM 14.5 58.1 0.091 6.93 1.01 8.07
6/5/2022 11:45:00 PM 14.48 58.064 0.091 6.92 0.97 8.07
6/6/2022 12:00:00 AM 14.46 58.028 0.091 6.92 1.09 8.06
6/6/2022 12:15:00 AM 14.44 57.992 0.091 6.92 0.96 8.07
6/6/2022 12:30:00 AM 14.42 57.956 0.091 6.92 1.34 8.1
6/6/2022 12:45:00 AM 14.39 57.902 0.091 6.92 1 8.1
6/6/2022 1:00:00 AM 14.37 57.866 0.091 6.92 1.06 8.11
6/6/2022 1:15:00 AM 14.34 57.812 0.091 6.92 2.28 8.09
6/6/2022 1:30:00 AM 14.3 57.74 0.091 6.92 1.07 8.12
6/6/2022 1:45:00 AM 14.26 57.668 0.091 6.92 0.98 8.15
6/6/2022 2:00:00 AM 14.22 57.596 0.091 6.92 1.19 8.16
6/6/2022 2:15:00 AM 14.17 57.506 0.092 6.92 1.16 8.18
6/6/2022 2:30:00 AM 14.13 57.434 0.092 6.91 1.06 8.18
6/6/2022 2:45:00 AM 14.08 57.344 0.092 6.92 1.2 8.22
6/6/2022 3:00:00 AM 14.05 57.29 0.092 6.92 1.39 8.22
6/6/2022 3:15:00 AM 14 57.2 0.092 6.91 1.01 8.23
6/6/2022 3:30:00 AM 13.96 57.128 0.092 6.92 1.05 8.25
6/6/2022 3:45:00 AM 13.91 57.038 0.092 6.92 1.12 8.27
6/6/2022 4:00:00 AM 13.86 56.948 0.092 6.92 1.05 8.29
6/6/2022 4:15:00 AM 13.81 56.858 0.092 6.92 1.03 8.27
6/6/2022 4:30:00 AM 13.75 56.75 0.092 6.92 1.11 8.32
6/6/2022 4:45:00 AM 13.7 56.66 0.092 6.92 1.09 8.35
6/6/2022 5:00:00 AM 13.64 56.552 0.092 6.92 1.07 8.38
6/6/2022 5:15:00 AM 13.59 56.462 0.092 6.92 1.11 8.39
6/6/2022 5:30:00 AM 13.53 56.354 0.092 6.93 1.14 8.42
6/6/2022 5:45:00 AM 13.47 56.246 0.092 6.92 1.06 8.44
6/6/2022 6:00:00 AM 13.42 56.156 0.092 6.92 1.01 8.47
6/6/2022 6:15:00 AM 13.36 56.048 0.092 6.92 1.09 8.48
6/6/2022 6:30:00 AM 13.31 55.958 0.092 6.92 1 8.51
6/6/2022 6:45:00 AM 13.26 55.868 0.092 6.92 1.47 8.53
6/6/2022 7:00:00 AM 13.21 55.778 0.092 6.93 0.98 8.57
6/6/2022 7:15:00 AM 13.16 55.688 0.092 6.92 1.04 8.6
6/6/2022 7:30:00 AM 13.12 55.616 0.091 6.92 1.65 8.64
6/6/2022 7:45:00 AM 13.08 55.544 0.091 6.93 1.06 8.68
6/6/2022 8:00:00 AM 13.05 55.49 0.091 6.93 1.06 8.69
6/6/2022 8:15:00 AM 13.01 55.418 0.091 6.93 1.12 8.72
6/6/2022 8:30:00 AM 12.97 55.346 0.091 6.93 1.14 8.77
6/6/2022 8:45:00 AM 12.95 55.31 0.091 6.93 1.06 8.8
6/6/2022 9:00:00 AM 12.93 55.274 0.091 6.93 1.3 8.85
6/6/2022 9:15:00 AM 12.91 55.238 0.091 6.93 1.71 8.88
6/6/2022 9:30:00 AM 12.89 55.202 0.091 6.93 0.96 8.91
6/6/2022 9:45:00 AM 12.85 55.13 0.091 6.93 1.42 8.95
6/6/2022 10:00:00 AM 12.83 55.094 0.091 6.94 1 8.97
6/6/2022 10:15:00 AM 12.81 55.058 0.091 6.94 1 9.02
6/6/2022 10:30:00 AM 12.79 55.022 0.091 6.94 0.97 9.06
6/6/2022 10:45:00 AM 12.77 54.986 0.091 6.94 1.01 9.06
6/6/2022 11:00:00 AM 12.76 54.968 0.09 6.94 1.13 9.08
6/6/2022 11:15:00 AM 12.75 54.95 0.09 6.94 1.48 9.1
6/6/2022 11:30:00 AM 12.75 54.95 0.09 6.95 1.27 9.11
6/6/2022 11:45:00 AM 12.76 54.968 0.09 6.95 1.03 9.12
6/6/2022 12:00:00 PM 12.81 55.058 0.09 6.95 1.02 9.11
6/6/2022 12:15:00 PM 12.87 55.166 0.09 6.95 1.01 9.13
6/6/2022 12:30:00 PM 12.94 55.292 0.09 6.95 0.99 9.13
6/6/2022 12:45:00 PM 13.03 55.454 0.09 6.95 1.09 9.12
6/6/2022 1:00:00 PM 13.15 55.67 0.09 6.95 0.99 9.12
6/6/2022 1:15:00 PM 13.27 55.886 0.09 6.96 1.1 9.1
6/6/2022 1:30:00 PM 13.28 55.904 0.09 6.95 1 9.06
6/6/2022 1:45:00 PM 13.46 56.228 0.09 6.96 1.12 9.05
6/6/2022 2:00:00 PM 13.63 56.534 0.09 6.96 2.82 9.03
6/6/2022 2:15:00 PM 13.82 56.876 0.09 6.96 1.33 8.98
6/6/2022 2:30:00 PM 13.89 57.002 0.09 6.96 1.1 8.91
6/6/2022 2:45:00 PM 14.03 57.254 0.09 6.96 1.1 8.86
6/6/2022 3:00:00 PM 14.07 57.326 0.09 6.96 1.02 8.84
6/6/2022 3:15:00 PM 14.16 57.488 0.09 6.96 1.22 8.78
6/6/2022 3:30:00 PM 14.18 57.524 0.09 6.95 1.02 8.65
6/6/2022 3:45:00 PM 14.32 57.776 0.089 6.95 1.03 8.68
6/6/2022 4:00:00 PM 14.45 58.01 0.089 6.96 1.2 8.63
6/6/2022 4:15:00 PM 14.54 58.172 0.089 6.95 1.06 8.57
6/6/2022 4:30:00 PM 14.69 58.442 0.089 6.96 1.08 8.54
6/6/2022 4:45:00 PM 14.78 58.604 0.089 6.96 1.09 8.49
6/6/2022 5:00:00 PM 14.85 58.73 0.09 6.95 1.09 8.43
6/6/2022 5:15:00 PM 14.94 58.892 0.089 6.96 1.1 8.4
6/6/2022 5:30:00 PM 15.01 59.018 0.089 6.95 1.14 8.35
6/6/2022 5:45:00 PM 15.09 59.162 0.089 6.95 1.08 8.31
6/6/2022 6:00:00 PM 15.17 59.306 0.09 6.95 1.05 8.28
6/6/2022 6:15:00 PM 15.22 59.396 0.09 6.94 1.09 8.18
6/6/2022 6:30:00 PM 15.27 59.486 0.09 6.94 1.09 8.13
6/6/2022 6:45:00 PM 15.33 59.594 0.09 6.94 1.06 8.13
6/6/2022 7:00:00 PM 15.38 59.684 0.09 6.93 1.1 8.1
6/6/2022 7:15:00 PM 15.44 59.792 0.09 6.93 1.13 8.07
6/6/2022 7:30:00 PM 15.5 59.9 0.09 6.93 1.12 8.02
6/6/2022 7:45:00 PM 15.53 59.954 0.09 6.93 1.23 7.98
6/6/2022 8:00:00 PM 15.56 60.008 0.09 6.92 1.08 7.93
6/6/2022 8:15:00 PM 15.59 60.062 0.09 6.92 1.17 7.9
6/6/2022 8:30:00 PM 15.62 60.116 0.09 6.92 2.33 7.88
6/6/2022 8:45:00 PM 15.65 60.17 0.09 6.92 1.32 7.86
6/6/2022 9:00:00 PM 15.66 60.188 0.09 6.92 1.08 7.85
6/6/2022 9:15:00 PM 15.68 60.224 0.091 6.92 1.29 7.81
6/6/2022 9:30:00 PM 15.7 60.26 0.091 6.92 1.09 7.82
6/6/2022 9:45:00 PM 15.7 60.26 0.091 6.92 1.18 7.79
6/6/2022 10:00:00 PM 15.71 60.278 0.091 6.92 1.18 7.78
6/6/2022 10:15:00 PM 15.71 60.278 0.091 6.92 1.59 7.74
6/6/2022 10:30:00 PM 15.71 60.278 0.091 6.92 1.23 7.74
6/6/2022 10:45:00 PM 15.7 60.26 0.091 6.92 1.21 7.73
6/6/2022 11:00:00 PM 15.7 60.26 0.091 6.92 1.22 7.75
6/6/2022 11:15:00 PM 15.68 60.224 0.091 6.91 1.21 7.72
6/6/2022 11:30:00 PM 15.67 60.206 0.092 6.91 1.27 7.71
6/6/2022 11:45:00 PM 15.64 60.152 0.092 6.91 1.22 7.72
6/7/2022 12:00:00 AM 15.63 60.134 0.092 6.91 1.18 7.72
6/7/2022 12:15:00 AM 15.61 60.098 0.092 6.91 1.21 7.73
6/7/2022 12:30:00 AM 15.57 60.026 0.092 6.91 1.21 7.73
6/7/2022 12:45:00 AM 15.55 59.99 0.092 6.91 1.4 7.74
6/7/2022 1:00:00 AM 15.53 59.954 0.092 6.91 1.21 7.75
6/7/2022 1:15:00 AM 15.49 59.882 0.092 6.91 1.17 7.75
6/7/2022 1:30:00 AM 15.47 59.846 0.092 6.91 1.14 7.77
6/7/2022 1:45:00 AM 15.43 59.774 0.092 6.91 1.28 7.77
6/7/2022 2:00:00 AM 15.39 59.702 0.092 6.91 1.12 7.76
6/7/2022 2:15:00 AM 15.36 59.648 0.092 6.91 1.38 7.77
6/7/2022 2:30:00 AM 15.33 59.594 0.092 6.91 1.2 7.8
6/7/2022 2:45:00 AM 15.29 59.522 0.092 6.91 1.17 7.82
6/7/2022 3:00:00 AM 15.26 59.468 0.092 6.91 1.26 7.83
6/7/2022 3:15:00 AM 15.22 59.396 0.092 6.91 1.18 7.83
6/7/2022 3:30:00 AM 15.19 59.342 0.092 6.91 1.33 7.85
6/7/2022 3:45:00 AM 15.15 59.27 0.092 6.91 1.05 7.87
6/7/2022 4:00:00 AM 15.12 59.216 0.092 6.91 1.14 7.86
6/7/2022 4:15:00 AM 15.08 59.144 0.092 6.91 1.32 7.86
6/7/2022 4:30:00 AM 15.05 59.09 0.092 6.91 1.34 7.89
6/7/2022 4:45:00 AM 15.01 59.018 0.092 6.91 1.18 7.91
6/7/2022 5:00:00 AM 14.97 58.946 0.092 6.91 1.07 7.92
6/7/2022 5:15:00 AM 14.93 58.874 0.092 6.91 1.14 7.92
6/7/2022 5:30:00 AM 14.89 58.802 0.092 6.91 1.13 7.93
6/7/2022 5:45:00 AM 14.86 58.748 0.092 6.91 1.09 7.94
6/7/2022 6:00:00 AM 14.82 58.676 0.092 6.91 1.22 7.96
6/7/2022 6:15:00 AM 14.79 58.622 0.092 6.91 1.18 7.99
6/7/2022 6:30:00 AM 14.76 58.568 0.092 6.91 1.14 8
6/7/2022 6:45:00 AM 14.72 58.496 0.092 6.91 1.09 8.02
6/7/2022 7:00:00 AM 14.7 58.46 0.092 6.92 1.18 8.04
6/7/2022 7:15:00 AM 14.67 58.406 0.092 6.92 1.19 8.08
6/7/2022 7:30:00 AM 14.64 58.352 0.092 6.92 1.6 8.09
6/7/2022 7:45:00 AM 14.61 58.298 0.092 6.92 1.13 8.12
6/7/2022 8:00:00 AM 14.57 58.226 0.092 6.92 1.05 8.14
6/7/2022 8:15:00 AM 14.54 58.172 0.092 6.92 1.12 8.17
6/7/2022 8:30:00 AM 14.52 58.136 0.092 6.92 1.08 8.19
6/7/2022 8:45:00 AM 14.49 58.082 0.092 6.92 1.16 8.21
6/7/2022 9:00:00 AM 14.47 58.046 0.092 6.92 1.17 8.25
6/7/2022 9:15:00 AM 14.43 57.974 0.092 6.92 1.1 8.28
6/7/2022 9:30:00 AM 14.41 57.938 0.092 6.92 1.12 8.29
6/7/2022 9:45:00 AM 14.39 57.902 0.092 6.92 1.21 8.3
6/7/2022 10:00:00 AM 14.35 57.83 0.091 6.92 1.21 8.34
6/7/2022 10:15:00 AM 14.35 57.83 0.091 6.93 1.13 8.4
6/7/2022 10:30:00 AM 14.32 57.776 0.091 6.93 1.3 8.38
6/7/2022 10:45:00 AM 14.33 57.794 0.091 6.93 1.17 8.42
6/7/2022 11:00:00 AM 14.33 57.794 0.091 6.93 1.13 8.43
6/7/2022 11:15:00 AM 14.3 57.74 0.091 6.92 1.18 8.44
6/7/2022 11:30:00 AM 14.27 57.686 0.091 6.93 1.26 8.44
6/7/2022 11:45:00 AM 14.26 57.668 0.091 6.93 1.69 8.49
6/7/2022 12:00:00 PM 14.24 57.632 0.09 6.93 1.63 8.48
6/7/2022 12:15:00 PM 14.23 57.614 0.09 6.93 2.32 8.49
6/7/2022 12:30:00 PM 14.22 57.596 0.09 6.93 2.3 8.5
6/7/2022 12:45:00 PM 14.22 57.596 0.09 6.93 1.76 8.49
6/7/2022 1:00:00 PM 14.21 57.578 0.09 6.92 1.53 8.44
6/7/2022 1:15:00 PM 14.21 57.578 0.09 6.93 1.7 8.46
6/7/2022 1:30:00 PM 14.21 57.578 0.09 6.92 1.31 8.42
6/7/2022 1:45:00 PM 14.21 57.578 0.09 6.92 1.16 8.42
6/7/2022 2:00:00 PM 14.21 57.578 0.09 6.93 1.25 8.43
6/7/2022 2:15:00 PM 14.2 57.56 0.09 6.92 1.21 8.4
6/7/2022 2:30:00 PM 14.22 57.596 0.09 6.93 1.26 8.41
6/7/2022 2:45:00 PM 14.22 57.596 0.089 6.93 1.16 8.4
6/7/2022 3:00:00 PM 14.22 57.596 0.089 6.93 1.17 8.43
6/7/2022 3:15:00 PM 14.21 57.578 0.089 6.93 1.22 8.42
6/7/2022 3:30:00 PM 14.22 57.596 0.089 6.93 1.27 8.44
6/7/2022 3:45:00 PM 14.21 57.578 0.089 6.93 1.27 8.43
6/7/2022 4:00:00 PM 14.21 57.578 0.089 6.93 1.21 8.39
6/7/2022 4:15:00 PM 14.22 57.596 0.089 6.93 1.22 8.42
6/7/2022 4:30:00 PM 14.21 57.578 0.089 6.93 1.2 8.45
6/7/2022 4:45:00 PM 14.21 57.578 0.089 6.92 2.4 8.43
6/7/2022 5:00:00 PM 14.21 57.578 0.089 6.93 1.14 8.42
6/7/2022 5:15:00 PM 14.2 57.56 0.089 6.93 1.19 8.42
6/7/2022 5:30:00 PM 14.21 57.578 0.089 6.93 1.12 8.43
6/7/2022 5:45:00 PM 14.2 57.56 0.088 6.93 1.19 8.41
6/7/2022 6:00:00 PM 14.19 57.542 0.088 6.92 1.11 8.39
6/7/2022 6:15:00 PM 14.17 57.506 0.088 6.92 1.1 8.41
6/7/2022 6:30:00 PM 14.17 57.506 0.088 6.93 1.5 8.4
6/7/2022 6:45:00 PM 14.16 57.488 0.088 6.92 1.46 8.38
6/7/2022 7:00:00 PM 14.15 57.47 0.088 6.92 1.18 8.39
6/7/2022 7:15:00 PM 14.15 57.47 0.088 6.92 1.18 8.38
6/7/2022 7:30:00 PM 14.14 57.452 0.088 6.92 1.12 8.37
6/7/2022 7:45:00 PM 14.13 57.434 0.088 6.92 1.22 8.37
6/7/2022 8:00:00 PM 14.12 57.416 0.089 6.91 1.16 8.33
6/7/2022 8:15:00 PM 14.11 57.398 0.089 6.92 1.19 8.35
6/7/2022 8:30:00 PM 14.1 57.38 0.089 6.92 1.38 8.35
6/7/2022 8:45:00 PM 14.09 57.362 0.089 6.91 1.41 8.32
6/7/2022 9:00:00 PM 14.08 57.344 0.089 6.91 1.33 8.32
6/7/2022 9:15:00 PM 14.07 57.326 0.089 6.91 2.01 8.3
6/7/2022 9:30:00 PM 14.06 57.308 0.09 6.91 1.23 8.31
6/7/2022 9:45:00 PM 14.05 57.29 0.09 6.91 1.29 8.29
6/7/2022 10:00:00 PM 14.04 57.272 0.09 6.91 1.18 8.29
6/7/2022 10:15:00 PM 14.02 57.236 0.09 6.91 1.21 8.29
6/7/2022 10:30:00 PM 14 57.2 0.09 6.91 1.38 8.3
6/7/2022 10:45:00 PM 14 57.2 0.09 6.91 1.33 8.3
6/7/2022 11:00:00 PM 13.98 57.164 0.091 6.91 1.3 8.29
6/7/2022 11:15:00 PM 13.96 57.128 0.091 6.91 1.31 8.32
6/7/2022 11:30:00 PM 13.95 57.11 0.091 6.91 1.23 8.31
6/7/2022 11:45:00 PM 13.94 57.092 0.091 6.91 1.21 8.31
6/8/2022 12:00:00 AM 13.92 57.056 0.091 6.91 1.2 8.31
6/8/2022 12:15:00 AM 13.91 57.038 0.091 6.91 1.18 8.31
6/8/2022 12:30:00 AM 13.89 57.002 0.091 6.91 1.31 8.32
6/8/2022 12:45:00 AM 13.88 56.984 0.091 6.91 1.17 8.3
6/8/2022 1:00:00 AM 13.87 56.966 0.091 6.91 1.26 8.31
6/8/2022 1:15:00 AM 13.86 56.948 0.091 6.91 1.23 8.3
6/8/2022 1:30:00 AM 13.83 56.894 0.091 6.91 1.31 8.31
6/8/2022 1:45:00 AM 13.8 56.84 0.091 6.91 1.14 8.31
6/8/2022 2:00:00 AM 13.77 56.786 0.091 6.91 1.27 8.33
6/8/2022 2:15:00 AM 13.75 56.75 0.091 6.92 1.24 8.33
6/8/2022 2:30:00 AM 13.72 56.696 0.091 6.91 1.25 8.33
6/8/2022 2:45:00 AM 13.7 56.66 0.091 6.91 1.21 8.33
6/8/2022 3:00:00 AM 13.67 56.606 0.091 6.92 1.59 8.36
6/8/2022 3:15:00 AM 13.65 56.57 0.091 6.92 1.19 8.36
6/8/2022 3:30:00 AM 13.63 56.534 0.091 6.92 1.24 8.39
6/8/2022 3:45:00 AM 13.61 56.498 0.091 6.92 1.22 8.39
6/8/2022 4:00:00 AM 13.59 56.462 0.091 6.92 0.85 8.4
6/8/2022 4:15:00 AM 13.57 56.426 0.091 6.92 0.97 8.41
6/8/2022 4:30:00 AM 13.54 56.372 0.091 6.92 0.72 8.43
6/8/2022 4:45:00 AM 13.52 56.336 0.091 6.92 0.81 8.43
6/8/2022 5:00:00 AM 13.49 56.282 0.091 6.92 0.8 8.46
6/8/2022 5:15:00 AM 13.47 56.246 0.091 6.92 0.73 8.45
6/8/2022 5:30:00 AM 13.42 56.156 0.091 6.92 0.84 8.48
6/8/2022 5:45:00 AM 13.39 56.102 0.091 6.92 0.75 8.48
6/8/2022 6:00:00 AM 13.36 56.048 0.091 6.93 0.78 8.52
6/8/2022 6:15:00 AM 13.32 55.976 0.091 6.93 0.75 8.55
6/8/2022 6:30:00 AM 13.29 55.922 0.091 6.93 0.75 8.54
6/8/2022 6:45:00 AM 13.27 55.886 0.091 6.93 0.85 8.56
6/8/2022 7:00:00 AM 13.24 55.832 0.091 6.93 0.73 8.59
6/8/2022 7:15:00 AM 13.21 55.778 0.091 6.93 0.69 8.61
6/8/2022 7:30:00 AM 13.18 55.724 0.091 6.93 0.75 8.64
6/8/2022 7:45:00 AM 13.17 55.706 0.091 6.93 0.82 8.63
6/8/2022 8:00:00 AM 13.15 55.67 0.091 6.93 0.76 8.69
6/8/2022 8:15:00 AM 13.14 55.652 0.091 6.93 1.25 8.72
6/8/2022 8:30:00 AM 13.11 55.598 0.091 6.93 0.7 8.74
6/8/2022 8:45:00 AM 13.13 55.634 0.091 6.94 0.74 8.82
6/8/2022 9:00:00 AM 13.11 55.598 0.091 6.94 0.64 8.84
6/8/2022 9:15:00 AM 13.06 55.508 0.091 6.94 0.65 8.86
6/8/2022 9:30:00 AM 13.05 55.49 0.091 6.94 0.65 8.9
6/8/2022 9:45:00 AM 13.03 55.454 0.091 6.94 0.69 8.92
6/8/2022 10:00:00 AM 13.03 55.454 0.091 6.95 0.72 9
6/8/2022 10:15:00 AM 13.02 55.436 0.091 6.95 0.71 8.99
6/8/2022 10:30:00 AM 13 55.4 0.091 6.95 1.9 9.04
6/8/2022 10:45:00 AM 12.98 55.364 0.091 6.95 0.77 9.03
6/8/2022 11:00:00 AM 12.99 55.382 0.091 6.95 0.65 9.06
6/8/2022 11:15:00 AM 13 55.4 0.09 6.95 0.64 9.08
6/8/2022 11:30:00 AM 13 55.4 0.09 6.96 0.6 9.1
6/8/2022 11:45:00 AM 13.01 55.418 0.09 6.96 0.6 9.1
6/8/2022 12:00:00 PM 13.03 55.454 0.09 6.96 0.68 9.12
6/8/2022 12:15:00 PM 13.05 55.49 0.09 6.96 0.62 9.13
6/8/2022 12:30:00 PM 13.1 55.58 0.091 6.96 0.64 9.11
6/8/2022 12:45:00 PM 13.18 55.724 0.091 6.96 0.68 9.12
6/8/2022 1:00:00 PM 13.23 55.814 0.091 6.97 0.7 9.12
6/8/2022 1:15:00 PM 13.31 55.958 0.092 6.97 0.62 9.1
6/8/2022 1:30:00 PM 13.51 56.318 0.092 6.96 0.66 9.08
6/8/2022 1:45:00 PM 13.65 56.57 0.091 6.97 0.61 9.05
6/8/2022 2:00:00 PM 13.76 56.768 0.091 6.97 0.63 9
6/8/2022 2:15:00 PM 13.94 57.092 0.091 6.97 0.58 9
6/8/2022 2:30:00 PM 13.95 57.11 0.091 6.97 0.6 8.96
6/8/2022 2:45:00 PM 14.01 57.218 0.091 6.97 0.7 8.9
6/8/2022 3:00:00 PM 14.28 57.704 0.091 6.97 0.58 8.91
6/8/2022 3:15:00 PM 14.43 57.974 0.091 6.97 0.6 8.86
6/8/2022 3:30:00 PM 14.4 57.92 0.091 6.97 0.62 8.8
6/8/2022 3:45:00 PM 14.37 57.866 0.091 6.97 0.59 8.78
6/8/2022 4:00:00 PM 14.33 57.794 0.091 6.97 0.54 8.7
6/8/2022 4:15:00 PM 14.39 57.902 0.091 6.97 0.63 8.66
6/8/2022 4:30:00 PM 14.45 58.01 0.091 6.96 0.6 8.59
6/8/2022 4:45:00 PM 14.44 57.992 0.091 6.96 0.63 8.53
6/8/2022 5:00:00 PM 14.51 58.118 0.091 6.96 0.64 8.5
6/8/2022 5:15:00 PM 14.56 58.208 0.091 6.96 0.59 8.46
6/8/2022 5:30:00 PM 14.62 58.316 0.091 6.96 0.61 8.43
6/8/2022 5:45:00 PM 14.68 58.424 0.091 6.96 0.62 8.39
6/8/2022 6:00:00 PM 14.72 58.496 0.091 6.96 0.62 8.36
6/8/2022 6:15:00 PM 14.78 58.604 0.091 6.96 0.62 8.36
6/8/2022 6:30:00 PM 14.82 58.676 0.091 6.96 0.56 8.3
6/8/2022 6:45:00 PM 14.86 58.748 0.091 6.95 0.61 8.26
6/8/2022 7:00:00 PM 14.9 58.82 0.091 6.95 0.61 8.23
6/8/2022 7:15:00 PM 14.94 58.892 0.091 6.95 0.98 8.21
6/8/2022 7:30:00 PM 14.99 58.982 0.091 6.95 0.58 8.19
6/8/2022 7:45:00 PM 15.03 59.054 0.091 6.95 0.64 8.14
6/8/2022 8:00:00 PM 15.07 59.126 0.091 6.95 0.68 8.12
6/8/2022 8:15:00 PM 15.11 59.198 0.091 6.94 0.64 8.1
6/8/2022 8:30:00 PM 15.13 59.234 0.091 6.94 0.69 8.06
6/8/2022 8:45:00 PM 15.16 59.288 0.091 6.94 0.78 8.03
6/8/2022 9:00:00 PM 15.19 59.342 0.091 6.94 0.68 8.01
6/8/2022 9:15:00 PM 15.22 59.396 0.091 6.94 0.65 8
6/8/2022 9:30:00 PM 15.23 59.414 0.091 6.94 0.62 7.97
6/8/2022 9:45:00 PM 15.25 59.45 0.092 6.94 0.59 7.93
6/8/2022 10:00:00 PM 15.27 59.486 0.092 6.94 0.62 7.92
6/8/2022 10:15:00 PM 15.28 59.504 0.092 6.94 0.57 7.9
6/8/2022 10:30:00 PM 15.28 59.504 0.092 6.94 0.63 7.89
6/8/2022 10:45:00 PM 15.29 59.522 0.092 6.93 0.66 7.86
6/8/2022 11:00:00 PM 15.29 59.522 0.092 6.94 0.78 7.87
6/8/2022 11:15:00 PM 15.28 59.504 0.092 6.93 0.87 7.86
6/8/2022 11:30:00 PM 15.28 59.504 0.092 6.94 0.6 7.87
6/8/2022 11:45:00 PM 15.27 59.486 0.092 6.94 0.6 7.87
6/9/2022 12:00:00 AM 15.26 59.468 0.092 6.94 0.81 7.87
6/9/2022 12:15:00 AM 15.24 59.432 0.092 6.93 0.74 7.83
6/9/2022 12:30:00 AM 15.21 59.378 0.092 6.93 1.42 7.82
6/9/2022 12:45:00 AM 15.18 59.324 0.092 6.92 1.04 7.81
6/9/2022 1:00:00 AM 15.14 59.252 0.09 6.93 7.07 7.9
6/9/2022 1:15:00 AM 15.12 59.216 0.091 6.93 4.36 7.9
6/9/2022 1:30:00 AM 15.09 59.162 0.09 6.93 6.59 7.92
6/9/2022 1:45:00 AM 15.06 59.108 0.089 6.93 5.9 7.96
6/9/2022 2:00:00 AM 15.05 59.09 0.089 6.93 3.39 7.95
6/9/2022 2:15:00 AM 15.03 59.054 0.09 6.92 1.73 7.9
6/9/2022 2:30:00 AM 15.01 59.018 0.09 6.92 1.09 7.89
6/9/2022 2:45:00 AM 14.98 58.964 0.09 6.91 1.03 7.84
6/9/2022 3:00:00 AM 14.95 58.91 0.09 6.92 1.14 7.86
6/9/2022 3:15:00 AM 14.9 58.82 0.09 6.93 1.26 7.93
6/9/2022 3:30:00 AM 14.72 58.496 0.09 6.94 1.38 8.14
6/9/2022 3:45:00 AM 14.51 58.118 0.089 6.98 1.94 8.45
6/9/2022 4:00:00 AM 14.41 57.938 0.089 6.99 2.33 8.57
6/9/2022 4:15:00 AM 14.38 57.884 0.088 6.99 2.06 8.56
6/9/2022 4:30:00 AM 14.33 57.794 0.087 6.98 1.8 8.55
6/9/2022 4:45:00 AM 14.12 57.416 0.085 7 3 8.75
6/9/2022 5:00:00 AM 13.78 56.804 0.082 7.06 5.6 9.09
6/9/2022 5:15:00 AM 13.45 56.21 0.08 7.11 12.53 9.39
6/9/2022 5:30:00 AM 13.4 56.12 0.081 7.12 11.75 9.44
6/9/2022 5:45:00 AM 13.41 56.138 0.084 7.13 9.59 9.42
6/9/2022 6:00:00 AM 13.43 56.174 0.087 7.13 8.39 9.39
6/9/2022 6:15:00 AM 13.47 56.246 0.088 7.13 7.39 9.35
6/9/2022 6:30:00 AM 13.52 56.336 0.088 7.12 6.98 9.3
6/9/2022 6:45:00 AM 13.54 56.372 0.088 7.11 6.52 9.24
6/9/2022 7:00:00 AM 13.57 56.426 0.088 7.09 5.78 9.18
6/9/2022 7:15:00 AM 13.59 56.462 0.088 7.09 4.52 9.15
6/9/2022 7:30:00 AM 13.61 56.498 0.089 7.08 4.16 9.11
6/9/2022 7:45:00 AM 13.63 56.534 0.089 7.06 3.79 9.06
6/9/2022 8:00:00 AM 13.64 56.552 0.089 7.05 3.23 9
6/9/2022 8:15:00 AM 13.67 56.606 0.089 7.04 2.91 8.98
6/9/2022 8:30:00 AM 13.67 56.606 0.089 7.03 2.53 8.93
6/9/2022 8:45:00 AM 13.67 56.606 0.089 7.01 2.63 8.87
6/9/2022 9:00:00 AM 13.69 56.642 0.089 7.01 2.32 8.87
6/9/2022 9:15:00 AM 13.68 56.624 0.089 7.01 1.72 8.85
6/9/2022 9:30:00 AM 13.69 56.642 0.089 7 1.75 8.84
6/9/2022 9:45:00 AM 13.72 56.696 0.089 7 1.89 8.85
6/9/2022 10:00:00 AM 13.7 56.66 0.089 6.99 1.49 8.79
6/9/2022 10:15:00 AM 13.74 56.732 0.089 6.99 1.81 8.83
6/9/2022 10:30:00 AM 13.72 56.696 0.089 6.98 1.72 8.79
6/9/2022 10:45:00 AM 13.76 56.768 0.089 6.98 1.88 8.82
6/9/2022 11:00:00 AM 13.74 56.732 0.089 6.97 1.42 8.75
6/9/2022 11:15:00 AM 13.75 56.75 0.089 6.98 1.38 8.77
6/9/2022 11:30:00 AM 13.76 56.768 0.089 6.97 1.45 8.77
6/9/2022 11:45:00 AM 13.8 56.84 0.089 6.97 1.71 8.79
6/9/2022 12:00:00 PM 13.82 56.876 0.089 6.97 1.79 8.78
6/9/2022 12:15:00 PM 13.85 56.93 0.089 6.97 1.38 8.78
6/9/2022 12:30:00 PM 13.87 56.966 0.089 6.97 1.47 8.77
6/9/2022 12:45:00 PM 13.89 57.002 0.089 6.98 1.3 8.78
6/9/2022 1:00:00 PM 13.9 57.02 0.089 6.97 1.2 8.76
6/9/2022 1:15:00 PM 13.94 57.092 0.089 6.98 1.17 8.79
6/9/2022 1:30:00 PM 13.97 57.146 0.089 6.98 1.27 8.79
6/9/2022 1:45:00 PM 14 57.2 0.089 6.98 1.07 8.78
6/9/2022 2:00:00 PM 14.05 57.29 0.089 6.98 1.07 8.79
6/9/2022 2:15:00 PM 14.04 57.272 0.089 6.98 1.15 8.72
6/9/2022 2:30:00 PM 14.11 57.398 0.089 6.98 0.99 8.75
6/9/2022 2:45:00 PM 14.1 57.38 0.09 6.98 0.98 8.69
6/9/2022 3:00:00 PM 14.13 57.434 0.09 6.97 1.8 8.68
6/9/2022 3:15:00 PM 14.15 57.47 0.09 6.97 0.96 8.65
6/9/2022 3:30:00 PM 14.16 57.488 0.09 6.97 0.87 8.6
6/9/2022 3:45:00 PM 14.18 57.524 0.09 6.97 0.88 8.58
6/9/2022 4:00:00 PM 14.23 57.614 0.09 6.97 1.47 8.61
6/9/2022 4:15:00 PM 14.27 57.686 0.09 6.97 0.97 8.61
6/9/2022 4:30:00 PM 14.29 57.722 0.09 6.97 0.76 8.55
6/9/2022 4:45:00 PM 14.31 57.758 0.09 6.97 0.86 8.54
6/9/2022 5:00:00 PM 14.36 57.848 0.09 6.97 0.9 8.59
6/9/2022 5:15:00 PM 14.36 57.848 0.09 6.97 1 8.53
6/9/2022 5:30:00 PM 14.39 57.902 0.09 6.97 0.69 8.56
6/9/2022 5:45:00 PM 14.41 57.938 0.09 6.97 0.74 8.56
6/9/2022 6:00:00 PM 14.41 57.938 0.09 6.97 0.81 8.56
6/9/2022 6:15:00 PM 14.41 57.938 0.09 6.97 0.81 8.53
6/9/2022 6:30:00 PM 14.39 57.902 0.09 6.97 0.85 8.49
6/9/2022 6:45:00 PM 14.38 57.884 0.09 6.96 0.74 8.5
6/9/2022 7:00:00 PM 14.38 57.884 0.091 6.97 0.71 8.49
6/9/2022 7:15:00 PM 14.38 57.884 0.091 6.96 0.7 8.48
6/9/2022 7:30:00 PM 14.37 57.866 0.091 6.96 0.69 8.46
6/9/2022 7:45:00 PM 14.38 57.884 0.091 6.96 0.68 8.44
6/9/2022 8:00:00 PM 14.36 57.848 0.091 6.96 0.84 8.42
6/9/2022 8:15:00 PM 14.36 57.848 0.091 6.96 0.9 8.42
6/9/2022 8:30:00 PM 14.35 57.83 0.091 6.95 0.68 8.39
6/9/2022 8:45:00 PM 14.33 57.794 0.091 6.96 1.04 8.39
6/9/2022 9:00:00 PM 14.32 57.776 0.091 6.96 0.78 8.38
6/9/2022 9:15:00 PM 14.3 57.74 0.092 6.95 1.05 8.36
6/9/2022 9:30:00 PM 14.28 57.704 0.092 6.95 0.65 8.34
6/9/2022 9:45:00 PM 14.26 57.668 0.092 6.95 0.59 8.34
6/9/2022 10:00:00 PM 14.23 57.614 0.092 6.95 0.67 8.34
6/9/2022 10:15:00 PM 14.2 57.56 0.092 6.95 0.76 8.34
6/9/2022 10:30:00 PM 14.17 57.506 0.092 6.95 0.71 8.32
6/9/2022 10:45:00 PM 14.15 57.47 0.092 6.95 0.73 8.32
6/9/2022 11:00:00 PM 14.11 57.398 0.092 6.95 0.7 8.32
6/9/2022 11:15:00 PM 14.08 57.344 0.092 6.95 0.66 8.33
6/9/2022 11:30:00 PM 14.04 57.272 0.092 6.95 0.78 8.35
6/9/2022 11:45:00 PM 14 57.2 0.093 6.95 0.9 8.35
6/10/2022 12:00:00 AM 13.95 57.11 0.093 6.95 0.69 8.36
6/10/2022 12:15:00 AM 13.91 57.038 0.093 6.95 0.63 8.39
6/10/2022 12:30:00 AM 13.87 56.966 0.093 6.95 0.66 8.39
6/10/2022 12:45:00 AM 13.82 56.876 0.093 6.95 0.7 8.41
6/10/2022 1:00:00 AM 13.78 56.804 0.093 6.95 0.75 8.42
6/10/2022 1:15:00 AM 13.73 56.714 0.093 6.95 0.71 8.44
6/10/2022 1:30:00 AM 13.69 56.642 0.093 6.95 0.77 8.44
6/10/2022 1:45:00 AM 13.64 56.552 0.093 6.95 0.64 8.48
6/10/2022 2:00:00 AM 13.58 56.444 0.093 6.95 0.94 8.5
6/10/2022 2:15:00 AM 13.53 56.354 0.093 6.95 0.64 8.52
6/10/2022 2:30:00 AM 13.47 56.246 0.093 6.95 0.8 8.51
6/10/2022 2:45:00 AM 13.42 56.156 0.093 6.95 0.62 8.54
6/10/2022 3:00:00 AM 13.36 56.048 0.093 6.95 0.93 8.56
6/10/2022 3:15:00 AM 13.3 55.94 0.093 6.95 0.71 8.59
6/10/2022 3:30:00 AM 13.25 55.85 0.093 6.95 0.75 8.59
6/10/2022 3:45:00 AM 13.2 55.76 0.093 6.95 0.62 8.61
6/10/2022 4:00:00 AM 13.14 55.652 0.093 6.95 0.75 8.64
6/10/2022 4:15:00 AM 13.09 55.562 0.093 6.95 0.73 8.64
6/10/2022 4:30:00 AM 13.03 55.454 0.093 6.95 0.63 8.67
6/10/2022 4:45:00 AM 12.96 55.328 0.093 6.95 0.87 8.69
6/10/2022 5:00:00 AM 12.91 55.238 0.093 6.95 0.71 8.72
6/10/2022 5:15:00 AM 12.85 55.13 0.093 6.95 0.74 8.74
6/10/2022 5:30:00 AM 12.8 55.04 0.094 6.95 0.81 8.75
6/10/2022 5:45:00 AM 12.74 54.932 0.094 6.95 0.66 8.77
6/10/2022 6:00:00 AM 12.69 54.842 0.094 6.95 0.7 8.8
6/10/2022 6:15:00 AM 12.63 54.734 0.094 6.95 0.57 8.82
6/10/2022 6:30:00 AM 12.57 54.626 0.094 6.95 0.6 8.82
6/10/2022 6:45:00 AM 12.51 54.518 0.094 6.96 0.68 8.88
6/10/2022 7:00:00 AM 12.47 54.446 0.094 6.95 0.65 8.88
6/10/2022 7:15:00 AM 12.43 54.374 0.094 6.95 0.57 8.92
6/10/2022 7:30:00 AM 12.39 54.302 0.094 6.96 0.73 8.93
6/10/2022 7:45:00 AM 12.36 54.248 0.094 6.96 0.65 8.97
6/10/2022 8:00:00 AM 12.33 54.194 0.093 6.96 0.57 8.99
6/10/2022 8:15:00 AM 12.31 54.158 0.093 6.96 0.64 9.01
6/10/2022 8:30:00 AM 12.27 54.086 0.093 6.96 0.61 9.05
6/10/2022 8:45:00 AM 12.25 54.05 0.093 6.96 0.64 9.07
6/10/2022 9:00:00 AM 12.21 53.978 0.093 6.97 0.58 9.15
6/10/2022 9:15:00 AM 12.19 53.942 0.093 6.97 0.64 9.18
6/10/2022 9:30:00 AM 12.17 53.906 0.093 6.97 0.62 9.19
6/10/2022 9:45:00 AM 12.12 53.816 0.093 6.94 0.58 9.23
6/10/2022 10:00:00 AM 12.1 53.78 0.093 6.95 0.59 9.26
6/10/2022 10:15:00 AM 12.08 53.744 0.093 6.95 0.61 9.26
6/10/2022 10:30:00 AM 12.08 53.744 0.093 6.95 0.59 9.26
6/10/2022 10:45:00 AM 12.06 53.708 0.093 6.96 0.55 9.3
6/10/2022 11:00:00 AM 12.06 53.708 0.093